Darstellungsparameter: Aktuell verwendete Einstellungen:
Skalierung der Graphiken ... ?
xyx+y,   Skalierungsfaktor:      Skalierung: Modus: x, Faktor: 1
Darstellungszeitraum ... ?
Vom - - bis: - -   Zeitraum: 30.08.2014 - 05.09.2014
Min/Max/Avg-Anzeige ... ?
Zeige MMA aktuell
Zeige MMA Monat
Zeige MMA alles
Zeige --A aktuell
Zeige --A Monat
Zeige --A alles
Keine MMA-Anzeige
MMA:
Keine MMA-Graphiken
MMA-Basis: 30.08.2014 - 05.09.2014
Quicknavigation für Darstellung... ?
Tage:      1T, 2T, 3T, 5T -1T -2T -3T -5T +1T +2T +3T +5T
Wochen: 1W, 2W, 3W -1W -2W -3W +1W +2W +3W
Monate: 1M, 3M, 6M -1M -3M -6M +1M +3M +6M
Jahre:    1J, 3J, 5J, 10J -1J -3J -5J -10J +1J +3J +5J +10J
Nutze für die Darstellung ... ?
Originaldaten oder Mittelwerte auf ...
Stundenbasis Tagesbasis Wochenbasis
Monatsbasis Jahresbasis      Datenbasis: Original-Daten
Darstellen als:
Statistik (Auto) Statistik J:M      Darstellung:
Zur Graphik,    zurück zur Übersicht aller Sensoren.
 
Tabellarische Datenbersicht: ?
 
Sensor: Nr:Datum:Temp:Abs-Feuchte:Windchill:Wind:
Aussen-T/F 1 30-08-2014 00:00:00 15.5 C 12.82 g/m*3 15.5 C 0 km/h
2 30-08-2014 00:05:00 15.5 C 12.82 g/m*3 15.5 C 0 km/h
3 30-08-2014 00:10:00 15.4 C 12.74 g/m*3 15.4 C 0 km/h
4 30-08-2014 00:15:00 15.5 C 12.82 g/m*3 15.5 C 0 km/h
5 30-08-2014 00:20:00 15.4 C 12.74 g/m*3 15.4 C 0 km/h
6 30-08-2014 00:25:00 15.4 C 12.74 g/m*3 15.4 C 0 km/h
7 30-08-2014 00:30:00 15.4 C 12.74 g/m*3 15.4 C 0 km/h
8 30-08-2014 00:35:00 15.4 C 12.74 g/m*3 15.4 C 0 km/h
9 30-08-2014 00:40:00 15.4 C 12.74 g/m*3 15.4 C 0 km/h
10 30-08-2014 00:45:00 15.3 C 12.67 g/m*3 15.3 C 0 km/h
11 30-08-2014 00:50:00 15.2 C 12.59 g/m*3 15.2 C 0 km/h
12 30-08-2014 00:55:00 15 C 12.44 g/m*3 15 C 0 km/h
13 30-08-2014 01:00:00 14.9 C 12.36 g/m*3 14.9 C 0 km/h
14 30-08-2014 01:05:00 14.8 C 12.29 g/m*3 14.8 C 0 km/h
15 30-08-2014 01:10:00 14.7 C 12.21 g/m*3 14.7 C 0 km/h
16 30-08-2014 01:15:00 14.6 C 12.14 g/m*3 14.6 C 0 km/h
17 30-08-2014 01:20:00 14.6 C 12.14 g/m*3 14.6 C 0 km/h
18 30-08-2014 01:25:00 14.5 C 12.06 g/m*3 14.5 C 0 km/h
19 30-08-2014 01:30:00 14.4 C 11.99 g/m*3 14.4 C 0 km/h
20 30-08-2014 01:35:00 14.4 C 11.99 g/m*3 14.4 C 0 km/h
21 30-08-2014 01:40:00 14.4 C 11.99 g/m*3 14.4 C 0 km/h
22 30-08-2014 01:45:00 14.4 C 11.99 g/m*3 14.4 C 0 km/h
23 30-08-2014 01:50:00 14.4 C 11.99 g/m*3 14.4 C 0 km/h
24 30-08-2014 01:55:00 14.4 C 11.99 g/m*3 14.4 C 0 km/h
25 30-08-2014 02:00:00 14.6 C 12.14 g/m*3 14.6 C 0 km/h
Sensor: Nr:Datum:Temp:Abs-Feuchte:Windchill:Wind:
Aussen-T/F 26 30-08-2014 02:05:00 14.7 C 12.34 g/m*3 14.7 C 0 km/h
27 30-08-2014 02:10:00 14.7 C 12.34 g/m*3 14.7 C 0 km/h
28 30-08-2014 02:15:00 14.8 C 12.41 g/m*3 14.8 C 0 km/h
29 30-08-2014 02:20:00 14.8 C 12.29 g/m*3 14.8 C 0 km/h
30 30-08-2014 02:25:00 14.7 C 12.21 g/m*3 14.7 C 0 km/h
31 30-08-2014 02:30:00 14.5 C 12.06 g/m*3 14.5 C 0 km/h
32 30-08-2014 02:35:00 14.4 C 11.99 g/m*3 14.4 C 0 km/h
33 30-08-2014 02:40:00 14.3 C 11.92 g/m*3 14.3 C 0 km/h
34 30-08-2014 02:45:00 14.2 C 11.84 g/m*3 14.2 C 0 km/h
35 30-08-2014 02:50:00 14.1 C 11.77 g/m*3 14.1 C 0 km/h
36 30-08-2014 02:55:00 13.9 C 11.63 g/m*3 13.9 C 0 km/h
37 30-08-2014 03:00:00 13.9 C 11.63 g/m*3 13.9 C 0 km/h
38 30-08-2014 03:05:00 14.1 C 11.77 g/m*3 14.1 C 0 km/h
39 30-08-2014 03:10:00 14.2 C 11.84 g/m*3 14.2 C 0 km/h
40 30-08-2014 03:15:00 14.2 C 11.84 g/m*3 14.2 C 0 km/h
41 30-08-2014 03:20:00 14.2 C 11.97 g/m*3 14.2 C 0 km/h
42 30-08-2014 03:25:00 14.2 C 11.84 g/m*3 14.2 C 0 km/h
43 30-08-2014 03:30:00 14.2 C 11.84 g/m*3 14.2 C 0 km/h
44 30-08-2014 03:35:00 14.2 C 11.84 g/m*3 14.2 C 0 km/h
45 30-08-2014 03:40:00 14.1 C 11.77 g/m*3 14.1 C 0 km/h
46 30-08-2014 03:45:00 14.1 C 11.77 g/m*3 14.1 C 0 km/h
47 30-08-2014 03:50:00 13.9 C 11.63 g/m*3 13.9 C 0 km/h
48 30-08-2014 03:55:00 13.9 C 11.63 g/m*3 13.9 C 0 km/h
49 30-08-2014 04:00:00 13.9 C 11.63 g/m*3 13.9 C 0 km/h
50 30-08-2014 04:05:00 13.7 C 11.49 g/m*3 13.7 C 0 km/h
Sensor: Nr:Datum:Temp:Abs-Feuchte:Windchill:Wind:
Aussen-T/F 51 30-08-2014 04:10:00 13.6 C 11.42 g/m*3 13.6 C 0 km/h
52 30-08-2014 04:15:00 13.5 C 11.35 g/m*3 13.5 C 0 km/h
53 30-08-2014 04:20:00 13.4 C 11.28 g/m*3 13.4 C 0 km/h
54 30-08-2014 04:25:00 13.5 C 11.35 g/m*3 13.5 C 0 km/h
55 30-08-2014 04:30:00 13.6 C 11.42 g/m*3 13.6 C 0 km/h
56 30-08-2014 04:35:00 13.5 C 11.35 g/m*3 13.5 C 0 km/h
57 30-08-2014 04:40:00 13.4 C 11.28 g/m*3 13.4 C 0 km/h
58 30-08-2014 04:45:00 13.2 C 11.14 g/m*3 13.2 C 0 km/h
59 30-08-2014 04:50:00 13.2 C 11.14 g/m*3 13.2 C 0 km/h
60 30-08-2014 04:55:00 13.2 C 11.14 g/m*3 13.2 C 0 km/h
61 30-08-2014 05:00:00 13.2 C 11.14 g/m*3 13.2 C 0 km/h
62 30-08-2014 05:05:00 13.2 C 11.14 g/m*3 13.2 C 0 km/h
63 30-08-2014 05:10:00 13.2 C 11.25 g/m*3 13.2 C 0 km/h
64 30-08-2014 05:15:00 13.3 C 11.32 g/m*3 13.3 C 0 km/h
65 30-08-2014 05:20:00 13.2 C 11.25 g/m*3 13.2 C 0 km/h
66 30-08-2014 05:25:00 13.2 C 11.14 g/m*3 13.2 C 0 km/h
67 30-08-2014 05:30:00 13.1 C 11.07 g/m*3 13.1 C 0 km/h
68 30-08-2014 05:35:00 12.9 C 10.93 g/m*3 12.9 C 0 km/h
69 30-08-2014 05:40:00 12.8 C 10.87 g/m*3 12.8 C 0 km/h
70 30-08-2014 05:45:00 12.7 C 10.8 g/m*3 12.7 C 0 km/h
71 30-08-2014 05:50:00 12.9 C 11.05 g/m*3 12.9 C 0 km/h
72 30-08-2014 05:55:00 13.1 C 11.18 g/m*3 13.1 C 0 km/h
73 30-08-2014 06:00:00 13.2 C 11.25 g/m*3 13.2 C 0 km/h
74 30-08-2014 06:05:00 13.2 C 11.25 g/m*3 13.2 C 0 km/h
75 30-08-2014 06:10:00 13.2 C 11.25 g/m*3 13.2 C 0 km/h
Sensor: Nr:Datum:Temp:Abs-Feuchte:Windchill:Wind:
Aussen-T/F 76 30-08-2014 06:15:00 13.2 C 11.14 g/m*3 13.2 C 0 km/h
77 30-08-2014 06:20:00 13.2 C 11.25 g/m*3 13.2 C 0 km/h
78 30-08-2014 06:25:00 13.2 C 11.25 g/m*3 13.2 C 0 km/h
79 30-08-2014 06:30:00 13.3 C 11.32 g/m*3 13.3 C 0 km/h
80 30-08-2014 06:35:00 13.3 C 11.32 g/m*3 13.3 C 0 km/h
81 30-08-2014 06:40:00 13.4 C 11.39 g/m*3 13.4 C 0 km/h
82 30-08-2014 06:45:00 13.4 C 11.39 g/m*3 13.4 C 0 km/h
83 30-08-2014 06:50:00 13.4 C 11.39 g/m*3 13.4 C 0 km/h
84 30-08-2014 06:55:00 13.5 C 11.46 g/m*3 13.5 C 0 km/h
85 30-08-2014 07:00:00 13.6 C 11.53 g/m*3 13.6 C 0 km/h
86 30-08-2014 07:05:00 13.6 C 11.42 g/m*3 13.6 C 0 km/h
87 30-08-2014 07:10:00 13.6 C 11.42 g/m*3 13.6 C 0 km/h
88 30-08-2014 07:15:00 13.6 C 11.53 g/m*3 13.6 C 0 km/h
89 30-08-2014 07:20:00 13.6 C 11.53 g/m*3 13.6 C 4.8 km/h
90 30-08-2014 07:25:00 13.6 C 11.42 g/m*3 13.6 C 0 km/h
91 30-08-2014 07:30:00 13.6 C 11.42 g/m*3 13.6 C 0 km/h
92 30-08-2014 07:35:00 13.6 C 11.42 g/m*3 13.6 C 0 km/h
93 30-08-2014 07:40:00 13.7 C 11.49 g/m*3 13.7 C 0 km/h
94 30-08-2014 07:45:00 13.7 C 11.49 g/m*3 13.7 C 0 km/h
95 30-08-2014 07:50:00 13.7 C 11.49 g/m*3 13.7 C 0 km/h
96 30-08-2014 07:55:00 13.7 C 11.49 g/m*3 13.7 C 0 km/h
97 30-08-2014 08:00:00 13.8 C 11.56 g/m*3 13.8 C 6.4 km/h
98 30-08-2014 08:05:00 13.8 C 11.56 g/m*3 13.8 C 0 km/h
99 30-08-2014 08:10:00 13.8 C 11.56 g/m*3 13.8 C 0 km/h
100 30-08-2014 08:15:00 13.9 C 11.63 g/m*3 13.9 C 0 km/h
Sensor: Nr:Datum:Temp:Abs-Feuchte:Windchill:Wind:
Aussen-T/F 101 30-08-2014 08:20:00 14 C 11.7 g/m*3 14 C 6.4 km/h
102 30-08-2014 08:25:00 14.1 C 11.77 g/m*3 14.1 C 6.4 km/h
103 30-08-2014 08:30:00 14.2 C 11.84 g/m*3 14.2 C 0 km/h
104 30-08-2014 08:35:00 14.3 C 11.92 g/m*3 14.3 C 9.7 km/h
105 30-08-2014 08:40:00 14.4 C 11.87 g/m*3 14.4 C 9.7 km/h
106 30-08-2014 08:45:00 14.5 C 11.94 g/m*3 14.5 C 6.4 km/h
107 30-08-2014 08:50:00 14.6 C 11.89 g/m*3 14.6 C 4.8 km/h
108 30-08-2014 08:55:00 14.7 C 11.96 g/m*3 14.7 C 4.8 km/h
109 30-08-2014 09:00:00 14.8 C 12.03 g/m*3 14.8 C 6.4 km/h
110 30-08-2014 09:05:00 14.9 C 11.98 g/m*3 14.9 C 3.2 km/h
111 30-08-2014 09:10:00 15 C 12.05 g/m*3 15 C 4.8 km/h
112 30-08-2014 09:15:00 15.1 C 12.13 g/m*3 15.1 C 4.8 km/h
113 30-08-2014 09:20:00 15.2 C 12.07 g/m*3 15.2 C 4.8 km/h
114 30-08-2014 09:25:00 15.3 C 12.14 g/m*3 15.3 C 8.1 km/h
115 30-08-2014 09:30:00 15.5 C 12.29 g/m*3 15.5 C 6.4 km/h
116 30-08-2014 09:35:00 15.6 C 12.23 g/m*3 15.6 C 9.7 km/h
117 30-08-2014 09:40:00 15.8 C 12.25 g/m*3 15.8 C 9.7 km/h
118 30-08-2014 09:45:00 15.9 C 12.32 g/m*3 15.9 C 9.7 km/h
119 30-08-2014 09:50:00 16 C 12.4 g/m*3 16 C 8.1 km/h
120 30-08-2014 09:55:00 16.2 C 12.55 g/m*3 16.2 C 3.2 km/h
121 30-08-2014 10:00:00 16.3 C 12.62 g/m*3 16.3 C 4.8 km/h
122 30-08-2014 10:05:00 16.4 C 12.56 g/m*3 16.4 C 4.8 km/h
123 30-08-2014 10:10:00 16.5 C 12.36 g/m*3 16.5 C 4.8 km/h
124 30-08-2014 10:15:00 16.7 C 12.51 g/m*3 16.7 C 8.1 km/h
125 30-08-2014 10:20:00 16.8 C 12.44 g/m*3 16.8 C 6.4 km/h
Sensor: Nr:Datum:Temp:Abs-Feuchte:Windchill:Wind:
Aussen-T/F 126 30-08-2014 10:25:00 17.1 C 12.66 g/m*3 17.1 C 6.4 km/h
127 30-08-2014 10:30:00 17.3 C 12.52 g/m*3 17.3 C 4.8 km/h
128 30-08-2014 10:35:00 17.4 C 12.6 g/m*3 17.4 C 8.1 km/h
129 30-08-2014 10:40:00 17.6 C 12.6 g/m*3 17.6 C 3.2 km/h
130 30-08-2014 10:45:00 17.6 C 12.75 g/m*3 17.6 C 4.8 km/h
131 30-08-2014 10:50:00 17.7 C 12.98 g/m*3 17.7 C 9.7 km/h
132 30-08-2014 10:55:00 17.5 C 12.82 g/m*3 17.5 C 0 km/h
133 30-08-2014 11:00:00 17.4 C 12.75 g/m*3 17.4 C 3.2 km/h
134 30-08-2014 11:05:00 17.4 C 12.89 g/m*3 17.4 C 0 km/h
135 30-08-2014 11:10:00 17.5 C 12.67 g/m*3 17.5 C 0 km/h
136 30-08-2014 11:15:00 17.7 C 12.67 g/m*3 17.7 C 1.6 km/h
137 30-08-2014 11:20:00 17.8 C 13.05 g/m*3 17.8 C 8.1 km/h
138 30-08-2014 11:25:00 17.9 C 12.37 g/m*3 17.9 C 4.8 km/h
139 30-08-2014 11:30:00 18 C 12.29 g/m*3 18 C 9.7 km/h
140 30-08-2014 11:35:00 18.1 C 12.82 g/m*3 18.1 C 0 km/h
141 30-08-2014 11:40:00 18.2 C 12.75 g/m*3 18.2 C 4.8 km/h
142 30-08-2014 11:45:00 18.4 C 12.58 g/m*3 18.4 C 6.4 km/h
143 30-08-2014 11:50:00 18.7 C 12.65 g/m*3 18.7 C 6.4 km/h
144 30-08-2014 11:55:00 18.7 C 12.97 g/m*3 18.7 C 4.8 km/h
145 30-08-2014 12:00:00 18.7 C 12.49 g/m*3 18.7 C 8.1 km/h
146 30-08-2014 12:05:00 18.8 C 12.56 g/m*3 18.8 C 8.1 km/h
147 30-08-2014 12:10:00 18.9 C 12.96 g/m*3 18.9 C 9.7 km/h
148 30-08-2014 12:15:00 19.2 C 12.7 g/m*3 19.2 C 9.7 km/h
149 30-08-2014 12:20:00 19.5 C 12.59 g/m*3 19.5 C 12.9 km/h
150 30-08-2014 12:25:00 19.6 C 12.83 g/m*3 19.6 C 11.3 km/h
Sensor: Nr:Datum:Temp:Abs-Feuchte:Windchill:Wind:
Aussen-T/F 151 30-08-2014 12:30:00 19.7 C 12.74 g/m*3 19.7 C 9.7 km/h
152 30-08-2014 12:35:00 19.7 C 12.57 g/m*3 19.7 C 8.1 km/h
153 30-08-2014 12:40:00 19.7 C 12.57 g/m*3 19.7 C 9.7 km/h
154 30-08-2014 12:45:00 19.7 C 12.74 g/m*3 19.7 C 3.2 km/h
155 30-08-2014 12:50:00 19.8 C 12.98 g/m*3 19.8 C 9.7 km/h
156 30-08-2014 12:55:00 19.8 C 12.81 g/m*3 19.8 C 1.6 km/h
157 30-08-2014 13:00:00 19.8 C 12.98 g/m*3 19.8 C 8.1 km/h
158 30-08-2014 13:05:00 19.9 C 13.06 g/m*3 19.9 C 8.1 km/h
159 30-08-2014 13:10:00 19.9 C 13.57 g/m*3 19.9 C 3.2 km/h
160 30-08-2014 13:15:00 19.7 C 12.57 g/m*3 19.7 C 4.8 km/h
161 30-08-2014 13:20:00 19.7 C 13.08 g/m*3 19.7 C 4.8 km/h
162 30-08-2014 13:25:00 19.6 C 13.17 g/m*3 19.6 C 3.2 km/h
163 30-08-2014 13:30:00 19.7 C 13.08 g/m*3 19.7 C 6.4 km/h
164 30-08-2014 13:35:00 19.8 C 12.81 g/m*3 19.8 C 6.4 km/h
165 30-08-2014 13:40:00 19.9 C 13.23 g/m*3 19.9 C 3.2 km/h
166 30-08-2014 13:45:00 19.8 C 12.81 g/m*3 19.8 C 8.1 km/h
167 30-08-2014 13:50:00 19.8 C 12.81 g/m*3 19.8 C 6.4 km/h
168 30-08-2014 13:55:00 19.8 C 12.81 g/m*3 19.8 C 9.7 km/h
169 30-08-2014 14:00:00 19.9 C 12.89 g/m*3 19.9 C 8.1 km/h
170 30-08-2014 14:05:00 20.1 C 12.86 g/m*3 20.1 C 8.1 km/h
171 30-08-2014 14:10:00 20.2 C 13.29 g/m*3 20.2 C 3.2 km/h
172 30-08-2014 14:15:00 20.3 C 13.54 g/m*3 20.3 C 8.1 km/h
173 30-08-2014 14:20:00 20.5 C 13.35 g/m*3 20.5 C 9.7 km/h
174 30-08-2014 14:25:00 20.7 C 13.14 g/m*3 20.7 C 4.8 km/h
175 30-08-2014 14:30:00 20.9 C 13.11 g/m*3 20.9 C 9.7 km/h
Sensor: Nr:Datum:Temp:Abs-Feuchte:Windchill:Wind:
Aussen-T/F 176 30-08-2014 14:35:00 21.1 C 12.53 g/m*3 21.1 C 12.9 km/h
177 30-08-2014 14:40:00 21 C 13.01 g/m*3 21 C 4.8 km/h
178 30-08-2014 14:45:00 20.8 C 13.22 g/m*3 20.8 C 9.7 km/h
179 30-08-2014 14:50:00 20.8 C 12.67 g/m*3 20.8 C 6.4 km/h
180 30-08-2014 14:55:00 20.6 C 13.24 g/m*3 20.6 C 6.4 km/h
181 30-08-2014 15:00:00 20.4 C 12.91 g/m*3 20.4 C 1.6 km/h
182 30-08-2014 15:05:00 20.3 C 13.19 g/m*3 20.3 C 4.8 km/h
183 30-08-2014 15:10:00 20.2 C 13.64 g/m*3 20.2 C 0 km/h
184 30-08-2014 15:15:00 19.9 C 13.57 g/m*3 19.9 C 4.8 km/h
185 30-08-2014 15:20:00 20.1 C 13.73 g/m*3 20.1 C 8.1 km/h
186 30-08-2014 15:25:00 20.7 C 13.14 g/m*3 20.7 C 19.3 km/h
187 30-08-2014 15:30:00 21.5 C 12.63 g/m*3 21.5 C 19.3 km/h
188 30-08-2014 15:35:00 22.1 C 12.69 g/m*3 22.1 C 17.7 km/h
189 30-08-2014 15:40:00 22.2 C 12.96 g/m*3 22.2 C 12.9 km/h
190 30-08-2014 15:45:00 22.2 C 12.57 g/m*3 22.2 C 17.7 km/h
191 30-08-2014 15:50:00 22.1 C 12.69 g/m*3 22.1 C 8.1 km/h
192 30-08-2014 15:55:00 21.8 C 12.66 g/m*3 21.8 C 9.7 km/h
193 30-08-2014 16:00:00 21.3 C 12.3 g/m*3 21.3 C 4.8 km/h
194 30-08-2014 16:05:00 20.9 C 12.75 g/m*3 20.9 C 14.5 km/h
195 30-08-2014 16:10:00 20.6 C 12.89 g/m*3 20.6 C 1.6 km/h
196 30-08-2014 16:15:00 20.2 C 12.76 g/m*3 20.2 C 3.2 km/h
197 30-08-2014 16:20:00 19.9 C 12.54 g/m*3 19.9 C 8.1 km/h
198 30-08-2014 16:25:00 19.7 C 13.08 g/m*3 19.7 C 3.2 km/h
199 30-08-2014 16:30:00 19.4 C 12.85 g/m*3 19.4 C 4.8 km/h
200 30-08-2014 16:35:00 19 C 13.2 g/m*3 19 C 1.6 km/h
Sensor: Nr:Datum:Temp:Abs-Feuchte:Windchill:Wind:
Aussen-T/F 201 30-08-2014 16:40:00 18.4 C 13.21 g/m*3 18.4 C 3.2 km/h
202 30-08-2014 16:45:00 18.1 C 13.44 g/m*3 18.1 C 1.6 km/h
203 30-08-2014 16:50:00 17.8 C 13.36 g/m*3 17.8 C 1.6 km/h
204 30-08-2014 16:55:00 17.6 C 13.5 g/m*3 17.6 C 1.6 km/h
205 30-08-2014 17:00:00 17.3 C 13.26 g/m*3 17.3 C 1.6 km/h
206 30-08-2014 17:05:00 17.2 C 13.33 g/m*3 17.2 C 8.1 km/h
207 30-08-2014 17:10:00 17.1 C 13.25 g/m*3 17.1 C 1.6 km/h
208 30-08-2014 17:15:00 16.9 C 13.23 g/m*3 16.9 C 1.6 km/h
209 30-08-2014 17:20:00 16.8 C 13.3 g/m*3 16.8 C 1.6 km/h
210 30-08-2014 17:25:00 16.7 C 13.22 g/m*3 16.7 C 1.6 km/h
211 30-08-2014 17:30:00 16.7 C 13.36 g/m*3 16.7 C 1.6 km/h
212 30-08-2014 17:35:00 16.7 C 13.36 g/m*3 16.7 C 1.6 km/h
213 30-08-2014 17:40:00 16.7 C 13.36 g/m*3 16.7 C 1.6 km/h
214 30-08-2014 17:45:00 16.6 C 13.42 g/m*3 16.6 C 1.6 km/h
215 30-08-2014 17:50:00 16.6 C 13.42 g/m*3 16.6 C 0 km/h
216 30-08-2014 17:55:00 16.6 C 13.42 g/m*3 16.6 C 0 km/h
217 30-08-2014 18:00:00 16.5 C 13.34 g/m*3 16.5 C 1.6 km/h
218 30-08-2014 18:05:00 16.4 C 13.26 g/m*3 16.4 C 1.6 km/h
219 30-08-2014 18:10:00 16.4 C 13.26 g/m*3 16.4 C 1.6 km/h
220 30-08-2014 18:15:00 16.5 C 13.34 g/m*3 16.5 C 0 km/h
221 30-08-2014 18:20:00 16.6 C 13.56 g/m*3 16.6 C 0 km/h
222 30-08-2014 18:25:00 16.6 C 13.42 g/m*3 16.6 C 0 km/h
223 30-08-2014 18:30:00 16.6 C 13.56 g/m*3 16.6 C 0 km/h
224 30-08-2014 18:35:00 16.5 C 13.48 g/m*3 16.5 C 0 km/h
225 30-08-2014 18:40:00 16.4 C 13.4 g/m*3 16.4 C 0 km/h
Sensor: Nr:Datum:Temp:Abs-Feuchte:Windchill:Wind:
Aussen-T/F 226 30-08-2014 18:45:00 16.4 C 13.4 g/m*3 16.4 C 0 km/h
227 30-08-2014 18:50:00 16.4 C 13.4 g/m*3 16.4 C 0 km/h
228 30-08-2014 18:55:00 16.4 C 13.4 g/m*3 16.4 C 0 km/h
229 30-08-2014 19:00:00 16.4 C 13.4 g/m*3 16.4 C 0 km/h
230 30-08-2014 19:05:00 16.4 C 13.4 g/m*3 16.4 C 0 km/h
231 30-08-2014 19:10:00 16.3 C 13.32 g/m*3 16.3 C 0 km/h
232 30-08-2014 19:15:00 16.3 C 13.32 g/m*3 16.3 C 0 km/h
233 30-08-2014 19:20:00 16.3 C 13.32 g/m*3 16.3 C 0 km/h
234 30-08-2014 19:25:00 16.3 C 13.32 g/m*3 16.3 C 0 km/h
235 30-08-2014 19:30:00 16.3 C 13.32 g/m*3 16.3 C 0 km/h
236 30-08-2014 19:35:00 16.2 C 13.24 g/m*3 16.2 C 0 km/h
237 30-08-2014 19:40:00 16.2 C 13.24 g/m*3 16.2 C 0 km/h
238 30-08-2014 19:45:00 16.2 C 13.24 g/m*3 16.2 C 0 km/h
239 30-08-2014 19:50:00 16.2 C 13.24 g/m*3 16.2 C 0 km/h
240 30-08-2014 19:55:00 16.1 C 13.16 g/m*3 16.1 C 0 km/h
241 30-08-2014 20:00:00 16.1 C 13.16 g/m*3 16.1 C 0 km/h
242 30-08-2014 20:05:00 16 C 13.08 g/m*3 16 C 0 km/h
243 30-08-2014 20:10:00 15.9 C 13 g/m*3 15.9 C 1.6 km/h
244 30-08-2014 20:15:00 15.9 C 13 g/m*3 15.9 C 0 km/h
245 30-08-2014 20:20:00 15.9 C 13.14 g/m*3 15.9 C 0 km/h
246 30-08-2014 20:25:00 15.9 C 13.14 g/m*3 15.9 C 0 km/h
247 30-08-2014 20:30:00 15.9 C 13.14 g/m*3 15.9 C 0 km/h
248 30-08-2014 20:35:00 15.9 C 13.14 g/m*3 15.9 C 0 km/h
249 30-08-2014 20:40:00 15.8 C 13.06 g/m*3 15.8 C 0 km/h
250 30-08-2014 20:45:00 15.8 C 13.06 g/m*3 15.8 C 0 km/h
Sensor: Nr:Datum:Temp:Abs-Feuchte:Windchill:Wind:
Aussen-T/F 251 30-08-2014 20:50:00 15.8 C 13.06 g/m*3 15.8 C 0 km/h
252 30-08-2014 20:55:00 15.8 C 13.06 g/m*3 15.8 C 0 km/h
253 30-08-2014 21:00:00 15.7 C 12.98 g/m*3 15.7 C 0 km/h
254 30-08-2014 21:05:00 15.7 C 12.98 g/m*3 15.7 C 0 km/h
255 30-08-2014 21:10:00 15.7 C 12.98 g/m*3 15.7 C 0 km/h
256 30-08-2014 21:15:00 15.7 C 12.98 g/m*3 15.7 C 0 km/h
257 30-08-2014 21:20:00 15.7 C 12.98 g/m*3 15.7 C 0 km/h
258 30-08-2014 21:25:00 15.7 C 12.98 g/m*3 15.7 C 0 km/h
259 30-08-2014 21:30:00 15.7 C 12.98 g/m*3 15.7 C 0 km/h
260 30-08-2014 21:35:00 15.7 C 12.98 g/m*3 15.7 C 0 km/h
261 30-08-2014 21:40:00 15.8 C 13.06 g/m*3 15.8 C 0 km/h
262 30-08-2014 21:45:00 15.8 C 13.06 g/m*3 15.8 C 0 km/h
263 30-08-2014 21:50:00 15.8 C 13.06 g/m*3 15.8 C 0 km/h
264 30-08-2014 21:55:00 15.8 C 13.06 g/m*3 15.8 C 0 km/h
265 30-08-2014 22:00:00 15.8 C 13.06 g/m*3 15.8 C 0 km/h
266 30-08-2014 22:05:00 15.8 C 13.06 g/m*3 15.8 C 0 km/h
267 30-08-2014 22:10:00 15.8 C 13.06 g/m*3 15.8 C 0 km/h
268 30-08-2014 22:15:00 15.8 C 13.06 g/m*3 15.8 C 0 km/h
269 30-08-2014 22:20:00 15.8 C 13.06 g/m*3 15.8 C 0 km/h
270 30-08-2014 22:25:00 15.8 C 13.06 g/m*3 15.8 C 0 km/h
271 30-08-2014 22:30:00 15.8 C 13.06 g/m*3 15.8 C 0 km/h
272 30-08-2014 22:35:00 15.8 C 13.06 g/m*3 15.8 C 0 km/h
273 30-08-2014 22:40:00 15.8 C 13.06 g/m*3 15.8 C 0 km/h
274 30-08-2014 22:45:00 15.7 C 12.98 g/m*3 15.7 C 0 km/h
275 30-08-2014 22:50:00 15.7 C 12.98 g/m*3 15.7 C 0 km/h
Sensor: Nr:Datum:Temp:Abs-Feuchte:Windchill:Wind:
Aussen-T/F 276 30-08-2014 22:55:00 15.7 C 12.98 g/m*3 15.7 C 0 km/h
277 30-08-2014 23:00:00 15.7 C 12.98 g/m*3 15.7 C 0 km/h
278 30-08-2014 23:05:00 15.7 C 12.98 g/m*3 15.7 C 0 km/h
279 30-08-2014 23:10:00 15.7 C 12.98 g/m*3 15.7 C 0 km/h
280 30-08-2014 23:15:00 15.7 C 12.98 g/m*3 15.7 C 0 km/h
281 30-08-2014 23:20:00 15.7 C 12.98 g/m*3 15.7 C 0 km/h
282 30-08-2014 23:25:00 15.7 C 13.11 g/m*3 15.7 C 0 km/h
283 30-08-2014 23:30:00 15.7 C 13.11 g/m*3 15.7 C 0 km/h
284 30-08-2014 23:35:00 15.7 C 13.11 g/m*3 15.7 C 0 km/h
285 30-08-2014 23:40:00 15.7 C 13.11 g/m*3 15.7 C 0 km/h
286 30-08-2014 23:45:00 15.8 C 13.19 g/m*3 15.8 C 9.7 km/h
287 30-08-2014 23:50:00 15.7 C 12.98 g/m*3 15.7 C 8.1 km/h
288 30-08-2014 23:55:00 15.4 C 12.74 g/m*3 15.4 C 11.3 km/h
289 31-08-2014 00:00:00 15.2 C 12.33 g/m*3 15.2 C 11.3 km/h
290 31-08-2014 00:05:00 15.2 C 12.2 g/m*3 15.2 C 6.4 km/h
291 31-08-2014 00:10:00 15.2 C 12.2 g/m*3 15.2 C 8.1 km/h
292 31-08-2014 00:15:00 15.2 C 12.07 g/m*3 15.2 C 11.3 km/h
293 31-08-2014 00:20:00 15.3 C 12.14 g/m*3 15.3 C 4.8 km/h
294 31-08-2014 00:25:00 15.3 C 12.14 g/m*3 15.3 C 0 km/h
295 31-08-2014 00:30:00 15.2 C 12.2 g/m*3 15.2 C 1.6 km/h
296 31-08-2014 00:35:00 15.1 C 12.13 g/m*3 15.1 C 0 km/h
297 31-08-2014 00:40:00 15.1 C 12.26 g/m*3 15.1 C 0 km/h
298 31-08-2014 00:45:00 15 C 12.18 g/m*3 15 C 0 km/h
299 31-08-2014 00:50:00 14.9 C 12.11 g/m*3 14.9 C 0 km/h
300 31-08-2014 00:55:00 14.8 C 12.03 g/m*3 14.8 C 0 km/h
Sensor: Nr:Datum:Temp:Abs-Feuchte:Windchill:Wind:
Aussen-T/F 301 31-08-2014 01:00:00 14.8 C 12.16 g/m*3 14.8 C 0 km/h
302 31-08-2014 01:05:00 14.7 C 12.09 g/m*3 14.7 C 0 km/h
303 31-08-2014 01:10:00 14.7 C 12.09 g/m*3 14.7 C 0 km/h
304 31-08-2014 01:15:00 14.7 C 12.09 g/m*3 14.7 C 0 km/h
305 31-08-2014 01:20:00 14.7 C 12.09 g/m*3 14.7 C 0 km/h
306 31-08-2014 01:25:00 14.7 C 12.09 g/m*3 14.7 C 0 km/h
307 31-08-2014 01:30:00 14.6 C 12.01 g/m*3 14.6 C 0 km/h
308 31-08-2014 01:35:00 14.6 C 12.01 g/m*3 14.6 C 0 km/h
309 31-08-2014 01:40:00 14.6 C 12.01 g/m*3 14.6 C 0 km/h
310 31-08-2014 01:45:00 14.6 C 12.01 g/m*3 14.6 C 0 km/h
311 31-08-2014 01:50:00 14.6 C 12.01 g/m*3 14.6 C 0 km/h
312 31-08-2014 01:55:00 14.5 C 11.94 g/m*3 14.5 C 0 km/h
313 31-08-2014 02:00:00 14.5 C 12.06 g/m*3 14.5 C 0 km/h
314 31-08-2014 02:05:00 14.5 C 12.06 g/m*3 14.5 C 0 km/h
315 31-08-2014 02:10:00 14.6 C 12.14 g/m*3 14.6 C 0 km/h
316 31-08-2014 02:15:00 14.6 C 12.14 g/m*3 14.6 C 0 km/h
317 31-08-2014 02:20:00 14.5 C 12.06 g/m*3 14.5 C 0 km/h
318 31-08-2014 02:25:00 14.4 C 11.99 g/m*3 14.4 C 0 km/h
319 31-08-2014 02:30:00 14.4 C 11.99 g/m*3 14.4 C 0 km/h
320 31-08-2014 02:35:00 14.4 C 11.99 g/m*3 14.4 C 0 km/h
321 31-08-2014 02:40:00 14.5 C 12.06 g/m*3 14.5 C 0 km/h
322 31-08-2014 02:45:00 14.5 C 12.06 g/m*3 14.5 C 0 km/h
323 31-08-2014 02:50:00 14.4 C 11.99 g/m*3 14.4 C 0 km/h
324 31-08-2014 02:55:00 14.4 C 11.99 g/m*3 14.4 C 0 km/h
325 31-08-2014 03:00:00 14.4 C 11.99 g/m*3 14.4 C 0 km/h
Sensor: Nr:Datum:Temp:Abs-Feuchte:Windchill:Wind:
Aussen-T/F 326 31-08-2014 03:05:00 14.4 C 11.99 g/m*3 14.4 C 0 km/h
327 31-08-2014 03:10:00 14.4 C 11.99 g/m*3 14.4 C 0 km/h
328 31-08-2014 03:15:00 14.4 C 11.99 g/m*3 14.4 C 0 km/h
329 31-08-2014 03:20:00 14.4 C 11.99 g/m*3 14.4 C 0 km/h
330 31-08-2014 03:25:00 14.4 C 11.99 g/m*3 14.4 C 0 km/h
331 31-08-2014 03:30:00 14.4 C 11.99 g/m*3 14.4 C 0 km/h
332 31-08-2014 03:35:00 14.4 C 11.99 g/m*3 14.4 C 0 km/h
333 31-08-2014 03:40:00 14.4 C 11.99 g/m*3 14.4 C 0 km/h
334 31-08-2014 03:45:00 14.3 C 11.92 g/m*3 14.3 C 0 km/h
335 31-08-2014 03:50:00 14.3 C 11.92 g/m*3 14.3 C 0 km/h
336 31-08-2014 03:55:00 14.3 C 11.92 g/m*3 14.3 C 0 km/h
337 31-08-2014 04:00:00 14.4 C 11.99 g/m*3 14.4 C 0 km/h
338 31-08-2014 04:05:00 14.4 C 11.99 g/m*3 14.4 C 0 km/h
339 31-08-2014 04:10:00 14.4 C 11.99 g/m*3 14.4 C 0 km/h
340 31-08-2014 04:15:00 14.3 C 11.92 g/m*3 14.3 C 0 km/h
341 31-08-2014 04:20:00 14.3 C 11.92 g/m*3 14.3 C 0 km/h
342 31-08-2014 04:25:00 14.3 C 11.92 g/m*3 14.3 C 0 km/h
343 31-08-2014 04:30:00 14.3 C 11.92 g/m*3 14.3 C 0 km/h
344 31-08-2014 04:35:00 14.3 C 11.92 g/m*3 14.3 C 0 km/h
345 31-08-2014 04:40:00 14.2 C 11.84 g/m*3 14.2 C 0 km/h
346 31-08-2014 04:45:00 14.2 C 11.84 g/m*3 14.2 C 0 km/h
347 31-08-2014 04:50:00 14.1 C 11.77 g/m*3 14.1 C 0 km/h
348 31-08-2014 04:55:00 14.1 C 11.77 g/m*3 14.1 C 0 km/h
349 31-08-2014 05:00:00 14.1 C 11.77 g/m*3 14.1 C 0 km/h
350 31-08-2014 05:05:00 14.1 C 11.77 g/m*3 14.1 C 0 km/h
Sensor: Nr:Datum:Temp:Abs-Feuchte:Windchill:Wind:
Aussen-T/F 351 31-08-2014 05:10:00 14 C 11.7 g/m*3 14 C 0 km/h
352 31-08-2014 05:15:00 13.9 C 11.63 g/m*3 13.9 C 0 km/h
353 31-08-2014 05:20:00 13.9 C 11.63 g/m*3 13.9 C 0 km/h
354 31-08-2014 05:25:00 13.9 C 11.63 g/m*3 13.9 C 0 km/h
355 31-08-2014 05:30:00 13.8 C 11.56 g/m*3 13.8 C 0 km/h
356 31-08-2014 05:35:00 13.8 C 11.56 g/m*3 13.8 C 0 km/h
357 31-08-2014 05:40:00 13.8 C 11.56 g/m*3 13.8 C 0 km/h
358 31-08-2014 05:45:00 13.8 C 11.56 g/m*3 13.8 C 0 km/h
359 31-08-2014 05:50:00 13.9 C 11.63 g/m*3 13.9 C 0 km/h
360 31-08-2014 05:55:00 13.9 C 11.63 g/m*3 13.9 C 0 km/h
361 31-08-2014 06:00:00 13.8 C 11.56 g/m*3 13.8 C 0 km/h
362 31-08-2014 06:05:00 13.8 C 11.56 g/m*3 13.8 C 0 km/h
363 31-08-2014 06:10:00 13.8 C 11.56 g/m*3 13.8 C 0 km/h
364 31-08-2014 06:15:00 13.8 C 11.56 g/m*3 13.8 C 0 km/h
365 31-08-2014 06:20:00 13.8 C 11.56 g/m*3 13.8 C 0 km/h
366 31-08-2014 06:25:00 13.8 C 11.56 g/m*3 13.8 C 0 km/h
367 31-08-2014 06:30:00 13.7 C 11.49 g/m*3 13.7 C 0 km/h
368 31-08-2014 06:35:00 13.7 C 11.49 g/m*3 13.7 C 0 km/h
369 31-08-2014 06:40:00 13.7 C 11.49 g/m*3 13.7 C 0 km/h
370 31-08-2014 06:45:00 13.7 C 11.49 g/m*3 13.7 C 0 km/h
371 31-08-2014 06:50:00 13.8 C 11.56 g/m*3 13.8 C 0 km/h
372 31-08-2014 06:55:00 13.8 C 11.56 g/m*3 13.8 C 0 km/h
373 31-08-2014 07:00:00 13.8 C 11.56 g/m*3 13.8 C 0 km/h
374 31-08-2014 07:05:00 13.9 C 11.63 g/m*3 13.9 C 0 km/h
375 31-08-2014 07:10:00 13.9 C 11.63 g/m*3 13.9 C 0 km/h
Sensor: Nr:Datum:Temp:Abs-Feuchte:Windchill:Wind:
Aussen-T/F 376 31-08-2014 07:15:00 13.9 C 11.63 g/m*3 13.9 C 0 km/h
377 31-08-2014 07:20:00 13.9 C 11.63 g/m*3 13.9 C 0 km/h
378 31-08-2014 07:25:00 13.9 C 11.63 g/m*3 13.9 C 0 km/h
379 31-08-2014 07:30:00 13.9 C 11.63 g/m*3 13.9 C 0 km/h
380 31-08-2014 07:35:00 13.8 C 11.56 g/m*3 13.8 C 0 km/h
381 31-08-2014 07:40:00 13.8 C 11.56 g/m*3 13.8 C 0 km/h
382 31-08-2014 07:45:00 13.8 C 11.56 g/m*3 13.8 C 0 km/h
383 31-08-2014 07:50:00 13.8 C 11.56 g/m*3 13.8 C 0 km/h
384 31-08-2014 07:55:00 13.9 C 11.63 g/m*3 13.9 C 0 km/h
385 31-08-2014 08:00:00 13.8 C 11.56 g/m*3 13.8 C 0 km/h
386 31-08-2014 08:05:00 13.9 C 11.63 g/m*3 13.9 C 0 km/h
387 31-08-2014 08:10:00 13.8 C 11.56 g/m*3 13.8 C 0 km/h
388 31-08-2014 08:15:00 13.8 C 11.56 g/m*3 13.8 C 0 km/h
389 31-08-2014 08:20:00 13.7 C 11.49 g/m*3 13.7 C 0 km/h
390 31-08-2014 08:25:00 13.7 C 11.49 g/m*3 13.7 C 0 km/h
391 31-08-2014 08:30:00 13.7 C 11.49 g/m*3 13.7 C 0 km/h
392 31-08-2014 08:35:00 13.8 C 11.56 g/m*3 13.8 C 0 km/h
393 31-08-2014 08:40:00 14 C 11.7 g/m*3 14 C 0 km/h
394 31-08-2014 08:45:00 14.1 C 11.77 g/m*3 14.1 C 0 km/h
395 31-08-2014 08:50:00 14.2 C 11.84 g/m*3 14.2 C 0 km/h
396 31-08-2014 08:55:00 14.3 C 11.92 g/m*3 14.3 C 0 km/h
397 31-08-2014 09:00:00 14.3 C 11.92 g/m*3 14.3 C 0 km/h
398 31-08-2014 09:05:00 14.4 C 11.87 g/m*3 14.4 C 0 km/h
399 31-08-2014 09:10:00 14.6 C 12.01 g/m*3 14.6 C 0 km/h
400 31-08-2014 09:15:00 14.7 C 11.96 g/m*3 14.7 C 0 km/h
Sensor: Nr:Datum:Temp:Abs-Feuchte:Windchill:Wind:
Aussen-T/F 401 31-08-2014 09:20:00 14.7 C 11.96 g/m*3 14.7 C 0 km/h
402 31-08-2014 09:25:00 14.9 C 11.98 g/m*3 14.9 C 0 km/h
403 31-08-2014 09:30:00 15.1 C 11.87 g/m*3 15.1 C 0 km/h
404 31-08-2014 09:35:00 15.2 C 11.81 g/m*3 15.2 C 0 km/h
405 31-08-2014 09:40:00 15.3 C 11.62 g/m*3 15.3 C 0 km/h
406 31-08-2014 09:45:00 15.5 C 11.76 g/m*3 15.5 C 3.2 km/h
407 31-08-2014 09:50:00 15.6 C 11.84 g/m*3 15.6 C 0 km/h
408 31-08-2014 09:55:00 15.7 C 11.64 g/m*3 15.7 C 6.4 km/h
409 31-08-2014 10:00:00 15.8 C 11.58 g/m*3 15.8 C 8.1 km/h
410 31-08-2014 10:05:00 15.8 C 11.71 g/m*3 15.8 C 6.4 km/h
411 31-08-2014 10:10:00 15.9 C 11.65 g/m*3 15.9 C 6.4 km/h
412 31-08-2014 10:15:00 16.1 C 11.79 g/m*3 16.1 C 4.8 km/h
413 31-08-2014 10:20:00 16.2 C 11.58 g/m*3 16.2 C 1.6 km/h
414 31-08-2014 10:25:00 16.2 C 11.72 g/m*3 16.2 C 0 km/h
415 31-08-2014 10:30:00 16.3 C 11.79 g/m*3 16.3 C 0 km/h
416 31-08-2014 10:35:00 16.4 C 11.72 g/m*3 16.4 C 0 km/h
417 31-08-2014 10:40:00 16.5 C 11.8 g/m*3 16.5 C 6.4 km/h
418 31-08-2014 10:45:00 16.6 C 11.72 g/m*3 16.6 C 6.4 km/h
419 31-08-2014 10:50:00 16.7 C 11.94 g/m*3 16.7 C 3.2 km/h
420 31-08-2014 10:55:00 16.8 C 11.72 g/m*3 16.8 C 6.4 km/h
421 31-08-2014 11:00:00 16.9 C 11.94 g/m*3 16.9 C 0 km/h
422 31-08-2014 11:05:00 17.1 C 12.08 g/m*3 17.1 C 4.8 km/h
423 31-08-2014 11:10:00 17.1 C 11.79 g/m*3 17.1 C 6.4 km/h
424 31-08-2014 11:15:00 17.2 C 12.01 g/m*3 17.2 C 4.8 km/h
425 31-08-2014 11:20:00 17.3 C 11.93 g/m*3 17.3 C 3.2 km/h
Sensor: Nr:Datum:Temp:Abs-Feuchte:Windchill:Wind:
Aussen-T/F 426 31-08-2014 11:25:00 17.4 C 12.15 g/m*3 17.4 C 4.8 km/h
427 31-08-2014 11:30:00 17.4 C 12 g/m*3 17.4 C 4.8 km/h
428 31-08-2014 11:35:00 17.4 C 12 g/m*3 17.4 C 0 km/h
429 31-08-2014 11:40:00 17.3 C 11.79 g/m*3 17.3 C 0 km/h
430 31-08-2014 11:45:00 17.3 C 11.93 g/m*3 17.3 C 0 km/h
431 31-08-2014 11:50:00 17.3 C 11.93 g/m*3 17.3 C 0 km/h
432 31-08-2014 11:55:00 17.4 C 12.3 g/m*3 17.4 C 0 km/h
433 31-08-2014 12:00:00 17.4 C 12.3 g/m*3 17.4 C 0 km/h
434 31-08-2014 12:05:00 17.5 C 12.67 g/m*3 17.5 C 0 km/h
435 31-08-2014 12:10:00 17.4 C 11.71 g/m*3 17.4 C 4.8 km/h
436 31-08-2014 12:15:00 17.4 C 11.86 g/m*3 17.4 C 6.4 km/h
437 31-08-2014 12:20:00 17.4 C 11.86 g/m*3 17.4 C 11.3 km/h
438 31-08-2014 12:25:00 17.5 C 11.93 g/m*3 17.5 C 9.7 km/h
439 31-08-2014 12:30:00 17.6 C 12 g/m*3 17.6 C 8.1 km/h
440 31-08-2014 12:35:00 17.5 C 11.63 g/m*3 17.5 C 12.9 km/h
441 31-08-2014 12:40:00 17.4 C 11.56 g/m*3 17.4 C 12.9 km/h
442 31-08-2014 12:45:00 17.6 C 11.55 g/m*3 17.6 C 8.1 km/h
443 31-08-2014 12:50:00 17.7 C 11.32 g/m*3 17.7 C 8.1 km/h
444 31-08-2014 12:55:00 17.8 C 11.23 g/m*3 17.8 C 16.1 km/h
445 31-08-2014 13:00:00 17.9 C 11.76 g/m*3 17.9 C 16.1 km/h
446 31-08-2014 13:05:00 18 C 11.52 g/m*3 18 C 11.3 km/h
447 31-08-2014 13:10:00 17.9 C 11.76 g/m*3 17.9 C 8.1 km/h
448 31-08-2014 13:15:00 17.8 C 11.99 g/m*3 17.8 C 11.3 km/h
449 31-08-2014 13:20:00 17.8 C 11.69 g/m*3 17.8 C 8.1 km/h
450 31-08-2014 13:25:00 17.8 C 11.99 g/m*3 17.8 C 9.7 km/h
Sensor: Nr:Datum:Temp:Abs-Feuchte:Windchill:Wind:
Aussen-T/F 451 31-08-2014 13:30:00 17.7 C 11.92 g/m*3 17.7 C 16.1 km/h
452 31-08-2014 13:35:00 17.9 C 12.06 g/m*3 17.9 C 8.1 km/h
453 31-08-2014 13:40:00 18.2 C 11.97 g/m*3 18.2 C 8.1 km/h
454 31-08-2014 13:45:00 18.4 C 12.11 g/m*3 18.4 C 8.1 km/h
455 31-08-2014 13:50:00 18.6 C 12.1 g/m*3 18.6 C 6.4 km/h
456 31-08-2014 13:55:00 18.8 C 12.08 g/m*3 18.8 C 9.7 km/h
457 31-08-2014 14:00:00 18.7 C 11.85 g/m*3 18.7 C 11.3 km/h
458 31-08-2014 14:05:00 18.6 C 11.62 g/m*3 18.6 C 6.4 km/h
459 31-08-2014 14:10:00 18.5 C 12.02 g/m*3 18.5 C 3.2 km/h
460 31-08-2014 14:15:00 18.3 C 11.88 g/m*3 18.3 C 8.1 km/h
461 31-08-2014 14:20:00 18.2 C 12.59 g/m*3 18.2 C 0 km/h
462 31-08-2014 14:25:00 17.9 C 12.06 g/m*3 17.9 C 6.4 km/h
463 31-08-2014 14:30:00 17.8 C 11.99 g/m*3 17.8 C 4.8 km/h
464 31-08-2014 14:35:00 17.8 C 11.99 g/m*3 17.8 C 0 km/h
465 31-08-2014 14:40:00 17.8 C 11.99 g/m*3 17.8 C 0 km/h
466 31-08-2014 14:45:00 17.7 C 12.22 g/m*3 17.7 C 0 km/h
467 31-08-2014 14:50:00 17.5 C 12.67 g/m*3 17.5 C 0 km/h
468 31-08-2014 14:55:00 17.1 C 12.66 g/m*3 17.1 C 0 km/h
469 31-08-2014 15:00:00 16.8 C 12.72 g/m*3 16.8 C 0 km/h
470 31-08-2014 15:05:00 16.3 C 12.49 g/m*3 16.3 C 0 km/h
471 31-08-2014 15:10:00 15.8 C 11.58 g/m*3 15.8 C 12.9 km/h
472 31-08-2014 15:15:00 15.3 C 10.84 g/m*3 15.3 C 6.4 km/h
473 31-08-2014 15:20:00 14.7 C 10.95 g/m*3 14.7 C 8.1 km/h
474 31-08-2014 15:25:00 14.3 C 10.93 g/m*3 14.3 C 3.2 km/h
475 31-08-2014 15:30:00 14 C 10.98 g/m*3 14 C 0 km/h
Sensor: Nr:Datum:Temp:Abs-Feuchte:Windchill:Wind:
Aussen-T/F 476 31-08-2014 15:35:00 13.8 C 10.96 g/m*3 13.8 C 0 km/h
477 31-08-2014 15:40:00 13.7 C 11.01 g/m*3 13.7 C 0 km/h
478 31-08-2014 15:45:00 13.8 C 11.2 g/m*3 13.8 C 0 km/h
479 31-08-2014 15:50:00 13.9 C 11.39 g/m*3 13.9 C 0 km/h
480 31-08-2014 15:55:00 13.9 C 11.39 g/m*3 13.9 C 0 km/h
481 31-08-2014 16:00:00 14.1 C 11.53 g/m*3 14.1 C 0 km/h
482 31-08-2014 16:05:00 14.2 C 11.6 g/m*3 14.2 C 0 km/h
483 31-08-2014 16:10:00 14.2 C 11.6 g/m*3 14.2 C 0 km/h
484 31-08-2014 16:15:00 14.4 C 11.87 g/m*3 14.4 C 0 km/h
485 31-08-2014 16:20:00 14.7 C 12.09 g/m*3 14.7 C 0 km/h
486 31-08-2014 16:25:00 14.9 C 12.24 g/m*3 14.9 C 0 km/h
487 31-08-2014 16:30:00 14.8 C 12.03 g/m*3 14.8 C 0 km/h
488 31-08-2014 16:35:00 14.7 C 11.96 g/m*3 14.7 C 0 km/h
489 31-08-2014 16:40:00 14.7 C 11.96 g/m*3 14.7 C 0 km/h
490 31-08-2014 16:45:00 14.6 C 11.89 g/m*3 14.6 C 0 km/h
491 31-08-2014 16:50:00 14.4 C 11.74 g/m*3 14.4 C 0 km/h
492 31-08-2014 16:55:00 14.3 C 11.67 g/m*3 14.3 C 0 km/h
493 31-08-2014 17:00:00 14.1 C 11.53 g/m*3 14.1 C 0 km/h
494 31-08-2014 17:05:00 14.1 C 11.65 g/m*3 14.1 C 0 km/h
495 31-08-2014 17:10:00 14 C 11.58 g/m*3 14 C 0 km/h
496 31-08-2014 17:15:00 14 C 11.58 g/m*3 14 C 0 km/h
497 31-08-2014 17:20:00 14.1 C 11.65 g/m*3 14.1 C 0 km/h
498 31-08-2014 17:25:00 14.1 C 11.65 g/m*3 14.1 C 0 km/h
499 31-08-2014 17:30:00 14.2 C 11.84 g/m*3 14.2 C 0 km/h
500 31-08-2014 17:35:00 14.2 C 11.84 g/m*3 14.2 C 0 km/h
Sensor: Nr:Datum:Temp:Abs-Feuchte:Windchill:Wind:
Aussen-T/F 501 31-08-2014 17:40:00 14.2 C 11.72 g/m*3 14.2 C 0 km/h
502 31-08-2014 17:45:00 14.2 C 11.72 g/m*3 14.2 C 0 km/h
503 31-08-2014 17:50:00 14 C 11.58 g/m*3 14 C 0 km/h
504 31-08-2014 17:55:00 13.9 C 11.51 g/m*3 13.9 C 0 km/h
505 31-08-2014 18:00:00 13.9 C 11.51 g/m*3 13.9 C 0 km/h
506 31-08-2014 18:05:00 13.8 C 11.56 g/m*3 13.8 C 0 km/h
507 31-08-2014 18:10:00 13.9 C 11.63 g/m*3 13.9 C 0 km/h
508 31-08-2014 18:15:00 13.9 C 11.63 g/m*3 13.9 C 0 km/h
509 31-08-2014 18:20:00 13.8 C 11.56 g/m*3 13.8 C 0 km/h
510 31-08-2014 18:25:00 13.8 C 11.56 g/m*3 13.8 C 0 km/h
511 31-08-2014 18:30:00 13.8 C 11.56 g/m*3 13.8 C 0 km/h
512 31-08-2014 18:35:00 13.8 C 11.56 g/m*3 13.8 C 0 km/h
513 31-08-2014 18:40:00 13.8 C 11.56 g/m*3 13.8 C 0 km/h
514 31-08-2014 18:45:00 13.8 C 11.56 g/m*3 13.8 C 0 km/h
515 31-08-2014 18:50:00 13.7 C 11.49 g/m*3 13.7 C 0 km/h
516 31-08-2014 18:55:00 13.8 C 11.56 g/m*3 13.8 C 0 km/h
517 31-08-2014 19:00:00 13.7 C 11.49 g/m*3 13.7 C 0 km/h
518 31-08-2014 19:05:00 13.7 C 11.49 g/m*3 13.7 C 0 km/h
519 31-08-2014 19:10:00 13.7 C 11.49 g/m*3 13.7 C 0 km/h
520 31-08-2014 19:15:00 13.7 C 11.49 g/m*3 13.7 C 0 km/h
521 31-08-2014 19:20:00 13.7 C 11.49 g/m*3 13.7 C 0 km/h
522 31-08-2014 19:25:00 13.8 C 11.56 g/m*3 13.8 C 0 km/h
523 31-08-2014 19:30:00 13.8 C 11.56 g/m*3 13.8 C 0 km/h
524 31-08-2014 19:35:00 13.8 C 11.56 g/m*3 13.8 C 0 km/h
525 31-08-2014 19:40:00 13.8 C 11.56 g/m*3 13.8 C 0 km/h
Sensor: Nr:Datum:Temp:Abs-Feuchte:Windchill:Wind:
Aussen-T/F 526 31-08-2014 19:45:00 13.8 C 11.56 g/m*3 13.8 C 0 km/h
527 31-08-2014 19:50:00 13.7 C 11.49 g/m*3 13.7 C 0 km/h
528 31-08-2014 19:55:00 13.7 C 11.49 g/m*3 13.7 C 0 km/h
529 31-08-2014 20:00:00 13.6 C 11.42 g/m*3 13.6 C 0 km/h
530 31-08-2014 20:05:00 13.5 C 11.35 g/m*3 13.5 C 0 km/h
531 31-08-2014 20:10:00 13.4 C 11.28 g/m*3 13.4 C 0 km/h
532 31-08-2014 20:15:00 13.4 C 11.28 g/m*3 13.4 C 0 km/h
533 31-08-2014 20:20:00 13.4 C 11.28 g/m*3 13.4 C 0 km/h
534 31-08-2014 20:25:00 13.4 C 11.28 g/m*3 13.4 C 1.6 km/h
535 31-08-2014 20:30:00 13.3 C 11.21 g/m*3 13.3 C 0 km/h
536 31-08-2014 20:35:00 13.4 C 11.28 g/m*3 13.4 C 0 km/h
537 31-08-2014 20:40:00 13.3 C 11.21 g/m*3 13.3 C 0 km/h
538 31-08-2014 20:45:00 13.3 C 11.21 g/m*3 13.3 C 0 km/h
539 31-08-2014 20:50:00 13.3 C 11.21 g/m*3 13.3 C 1.6 km/h
540 31-08-2014 20:55:00 13.3 C 11.21 g/m*3 13.3 C 1.6 km/h
541 31-08-2014 21:00:00 13.3 C 11.21 g/m*3 13.3 C 0 km/h
542 31-08-2014 21:05:00 13.3 C 11.21 g/m*3 13.3 C 0 km/h
543 31-08-2014 21:10:00 13.3 C 11.21 g/m*3 13.3 C 0 km/h
544 31-08-2014 21:15:00 13.3 C 11.21 g/m*3 13.3 C 1.6 km/h
545 31-08-2014 21:20:00 13.3 C 11.21 g/m*3 13.3 C 0 km/h
546 31-08-2014 21:25:00 13.2 C 11.14 g/m*3 13.2 C 1.6 km/h
547 31-08-2014 21:30:00 13.2 C 11.14 g/m*3 13.2 C 0 km/h
548 31-08-2014 21:35:00 13.1 C 11.07 g/m*3 13.1 C 0 km/h
549 31-08-2014 21:40:00 13.1 C 11.07 g/m*3 13.1 C 1.6 km/h
550 31-08-2014 21:45:00 13.1 C 11.07 g/m*3 13.1 C 1.6 km/h
Sensor: Nr:Datum:Temp:Abs-Feuchte:Windchill:Wind:
Aussen-T/F 551 31-08-2014 21:50:00 13 C 11 g/m*3 13 C 1.6 km/h
552 31-08-2014 21:55:00 12.9 C 10.93 g/m*3 12.9 C 1.6 km/h
553 31-08-2014 22:00:00 12.8 C 10.87 g/m*3 12.8 C 0 km/h
554 31-08-2014 22:05:00 12.7 C 10.8 g/m*3 12.7 C 0 km/h
555 31-08-2014 22:10:00 12.6 C 10.73 g/m*3 12.6 C 0 km/h
556 31-08-2014 22:15:00 12.5 C 10.66 g/m*3 12.5 C 0 km/h
557 31-08-2014 22:20:00 12.4 C 10.6 g/m*3 12.4 C 0 km/h
558 31-08-2014 22:25:00 12.4 C 10.6 g/m*3 12.4 C 0 km/h
559 31-08-2014 22:30:00 12.4 C 10.6 g/m*3 12.4 C 0 km/h
560 31-08-2014 22:35:00 12.5 C 10.66 g/m*3 12.5 C 0 km/h
561 31-08-2014 22:40:00 12.5 C 10.66 g/m*3 12.5 C 0 km/h
562 31-08-2014 22:45:00 12.5 C 10.66 g/m*3 12.5 C 0 km/h
563 31-08-2014 22:50:00 12.6 C 10.73 g/m*3 12.6 C 0 km/h
564 31-08-2014 22:55:00 12.5 C 10.66 g/m*3 12.5 C 0 km/h
565 31-08-2014 23:00:00 12.5 C 10.66 g/m*3 12.5 C 0 km/h
566 31-08-2014 23:05:00 12.5 C 10.66 g/m*3 12.5 C 0 km/h
567 31-08-2014 23:10:00 12.5 C 10.66 g/m*3 12.5 C 0 km/h
568 31-08-2014 23:15:00 12.5 C 10.66 g/m*3 12.5 C 0 km/h
569 31-08-2014 23:20:00 12.5 C 10.77 g/m*3 12.5 C 0 km/h
570 31-08-2014 23:25:00 12.4 C 10.71 g/m*3 12.4 C 0 km/h
571 31-08-2014 23:30:00 12.4 C 10.71 g/m*3 12.4 C 0 km/h
572 31-08-2014 23:35:00 12.4 C 10.6 g/m*3 12.4 C 0 km/h
573 31-08-2014 23:40:00 12.3 C 10.64 g/m*3 12.3 C 0 km/h
574 31-08-2014 23:45:00 12.4 C 10.71 g/m*3 12.4 C 0 km/h
575 31-08-2014 23:50:00 12.4 C 10.71 g/m*3 12.4 C 0 km/h
Sensor: Nr:Datum:Temp:Abs-Feuchte:Windchill:Wind:
Aussen-T/F 576 31-08-2014 23:55:00 12.5 C 10.77 g/m*3 12.5 C 0 km/h
577 01-09-2014 00:00:00 12.6 C 10.84 g/m*3 12.6 C 0 km/h
578 01-09-2014 00:05:00 12.5 C 10.77 g/m*3 12.5 C 0 km/h
579 01-09-2014 00:10:00 12.5 C 10.77 g/m*3 12.5 C 0 km/h
580 01-09-2014 00:15:00 12.5 C 10.77 g/m*3 12.5 C 0 km/h
581 01-09-2014 00:20:00 12.5 C 10.77 g/m*3 12.5 C 0 km/h
582 01-09-2014 00:25:00 12.4 C 10.71 g/m*3 12.4 C 0 km/h
583 01-09-2014 00:30:00 12.4 C 10.71 g/m*3 12.4 C 0 km/h
584 01-09-2014 00:35:00 12.4 C 10.71 g/m*3 12.4 C 0 km/h
585 01-09-2014 00:40:00 12.4 C 10.71 g/m*3 12.4 C 0 km/h
586 01-09-2014 00:45:00 12.5 C 10.77 g/m*3 12.5 C 0 km/h
587 01-09-2014 00:50:00 12.4 C 10.71 g/m*3 12.4 C 0 km/h
588 01-09-2014 00:55:00 12.3 C 10.64 g/m*3 12.3 C 0 km/h
589 01-09-2014 01:00:00 12.3 C 10.64 g/m*3 12.3 C 0 km/h
590 01-09-2014 01:05:00 12.3 C 10.64 g/m*3 12.3 C 0 km/h
591 01-09-2014 01:10:00 12.3 C 10.64 g/m*3 12.3 C 0 km/h
592 01-09-2014 01:15:00 12.3 C 10.64 g/m*3 12.3 C 0 km/h
593 01-09-2014 01:20:00 12.3 C 10.64 g/m*3 12.3 C 0 km/h
594 01-09-2014 01:25:00 12.3 C 10.64 g/m*3 12.3 C 0 km/h
595 01-09-2014 01:30:00 12.4 C 10.71 g/m*3 12.4 C 0 km/h
596 01-09-2014 01:35:00 12.4 C 10.71 g/m*3 12.4 C 0 km/h
597 01-09-2014 01:40:00 12.4 C 10.71 g/m*3 12.4 C 0 km/h
598 01-09-2014 01:45:00 12.6 C 10.84 g/m*3 12.6 C 0 km/h
599 01-09-2014 01:50:00 12.6 C 10.84 g/m*3 12.6 C 0 km/h
600 01-09-2014 01:55:00 12.6 C 10.84 g/m*3 12.6 C 0 km/h
Sensor: Nr:Datum:Temp:Abs-Feuchte:Windchill:Wind:
Aussen-T/F 601 01-09-2014 02:00:00 12.7 C 10.91 g/m*3 12.7 C 0 km/h
602 01-09-2014 02:05:00 12.7 C 10.91 g/m*3 12.7 C 0 km/h
603 01-09-2014 02:10:00 12.7 C 10.91 g/m*3 12.7 C 0 km/h
604 01-09-2014 02:15:00 12.6 C 10.84 g/m*3 12.6 C 0 km/h
605 01-09-2014 02:20:00 12.6 C 10.84 g/m*3 12.6 C 0 km/h
606 01-09-2014 02:25:00 12.6 C 10.84 g/m*3 12.6 C 0 km/h
607 01-09-2014 02:30:00 12.7 C 10.91 g/m*3 12.7 C 0 km/h
608 01-09-2014 02:35:00 12.7 C 10.91 g/m*3 12.7 C 0 km/h
609 01-09-2014 02:40:00 12.8 C 10.98 g/m*3 12.8 C 0 km/h
610 01-09-2014 02:45:00 12.8 C 10.98 g/m*3 12.8 C 0 km/h
611 01-09-2014 02:50:00 12.8 C 10.98 g/m*3 12.8 C 0 km/h
612 01-09-2014 02:55:00 12.8 C 10.98 g/m*3 12.8 C 0 km/h
613 01-09-2014 03:00:00 12.8 C 10.98 g/m*3 12.8 C 4.8 km/h
614 01-09-2014 03:05:00 12.8 C 10.98 g/m*3 12.8 C 3.2 km/h
615 01-09-2014 03:10:00 12.8 C 10.98 g/m*3 12.8 C 1.6 km/h
616 01-09-2014 03:15:00 12.8 C 10.98 g/m*3 12.8 C 4.8 km/h
617 01-09-2014 03:20:00 12.8 C 10.98 g/m*3 12.8 C 1.6 km/h
618 01-09-2014 03:25:00 12.8 C 10.98 g/m*3 12.8 C 0 km/h
619 01-09-2014 03:30:00 12.8 C 10.98 g/m*3 12.8 C 0 km/h
620 01-09-2014 03:35:00 12.8 C 10.98 g/m*3 12.8 C 0 km/h
621 01-09-2014 03:40:00 12.8 C 10.98 g/m*3 12.8 C 0 km/h
622 01-09-2014 03:45:00 12.8 C 10.98 g/m*3 12.8 C 0 km/h
623 01-09-2014 03:50:00 12.8 C 10.98 g/m*3 12.8 C 4.8 km/h
624 01-09-2014 03:55:00 12.8 C 10.98 g/m*3 12.8 C 6.4 km/h
625 01-09-2014 04:00:00 12.8 C 10.98 g/m*3 12.8 C 0 km/h
Sensor: Nr:Datum:Temp:Abs-Feuchte:Windchill:Wind:
Aussen-T/F 626 01-09-2014 04:05:00 12.8 C 10.98 g/m*3 12.8 C 1.6 km/h
627 01-09-2014 04:10:00 12.8 C 10.98 g/m*3 12.8 C 3.2 km/h
628 01-09-2014 04:15:00 12.8 C 10.98 g/m*3 12.8 C 0 km/h
629 01-09-2014 04:20:00 12.8 C 10.98 g/m*3 12.8 C 0 km/h
630 01-09-2014 04:25:00 12.8 C 10.98 g/m*3 12.8 C 0 km/h
631 01-09-2014 04:30:00 12.8 C 10.98 g/m*3 12.8 C 0 km/h
632 01-09-2014 04:35:00 12.8 C 10.98 g/m*3 12.8 C 0 km/h
633 01-09-2014 04:40:00 12.9 C 11.05 g/m*3 12.9 C 0 km/h
634 01-09-2014 04:45:00 12.8 C 10.98 g/m*3 12.8 C 0 km/h
635 01-09-2014 04:50:00 12.8 C 10.98 g/m*3 12.8 C 0 km/h
636 01-09-2014 04:55:00 12.8 C 10.98 g/m*3 12.8 C 0 km/h
637 01-09-2014 05:00:00 12.8 C 10.98 g/m*3 12.8 C 0 km/h
638 01-09-2014 05:05:00 12.8 C 10.98 g/m*3 12.8 C 0 km/h
639 01-09-2014 05:10:00 12.8 C 10.98 g/m*3 12.8 C 0 km/h
640 01-09-2014 05:15:00 12.7 C 10.91 g/m*3 12.7 C 0 km/h
641 01-09-2014 05:20:00 12.7 C 10.91 g/m*3 12.7 C 0 km/h
642 01-09-2014 05:25:00 12.8 C 10.98 g/m*3 12.8 C 0 km/h
643 01-09-2014 05:30:00 12.7 C 10.91 g/m*3 12.7 C 0 km/h
644 01-09-2014 05:35:00 12.7 C 10.91 g/m*3 12.7 C 0 km/h
645 01-09-2014 05:40:00 12.7 C 10.91 g/m*3 12.7 C 0 km/h
646 01-09-2014 05:45:00 12.7 C 10.91 g/m*3 12.7 C 0 km/h
647 01-09-2014 05:50:00 12.7 C 10.91 g/m*3 12.7 C 0 km/h
648 01-09-2014 05:55:00 12.7 C 10.91 g/m*3 12.7 C 0 km/h
649 01-09-2014 06:00:00 12.7 C 10.91 g/m*3 12.7 C 0 km/h
650 01-09-2014 06:05:00 12.7 C 10.91 g/m*3 12.7 C 0 km/h
Sensor: Nr:Datum:Temp:Abs-Feuchte:Windchill:Wind:
Aussen-T/F 651 01-09-2014 06:10:00 12.7 C 10.91 g/m*3 12.7 C 0 km/h
652 01-09-2014 06:15:00 12.7 C 10.91 g/m*3 12.7 C 0 km/h
653 01-09-2014 06:20:00 12.7 C 10.91 g/m*3 12.7 C 0 km/h
654 01-09-2014 06:25:00 12.7 C 10.91 g/m*3 12.7 C 0 km/h
655 01-09-2014 06:30:00 12.7 C 10.91 g/m*3 12.7 C 0 km/h
656 01-09-2014 06:35:00 12.7 C 10.91 g/m*3 12.7 C 0 km/h
657 01-09-2014 06:40:00 12.7 C 10.91 g/m*3 12.7 C 0 km/h
658 01-09-2014 06:45:00 12.7 C 10.91 g/m*3 12.7 C 0 km/h
659 01-09-2014 06:50:00 12.7 C 10.91 g/m*3 12.7 C 0 km/h
660 01-09-2014 06:55:00 12.7 C 10.91 g/m*3 12.7 C 0 km/h
661 01-09-2014 07:00:00 12.7 C 10.91 g/m*3 12.7 C 0 km/h
662 01-09-2014 07:05:00 12.7 C 10.91 g/m*3 12.7 C 0 km/h
663 01-09-2014 07:10:00 12.7 C 10.91 g/m*3 12.7 C 0 km/h
664 01-09-2014 07:15:00 12.7 C 10.91 g/m*3 12.7 C 0 km/h
665 01-09-2014 07:20:00 12.7 C 10.91 g/m*3 12.7 C 0 km/h
666 01-09-2014 07:25:00 12.8 C 10.98 g/m*3 12.8 C 0 km/h
667 01-09-2014 07:30:00 12.8 C 10.98 g/m*3 12.8 C 0 km/h
668 01-09-2014 07:35:00 12.7 C 10.91 g/m*3 12.7 C 0 km/h
669 01-09-2014 07:40:00 12.8 C 10.98 g/m*3 12.8 C 0 km/h
670 01-09-2014 07:45:00 12.8 C 10.98 g/m*3 12.8 C 0 km/h
671 01-09-2014 07:50:00 12.9 C 11.05 g/m*3 12.9 C 0 km/h
672 01-09-2014 07:55:00 12.9 C 11.05 g/m*3 12.9 C 0 km/h
673 01-09-2014 08:00:00 13 C 11.11 g/m*3 13 C 0 km/h
674 01-09-2014 08:05:00 13.1 C 11.18 g/m*3 13.1 C 0 km/h
675 01-09-2014 08:10:00 13.1 C 11.18 g/m*3 13.1 C 0 km/h
Sensor: Nr:Datum:Temp:Abs-Feuchte:Windchill:Wind:
Aussen-T/F 676 01-09-2014 08:15:00 13.2 C 11.25 g/m*3 13.2 C 0 km/h
677 01-09-2014 08:20:00 13.2 C 11.25 g/m*3 13.2 C 0 km/h
678 01-09-2014 08:25:00 13.2 C 11.25 g/m*3 13.2 C 0 km/h
679 01-09-2014 08:30:00 13.2 C 11.25 g/m*3 13.2 C 0 km/h
680 01-09-2014 08:35:00 13.2 C 11.25 g/m*3 13.2 C 0 km/h
681 01-09-2014 08:40:00 13.3 C 11.32 g/m*3 13.3 C 0 km/h
682 01-09-2014 08:45:00 13.4 C 11.39 g/m*3 13.4 C 0 km/h
683 01-09-2014 08:50:00 13.4 C 11.28 g/m*3 13.4 C 0 km/h
684 01-09-2014 08:55:00 13.4 C 11.28 g/m*3 13.4 C 0 km/h
685 01-09-2014 09:00:00 13.6 C 11.53 g/m*3 13.6 C 0 km/h
686 01-09-2014 09:05:00 13.6 C 11.42 g/m*3 13.6 C 0 km/h
687 01-09-2014 09:10:00 13.7 C 11.37 g/m*3 13.7 C 0 km/h
688 01-09-2014 09:15:00 13.8 C 11.44 g/m*3 13.8 C 4.8 km/h
689 01-09-2014 09:20:00 13.9 C 11.39 g/m*3 13.9 C 3.2 km/h
690 01-09-2014 09:25:00 14 C 11.34 g/m*3 14 C 1.6 km/h
691 01-09-2014 09:30:00 14.1 C 11.41 g/m*3 14.1 C 0 km/h
692 01-09-2014 09:35:00 14.2 C 11.48 g/m*3 14.2 C 3.2 km/h
693 01-09-2014 09:40:00 14.3 C 11.43 g/m*3 14.3 C 0 km/h
694 01-09-2014 09:45:00 14.4 C 11.37 g/m*3 14.4 C 6.4 km/h
695 01-09-2014 09:50:00 14.4 C 11.25 g/m*3 14.4 C 6.4 km/h
696 01-09-2014 09:55:00 14.5 C 11.19 g/m*3 14.5 C 6.4 km/h
697 01-09-2014 10:00:00 14.5 C 11.19 g/m*3 14.5 C 6.4 km/h
698 01-09-2014 10:05:00 14.5 C 11.19 g/m*3 14.5 C 4.8 km/h
699 01-09-2014 10:10:00 14.6 C 11.39 g/m*3 14.6 C 1.6 km/h
700 01-09-2014 10:15:00 14.6 C 11.26 g/m*3 14.6 C 0 km/h
Sensor: Nr:Datum:Temp:Abs-Feuchte:Windchill:Wind:
Aussen-T/F 701 01-09-2014 10:20:00 14.6 C 11.01 g/m*3 14.6 C 1.6 km/h
702 01-09-2014 10:25:00 14.8 C 11.53 g/m*3 14.8 C 0 km/h
703 01-09-2014 10:30:00 14.9 C 11.47 g/m*3 14.9 C 0 km/h
704 01-09-2014 10:35:00 14.9 C 11.09 g/m*3 14.9 C 4.8 km/h
705 01-09-2014 10:40:00 15 C 11.16 g/m*3 15 C 6.4 km/h
706 01-09-2014 10:45:00 15.1 C 11.35 g/m*3 15.1 C 4.8 km/h
707 01-09-2014 10:50:00 15.2 C 11.42 g/m*3 15.2 C 1.6 km/h
708 01-09-2014 10:55:00 15.2 C 11.42 g/m*3 15.2 C 0 km/h
709 01-09-2014 11:00:00 15.3 C 11.36 g/m*3 15.3 C 8.1 km/h
710 01-09-2014 11:05:00 15.4 C 11.3 g/m*3 15.4 C 6.4 km/h
711 01-09-2014 11:10:00 15.5 C 11.5 g/m*3 15.5 C 1.6 km/h
712 01-09-2014 11:15:00 15.7 C 11.37 g/m*3 15.7 C 4.8 km/h
713 01-09-2014 11:20:00 15.9 C 11.24 g/m*3 15.9 C 4.8 km/h
714 01-09-2014 11:25:00 16.2 C 11.58 g/m*3 16.2 C 9.7 km/h
715 01-09-2014 11:30:00 16.4 C 11.58 g/m*3 16.4 C 9.7 km/h
716 01-09-2014 11:35:00 16.4 C 11.31 g/m*3 16.4 C 8.1 km/h
717 01-09-2014 11:40:00 16.4 C 11.31 g/m*3 16.4 C 6.4 km/h
718 01-09-2014 11:45:00 16.3 C 11.24 g/m*3 16.3 C 4.8 km/h
719 01-09-2014 11:50:00 16.3 C 11.24 g/m*3 16.3 C 4.8 km/h
720 01-09-2014 11:55:00 16.3 C 11.1 g/m*3 16.3 C 4.8 km/h
721 01-09-2014 12:00:00 16.2 C 11.03 g/m*3 16.2 C 4.8 km/h
722 01-09-2014 12:05:00 16.3 C 11.38 g/m*3 16.3 C 4.8 km/h
723 01-09-2014 12:10:00 16.3 C 11.38 g/m*3 16.3 C 4.8 km/h
724 01-09-2014 12:15:00 16.3 C 11.52 g/m*3 16.3 C 4.8 km/h
725 01-09-2014 12:20:00 16.3 C 11.52 g/m*3 16.3 C 4.8 km/h
Sensor: Nr:Datum:Temp:Abs-Feuchte:Windchill:Wind:
Aussen-T/F 726 01-09-2014 12:25:00 16.3 C 11.65 g/m*3 16.3 C 1.6 km/h
727 01-09-2014 12:30:00 16.4 C 11.45 g/m*3 16.4 C 4.8 km/h
728 01-09-2014 12:35:00 16.6 C 11.58 g/m*3 16.6 C 4.8 km/h
729 01-09-2014 12:40:00 16.7 C 11.37 g/m*3 16.7 C 4.8 km/h
730 01-09-2014 12:45:00 16.7 C 10.94 g/m*3 16.7 C 1.6 km/h
731 01-09-2014 12:50:00 16.8 C 11.15 g/m*3 16.8 C 4.8 km/h
732 01-09-2014 12:55:00 17 C 11.58 g/m*3 17 C 4.8 km/h
733 01-09-2014 13:00:00 17.2 C 11.13 g/m*3 17.2 C 3.2 km/h
734 01-09-2014 13:05:00 17.2 C 11.42 g/m*3 17.2 C 3.2 km/h
735 01-09-2014 13:10:00 17.3 C 11.64 g/m*3 17.3 C 3.2 km/h
736 01-09-2014 13:15:00 17.8 C 11.69 g/m*3 17.8 C 6.4 km/h
737 01-09-2014 13:20:00 18.1 C 11.43 g/m*3 18.1 C 1.6 km/h
738 01-09-2014 13:25:00 18.1 C 11.43 g/m*3 18.1 C 1.6 km/h
739 01-09-2014 13:30:00 18 C 11.98 g/m*3 18 C 1.6 km/h
740 01-09-2014 13:35:00 17.7 C 12.22 g/m*3 17.7 C 1.6 km/h
741 01-09-2014 13:40:00 17.2 C 12.15 g/m*3 17.2 C 0 km/h
742 01-09-2014 13:45:00 16.7 C 12.36 g/m*3 16.7 C 0 km/h
743 01-09-2014 13:50:00 16.4 C 12.28 g/m*3 16.4 C 0 km/h
744 01-09-2014 13:55:00 16.3 C 12.21 g/m*3 16.3 C 1.6 km/h
745 01-09-2014 14:00:00 16.3 C 12.21 g/m*3 16.3 C 0 km/h
746 01-09-2014 14:05:00 16.5 C 11.94 g/m*3 16.5 C 1.6 km/h
747 01-09-2014 14:10:00 17.1 C 11.79 g/m*3 17.1 C 6.4 km/h
748 01-09-2014 14:15:00 17.8 C 11.69 g/m*3 17.8 C 6.4 km/h
749 01-09-2014 14:20:00 18.2 C 11.81 g/m*3 18.2 C 9.7 km/h
750 01-09-2014 14:25:00 18.4 C 12.11 g/m*3 18.4 C 4.8 km/h
Sensor: Nr:Datum:Temp:Abs-Feuchte:Windchill:Wind:
Aussen-T/F 751 01-09-2014 14:30:00 18.7 C 12.01 g/m*3 18.7 C 4.8 km/h
752 01-09-2014 14:35:00 18.7 C 11.37 g/m*3 18.7 C 3.2 km/h
753 01-09-2014 14:40:00 18.7 C 11.21 g/m*3 18.7 C 1.6 km/h
754 01-09-2014 14:45:00 18.7 C 11.85 g/m*3 18.7 C 3.2 km/h
755 01-09-2014 14:50:00 18.7 C 11.21 g/m*3 18.7 C 6.4 km/h
756 01-09-2014 14:55:00 18.6 C 11.3 g/m*3 18.6 C 6.4 km/h
757 01-09-2014 15:00:00 18.7 C 11.69 g/m*3 18.7 C 3.2 km/h
758 01-09-2014 15:05:00 18.7 C 11.53 g/m*3 18.7 C 3.2 km/h
759 01-09-2014 15:10:00 18.6 C 11.78 g/m*3 18.6 C 1.6 km/h
760 01-09-2014 15:15:00 18.4 C 11.01 g/m*3 18.4 C 3.2 km/h
761 01-09-2014 15:20:00 18.3 C 12.35 g/m*3 18.3 C 0 km/h
762 01-09-2014 15:25:00 18.4 C 12.58 g/m*3 18.4 C 1.6 km/h
763 01-09-2014 15:30:00 18.4 C 11.8 g/m*3 18.4 C 3.2 km/h
764 01-09-2014 15:35:00 18.7 C 11.37 g/m*3 18.7 C 4.8 km/h
765 01-09-2014 15:40:00 18.9 C 11.5 g/m*3 18.9 C 6.4 km/h
766 01-09-2014 15:45:00 19.2 C 11.71 g/m*3 19.2 C 0 km/h
767 01-09-2014 15:50:00 19.4 C 11.68 g/m*3 19.4 C 4.8 km/h
768 01-09-2014 15:55:00 19.4 C 10.84 g/m*3 19.4 C 4.8 km/h
769 01-09-2014 16:00:00 19.2 C 11.05 g/m*3 19.2 C 4.8 km/h
770 01-09-2014 16:05:00 18.8 C 12.56 g/m*3 18.8 C 0 km/h
771 01-09-2014 16:10:00 18.1 C 12.52 g/m*3 18.1 C 0 km/h
772 01-09-2014 16:15:00 17.4 C 12.45 g/m*3 17.4 C 0 km/h
773 01-09-2014 16:20:00 16.9 C 12.37 g/m*3 16.9 C 0 km/h
774 01-09-2014 16:25:00 16.6 C 12.43 g/m*3 16.6 C 0 km/h
775 01-09-2014 16:30:00 16.5 C 12.5 g/m*3 16.5 C 0 km/h
Sensor: Nr:Datum:Temp:Abs-Feuchte:Windchill:Wind:
Aussen-T/F 776 01-09-2014 16:35:00 16.7 C 12.65 g/m*3 16.7 C 0 km/h
777 01-09-2014 16:40:00 16.9 C 11.94 g/m*3 16.9 C 1.6 km/h
778 01-09-2014 16:45:00 17.2 C 12.59 g/m*3 17.2 C 0 km/h
779 01-09-2014 16:50:00 16.9 C 12.51 g/m*3 16.9 C 0 km/h
780 01-09-2014 16:55:00 16.7 C 12.65 g/m*3 16.7 C 0 km/h
781 01-09-2014 17:00:00 16.3 C 12.21 g/m*3 16.3 C 0 km/h
782 01-09-2014 17:05:00 16.1 C 12.34 g/m*3 16.1 C 0 km/h
783 01-09-2014 17:10:00 15.9 C 12.32 g/m*3 15.9 C 0 km/h
784 01-09-2014 17:15:00 15.8 C 12.25 g/m*3 15.8 C 0 km/h
785 01-09-2014 17:20:00 15.8 C 12.25 g/m*3 15.8 C 0 km/h
786 01-09-2014 17:25:00 15.8 C 12.25 g/m*3 15.8 C 0 km/h
787 01-09-2014 17:30:00 15.8 C 12.38 g/m*3 15.8 C 0 km/h
788 01-09-2014 17:35:00 15.9 C 12.46 g/m*3 15.9 C 0 km/h
789 01-09-2014 17:40:00 15.9 C 12.46 g/m*3 15.9 C 0 km/h
790 01-09-2014 17:45:00 15.9 C 12.32 g/m*3 15.9 C 0 km/h
791 01-09-2014 17:50:00 15.9 C 12.32 g/m*3 15.9 C 0 km/h
792 01-09-2014 17:55:00 15.8 C 12.38 g/m*3 15.8 C 0 km/h
793 01-09-2014 18:00:00 15.8 C 12.25 g/m*3 15.8 C 0 km/h
794 01-09-2014 18:05:00 15.8 C 12.25 g/m*3 15.8 C 0 km/h
795 01-09-2014 18:10:00 15.9 C 12.46 g/m*3 15.9 C 0 km/h
796 01-09-2014 18:15:00 15.9 C 12.32 g/m*3 15.9 C 0 km/h
797 01-09-2014 18:20:00 15.9 C 12.46 g/m*3 15.9 C 0 km/h
798 01-09-2014 18:25:00 15.9 C 12.46 g/m*3 15.9 C 0 km/h
799 01-09-2014 18:30:00 15.9 C 12.46 g/m*3 15.9 C 0 km/h
800 01-09-2014 18:35:00 15.9 C 12.59 g/m*3 15.9 C 0 km/h
Sensor: Nr:Datum:Temp:Abs-Feuchte:Windchill:Wind:
Aussen-T/F 801 01-09-2014 18:40:00 15.8 C 12.52 g/m*3 15.8 C 0 km/h
802 01-09-2014 18:45:00 15.8 C 12.52 g/m*3 15.8 C 0 km/h
803 01-09-2014 18:50:00 15.8 C 12.52 g/m*3 15.8 C 0 km/h
804 01-09-2014 18:55:00 15.7 C 12.44 g/m*3 15.7 C 0 km/h
805 01-09-2014 19:00:00 15.6 C 12.37 g/m*3 15.6 C 0 km/h
806 01-09-2014 19:05:00 15.6 C 12.37 g/m*3 15.6 C 0 km/h
807 01-09-2014 19:10:00 15.5 C 12.43 g/m*3 15.5 C 0 km/h
808 01-09-2014 19:15:00 15.4 C 12.35 g/m*3 15.4 C 0 km/h
809 01-09-2014 19:20:00 15.3 C 12.28 g/m*3 15.3 C 0 km/h
810 01-09-2014 19:25:00 15.3 C 12.28 g/m*3 15.3 C 0 km/h
811 01-09-2014 19:30:00 15.2 C 12.2 g/m*3 15.2 C 0 km/h
812 01-09-2014 19:35:00 15.2 C 12.2 g/m*3 15.2 C 0 km/h
813 01-09-2014 19:40:00 15.2 C 12.2 g/m*3 15.2 C 0 km/h
814 01-09-2014 19:45:00 15.1 C 12.13 g/m*3 15.1 C 0 km/h
815 01-09-2014 19:50:00 15.1 C 12.13 g/m*3 15.1 C 0 km/h
816 01-09-2014 19:55:00 15.1 C 12.13 g/m*3 15.1 C 0 km/h
817 01-09-2014 20:00:00 15.1 C 12.13 g/m*3 15.1 C 0 km/h
818 01-09-2014 20:05:00 15 C 12.05 g/m*3 15 C 0 km/h
819 01-09-2014 20:10:00 14.9 C 11.98 g/m*3 14.9 C 0 km/h
820 01-09-2014 20:15:00 14.8 C 11.91 g/m*3 14.8 C 0 km/h
821 01-09-2014 20:20:00 14.8 C 11.91 g/m*3 14.8 C 0 km/h
822 01-09-2014 20:25:00 14.8 C 11.91 g/m*3 14.8 C 0 km/h
823 01-09-2014 20:30:00 14.8 C 11.91 g/m*3 14.8 C 0 km/h
824 01-09-2014 20:35:00 14.7 C 11.83 g/m*3 14.7 C 0 km/h
825 01-09-2014 20:40:00 14.7 C 11.83 g/m*3 14.7 C 1.6 km/h
Sensor: Nr:Datum:Temp:Abs-Feuchte:Windchill:Wind:
Aussen-T/F 826 01-09-2014 20:45:00 14.7 C 11.71 g/m*3 14.7 C 1.6 km/h
827 01-09-2014 20:50:00 14.6 C 11.64 g/m*3 14.6 C 1.6 km/h
828 01-09-2014 20:55:00 14.6 C 11.76 g/m*3 14.6 C 0 km/h
829 01-09-2014 21:00:00 14.6 C 11.76 g/m*3 14.6 C 0 km/h
830 01-09-2014 21:05:00 14.6 C 11.76 g/m*3 14.6 C 0 km/h
831 01-09-2014 21:10:00 14.6 C 11.76 g/m*3 14.6 C 0 km/h
832 01-09-2014 21:15:00 14.6 C 11.76 g/m*3 14.6 C 0 km/h
833 01-09-2014 21:20:00 14.5 C 11.69 g/m*3 14.5 C 0 km/h
834 01-09-2014 21:25:00 14.5 C 11.69 g/m*3 14.5 C 0 km/h
835 01-09-2014 21:30:00 14.4 C 11.62 g/m*3 14.4 C 0 km/h
836 01-09-2014 21:35:00 14.4 C 11.62 g/m*3 14.4 C 0 km/h
837 01-09-2014 21:40:00 14.4 C 11.62 g/m*3 14.4 C 0 km/h
838 01-09-2014 21:45:00 14.3 C 11.43 g/m*3 14.3 C 0 km/h
839 01-09-2014 21:50:00 14.3 C 11.55 g/m*3 14.3 C 1.6 km/h
840 01-09-2014 21:55:00 14.3 C 11.55 g/m*3 14.3 C 0 km/h
841 01-09-2014 22:00:00 14.2 C 11.48 g/m*3 14.2 C 0 km/h
842 01-09-2014 22:05:00 14.2 C 11.48 g/m*3 14.2 C 0 km/h
843 01-09-2014 22:10:00 14.1 C 11.41 g/m*3 14.1 C 0 km/h
844 01-09-2014 22:15:00 14 C 11.22 g/m*3 14 C 0 km/h
845 01-09-2014 22:20:00 13.9 C 11.15 g/m*3 13.9 C 0 km/h
846 01-09-2014 22:25:00 13.8 C 11.2 g/m*3 13.8 C 0 km/h
847 01-09-2014 22:30:00 13.8 C 11.2 g/m*3 13.8 C 0 km/h
848 01-09-2014 22:35:00 13.7 C 11.13 g/m*3 13.7 C 0 km/h
849 01-09-2014 22:40:00 13.6 C 11.06 g/m*3 13.6 C 0 km/h
850 01-09-2014 22:45:00 13.6 C 11.06 g/m*3 13.6 C 0 km/h
Sensor: Nr:Datum:Temp:Abs-Feuchte:Windchill:Wind:
Aussen-T/F 851 01-09-2014 22:50:00 13.4 C 10.93 g/m*3 13.4 C 0 km/h
852 01-09-2014 22:55:00 13.4 C 10.93 g/m*3 13.4 C 0 km/h
853 01-09-2014 23:00:00 13.4 C 10.93 g/m*3 13.4 C 0 km/h
854 01-09-2014 23:05:00 13.3 C 10.86 g/m*3 13.3 C 0 km/h
855 01-09-2014 23:10:00 13.2 C 10.79 g/m*3 13.2 C 0 km/h
856 01-09-2014 23:15:00 13.2 C 10.91 g/m*3 13.2 C 0 km/h
857 01-09-2014 23:20:00 13.1 C 10.84 g/m*3 13.1 C 0 km/h
858 01-09-2014 23:25:00 13.1 C 10.84 g/m*3 13.1 C 0 km/h
859 01-09-2014 23:30:00 13 C 10.77 g/m*3 13 C 0 km/h
860 01-09-2014 23:35:00 12.9 C 10.71 g/m*3 12.9 C 0 km/h
861 01-09-2014 23:40:00 12.8 C 10.64 g/m*3 12.8 C 0 km/h
862 01-09-2014 23:45:00 12.8 C 10.64 g/m*3 12.8 C 0 km/h
863 01-09-2014 23:50:00 12.7 C 10.58 g/m*3 12.7 C 0 km/h
864 01-09-2014 23:55:00 12.7 C 10.69 g/m*3 12.7 C 0 km/h
865 02-09-2014 00:00:00 12.7 C 10.69 g/m*3 12.7 C 0 km/h
866 02-09-2014 00:05:00 12.6 C 10.62 g/m*3 12.6 C 0 km/h
867 02-09-2014 00:10:00 12.6 C 10.62 g/m*3 12.6 C 0 km/h
868 02-09-2014 00:15:00 12.6 C 10.62 g/m*3 12.6 C 0 km/h
869 02-09-2014 00:20:00 12.6 C 10.62 g/m*3 12.6 C 0 km/h
870 02-09-2014 00:25:00 12.7 C 10.69 g/m*3 12.7 C 0 km/h
871 02-09-2014 00:30:00 12.7 C 10.8 g/m*3 12.7 C 0 km/h
872 02-09-2014 00:35:00 12.7 C 10.8 g/m*3 12.7 C 0 km/h
873 02-09-2014 00:40:00 12.8 C 10.87 g/m*3 12.8 C 0 km/h
874 02-09-2014 00:45:00 12.8 C 10.87 g/m*3 12.8 C 0 km/h
875 02-09-2014 00:50:00 12.9 C 10.93 g/m*3 12.9 C 0 km/h
Sensor: Nr:Datum:Temp:Abs-Feuchte:Windchill:Wind:
Aussen-T/F 876 02-09-2014 00:55:00 12.9 C 10.93 g/m*3 12.9 C 0 km/h
877 02-09-2014 01:00:00 12.8 C 10.87 g/m*3 12.8 C 0 km/h
878 02-09-2014 01:05:00 12.8 C 10.75 g/m*3 12.8 C 0 km/h
879 02-09-2014 01:10:00 12.8 C 10.75 g/m*3 12.8 C 0 km/h
880 02-09-2014 01:15:00 12.7 C 10.69 g/m*3 12.7 C 0 km/h
881 02-09-2014 01:20:00 12.6 C 10.62 g/m*3 12.6 C 0 km/h
882 02-09-2014 01:25:00 12.4 C 10.49 g/m*3 12.4 C 0 km/h
883 02-09-2014 01:30:00 12.4 C 10.49 g/m*3 12.4 C 0 km/h
884 02-09-2014 01:35:00 12.3 C 10.42 g/m*3 12.3 C 0 km/h
885 02-09-2014 01:40:00 12.3 C 10.42 g/m*3 12.3 C 0 km/h
886 02-09-2014 01:45:00 12.2 C 10.36 g/m*3 12.2 C 0 km/h
887 02-09-2014 01:50:00 12.1 C 10.29 g/m*3 12.1 C 0 km/h
888 02-09-2014 01:55:00 12.1 C 10.29 g/m*3 12.1 C 0 km/h
889 02-09-2014 02:00:00 12 C 10.23 g/m*3 12 C 0 km/h
890 02-09-2014 02:05:00 11.9 C 10.17 g/m*3 11.9 C 0 km/h
891 02-09-2014 02:10:00 11.9 C 10.17 g/m*3 11.9 C 0 km/h
892 02-09-2014 02:15:00 11.9 C 10.17 g/m*3 11.9 C 0 km/h
893 02-09-2014 02:20:00 11.8 C 10.21 g/m*3 11.8 C 0 km/h
894 02-09-2014 02:25:00 11.8 C 10.21 g/m*3 11.8 C 0 km/h
895 02-09-2014 02:30:00 11.7 C 10.15 g/m*3 11.7 C 0 km/h
896 02-09-2014 02:35:00 11.6 C 9.98 g/m*3 11.6 C 0 km/h
897 02-09-2014 02:40:00 11.5 C 9.92 g/m*3 11.5 C 0 km/h
898 02-09-2014 02:45:00 11.5 C 10.02 g/m*3 11.5 C 0 km/h
899 02-09-2014 02:50:00 11.5 C 10.02 g/m*3 11.5 C 0 km/h
900 02-09-2014 02:55:00 11.4 C 9.96 g/m*3 11.4 C 0 km/h
Sensor: Nr:Datum:Temp:Abs-Feuchte:Windchill:Wind:
Aussen-T/F 901 02-09-2014 03:00:00 11.4 C 9.96 g/m*3 11.4 C 0 km/h
902 02-09-2014 03:05:00 11.4 C 9.96 g/m*3 11.4 C 0 km/h
903 02-09-2014 03:10:00 11.4 C 9.96 g/m*3 11.4 C 0 km/h
904 02-09-2014 03:15:00 11.4 C 9.96 g/m*3 11.4 C 0 km/h
905 02-09-2014 03:20:00 11.4 C 9.96 g/m*3 11.4 C 0 km/h
906 02-09-2014 03:25:00 11.4 C 9.96 g/m*3 11.4 C 0 km/h
907 02-09-2014 03:30:00 11.4 C 9.96 g/m*3 11.4 C 0 km/h
908 02-09-2014 03:35:00 11.4 C 9.96 g/m*3 11.4 C 0 km/h
909 02-09-2014 03:40:00 11.4 C 9.96 g/m*3 11.4 C 0 km/h
910 02-09-2014 03:45:00 11.3 C 9.89 g/m*3 11.3 C 0 km/h
911 02-09-2014 03:50:00 11.3 C 9.89 g/m*3 11.3 C 0 km/h
912 02-09-2014 03:55:00 11.3 C 9.89 g/m*3 11.3 C 0 km/h
913 02-09-2014 04:00:00 11.3 C 9.89 g/m*3 11.3 C 0 km/h
914 02-09-2014 04:05:00 11.3 C 9.89 g/m*3 11.3 C 0 km/h
915 02-09-2014 04:10:00 11.3 C 9.89 g/m*3 11.3 C 0 km/h
916 02-09-2014 04:15:00 11.3 C 9.89 g/m*3 11.3 C 0 km/h
917 02-09-2014 04:20:00 11.3 C 9.89 g/m*3 11.3 C 0 km/h
918 02-09-2014 04:25:00 11.3 C 9.89 g/m*3 11.3 C 0 km/h
919 02-09-2014 04:30:00 11.3 C 9.89 g/m*3 11.3 C 0 km/h
920 02-09-2014 04:35:00 11.3 C 9.89 g/m*3 11.3 C 0 km/h
921 02-09-2014 04:40:00 11.4 C 9.96 g/m*3 11.4 C 0 km/h
922 02-09-2014 04:45:00 11.4 C 9.96 g/m*3 11.4 C 0 km/h
923 02-09-2014 04:50:00 11.4 C 9.96 g/m*3 11.4 C 0 km/h
924 02-09-2014 04:55:00 11.4 C 9.96 g/m*3 11.4 C 0 km/h
925 02-09-2014 05:00:00 11.4 C 9.96 g/m*3 11.4 C 0 km/h
Sensor: Nr:Datum:Temp:Abs-Feuchte:Windchill:Wind:
Aussen-T/F 926 02-09-2014 05:05:00 11.3 C 9.89 g/m*3 11.3 C 0 km/h
927 02-09-2014 05:10:00 11.3 C 9.89 g/m*3 11.3 C 0 km/h
928 02-09-2014 05:15:00 11.3 C 9.89 g/m*3 11.3 C 0 km/h
929 02-09-2014 05:20:00 11.3 C 9.89 g/m*3 11.3 C 0 km/h
930 02-09-2014 05:25:00 11.3 C 9.89 g/m*3 11.3 C 0 km/h
931 02-09-2014 05:30:00 11.2 C 9.83 g/m*3 11.2 C 0 km/h
932 02-09-2014 05:35:00 11.2 C 9.83 g/m*3 11.2 C 0 km/h
933 02-09-2014 05:40:00 11.2 C 9.83 g/m*3 11.2 C 0 km/h
934 02-09-2014 05:45:00 11.2 C 9.93 g/m*3 11.2 C 0 km/h
935 02-09-2014 05:50:00 11.3 C 10 g/m*3 11.3 C 0 km/h
936 02-09-2014 05:55:00 11.2 C 9.93 g/m*3 11.2 C 0 km/h
937 02-09-2014 06:00:00 11.2 C 9.93 g/m*3 11.2 C 0 km/h
938 02-09-2014 06:05:00 11.1 C 9.77 g/m*3 11.1 C 0 km/h
939 02-09-2014 06:10:00 11.1 C 9.77 g/m*3 11.1 C 0 km/h
940 02-09-2014 06:15:00 11.1 C 9.77 g/m*3 11.1 C 0 km/h
941 02-09-2014 06:20:00 11.1 C 9.77 g/m*3 11.1 C 0 km/h
942 02-09-2014 06:25:00 11 C 9.71 g/m*3 11 C 0 km/h
943 02-09-2014 06:30:00 11 C 9.71 g/m*3 11 C 0 km/h
944 02-09-2014 06:35:00 11 C 9.71 g/m*3 11 C 0 km/h
945 02-09-2014 06:40:00 10.9 C 9.65 g/m*3 10.9 C 0 km/h
946 02-09-2014 06:45:00 10.9 C 9.65 g/m*3 10.9 C 0 km/h
947 02-09-2014 06:50:00 10.9 C 9.75 g/m*3 10.9 C 0 km/h
948 02-09-2014 06:55:00 10.9 C 9.75 g/m*3 10.9 C 0 km/h
949 02-09-2014 07:00:00 10.9 C 9.75 g/m*3 10.9 C 0 km/h
950 02-09-2014 07:05:00 10.9 C 9.75 g/m*3 10.9 C 0 km/h
Sensor: Nr:Datum:Temp:Abs-Feuchte:Windchill:Wind:
Aussen-T/F 951 02-09-2014 07:10:00 10.8 C 9.69 g/m*3 10.8 C 0 km/h
952 02-09-2014 07:15:00 10.8 C 9.59 g/m*3 10.8 C 0 km/h
953 02-09-2014 07:20:00 10.8 C 9.59 g/m*3 10.8 C 0 km/h
954 02-09-2014 07:25:00 10.7 C 9.53 g/m*3 10.7 C 0 km/h
955 02-09-2014 07:30:00 10.7 C 9.53 g/m*3 10.7 C 0 km/h
956 02-09-2014 07:35:00 10.7 C 9.63 g/m*3 10.7 C 0 km/h
957 02-09-2014 07:40:00 10.7 C 9.63 g/m*3 10.7 C 0 km/h
958 02-09-2014 07:45:00 10.7 C 9.63 g/m*3 10.7 C 0 km/h
959 02-09-2014 07:50:00 10.8 C 9.69 g/m*3 10.8 C 0 km/h
960 02-09-2014 07:55:00 10.8 C 9.69 g/m*3 10.8 C 0 km/h
961 02-09-2014 08:00:00 10.8 C 9.69 g/m*3 10.8 C 0 km/h
962 02-09-2014 08:05:00 10.8 C 9.69 g/m*3 10.8 C 0 km/h
963 02-09-2014 08:10:00 10.8 C 9.69 g/m*3 10.8 C 0 km/h
964 02-09-2014 08:15:00 10.8 C 9.69 g/m*3 10.8 C 0 km/h
965 02-09-2014 08:20:00 10.8 C 9.69 g/m*3 10.8 C 0 km/h
966 02-09-2014 08:25:00 10.9 C 9.75 g/m*3 10.9 C 0 km/h
967 02-09-2014 08:30:00 10.9 C 9.75 g/m*3 10.9 C 0 km/h
968 02-09-2014 08:35:00 10.9 C 9.75 g/m*3 10.9 C 0 km/h
969 02-09-2014 08:40:00 10.9 C 9.75 g/m*3 10.9 C 0 km/h
970 02-09-2014 08:45:00 10.8 C 9.69 g/m*3 10.8 C 0 km/h
971 02-09-2014 08:50:00 10.9 C 9.75 g/m*3 10.9 C 0 km/h
972 02-09-2014 08:55:00 10.9 C 9.75 g/m*3 10.9 C 0 km/h
973 02-09-2014 09:00:00 11 C 9.81 g/m*3 11 C 0 km/h
974 02-09-2014 09:05:00 11.1 C 9.87 g/m*3 11.1 C 0 km/h
975 02-09-2014 09:10:00 11.1 C 9.87 g/m*3 11.1 C 0 km/h
Sensor: Nr:Datum:Temp:Abs-Feuchte:Windchill:Wind:
Aussen-T/F 976 02-09-2014 09:15:00 11.1 C 9.87 g/m*3 11.1 C 0 km/h
977 02-09-2014 09:20:00 11.1 C 9.87 g/m*3 11.1 C 0 km/h
978 02-09-2014 09:25:00 11.2 C 9.93 g/m*3 11.2 C 0 km/h
979 02-09-2014 09:30:00 11.2 C 9.93 g/m*3 11.2 C 0 km/h
980 02-09-2014 09:35:00 11.3 C 10 g/m*3 11.3 C 0 km/h
981 02-09-2014 09:40:00 11.3 C 10 g/m*3 11.3 C 0 km/h
982 02-09-2014 09:45:00 11.3 C 10 g/m*3 11.3 C 0 km/h
983 02-09-2014 09:50:00 11.4 C 10.06 g/m*3 11.4 C 0 km/h
984 02-09-2014 09:55:00 11.4 C 10.06 g/m*3 11.4 C 0 km/h
985 02-09-2014 10:00:00 11.5 C 10.12 g/m*3 11.5 C 0 km/h
986 02-09-2014 10:05:00 11.6 C 10.19 g/m*3 11.6 C 0 km/h
987 02-09-2014 10:10:00 11.6 C 10.19 g/m*3 11.6 C 0 km/h
988 02-09-2014 10:15:00 11.7 C 10.25 g/m*3 11.7 C 0 km/h
989 02-09-2014 10:20:00 11.8 C 10.31 g/m*3 11.8 C 0 km/h
990 02-09-2014 10:25:00 11.9 C 10.38 g/m*3 11.9 C 0 km/h
991 02-09-2014 10:30:00 11.9 C 10.38 g/m*3 11.9 C 0 km/h
992 02-09-2014 10:35:00 11.9 C 10.38 g/m*3 11.9 C 0 km/h
993 02-09-2014 10:40:00 12 C 10.44 g/m*3 12 C 0 km/h
994 02-09-2014 10:45:00 12.3 C 10.64 g/m*3 12.3 C 0 km/h
995 02-09-2014 10:50:00 12.5 C 10.77 g/m*3 12.5 C 0 km/h
996 02-09-2014 10:55:00 12.7 C 10.91 g/m*3 12.7 C 0 km/h
997 02-09-2014 11:00:00 12.8 C 10.98 g/m*3 12.8 C 0 km/h
998 02-09-2014 11:05:00 12.8 C 10.87 g/m*3 12.8 C 0 km/h
999 02-09-2014 11:10:00 13 C 11 g/m*3 13 C 0 km/h
1000 02-09-2014 11:15:00 13.2 C 11.14 g/m*3 13.2 C 0 km/h
Sensor: Nr:Datum:Temp:Abs-Feuchte:Windchill:Wind:
Aussen-T/F 1001 02-09-2014 11:20:00 13.4 C 11.16 g/m*3 13.4 C 0 km/h
1002 02-09-2014 11:25:00 13.6 C 11.3 g/m*3 13.6 C 0 km/h
1003 02-09-2014 11:30:00 13.8 C 11.32 g/m*3 13.8 C 0 km/h
1004 02-09-2014 11:35:00 14.1 C 11.53 g/m*3 14.1 C 0 km/h
1005 02-09-2014 11:40:00 14.3 C 11.55 g/m*3 14.3 C 0 km/h
1006 02-09-2014 11:45:00 14.4 C 11.62 g/m*3 14.4 C 0 km/h
1007 02-09-2014 11:50:00 14.6 C 11.64 g/m*3 14.6 C 0 km/h
1008 02-09-2014 11:55:00 14.8 C 11.78 g/m*3 14.8 C 0 km/h
1009 02-09-2014 12:00:00 15.1 C 11.87 g/m*3 15.1 C 0 km/h
1010 02-09-2014 12:05:00 15.2 C 11.94 g/m*3 15.2 C 0 km/h
1011 02-09-2014 12:10:00 15.2 C 11.94 g/m*3 15.2 C 0 km/h
1012 02-09-2014 12:15:00 15.2 C 11.94 g/m*3 15.2 C 0 km/h
1013 02-09-2014 12:20:00 15.3 C 11.75 g/m*3 15.3 C 0 km/h
1014 02-09-2014 12:25:00 15.4 C 12.09 g/m*3 15.4 C 0 km/h
1015 02-09-2014 12:30:00 15.6 C 11.84 g/m*3 15.6 C 0 km/h
1016 02-09-2014 12:35:00 16 C 11.99 g/m*3 16 C 0 km/h
1017 02-09-2014 12:40:00 16.2 C 12.41 g/m*3 16.2 C 0 km/h
1018 02-09-2014 12:45:00 16.5 C 12.36 g/m*3 16.5 C 0 km/h
1019 02-09-2014 12:50:00 16.9 C 12.8 g/m*3 16.9 C 0 km/h
1020 02-09-2014 12:55:00 17.2 C 12.01 g/m*3 17.2 C 12.9 km/h
1021 02-09-2014 13:00:00 17.9 C 12.06 g/m*3 17.9 C 12.9 km/h
1022 02-09-2014 13:05:00 18.8 C 12.08 g/m*3 18.8 C 9.7 km/h
1023 02-09-2014 13:10:00 19.4 C 12.01 g/m*3 19.4 C 4.8 km/h
1024 02-09-2014 13:15:00 20 C 12.44 g/m*3 20 C 8.1 km/h
1025 02-09-2014 13:20:00 20.3 C 11.96 g/m*3 20.3 C 6.4 km/h
Sensor: Nr:Datum:Temp:Abs-Feuchte:Windchill:Wind:
Aussen-T/F 1026 02-09-2014 13:25:00 20.4 C 12.91 g/m*3 20.4 C 9.7 km/h
1027 02-09-2014 13:30:00 20.5 C 12.1 g/m*3 20.5 C 8.1 km/h
1028 02-09-2014 13:35:00 20.6 C 11.99 g/m*3 20.6 C 6.4 km/h
1029 02-09-2014 13:40:00 20.6 C 11.99 g/m*3 20.6 C 6.4 km/h
1030 02-09-2014 13:45:00 20.6 C 12.35 g/m*3 20.6 C 11.3 km/h
1031 02-09-2014 13:50:00 20.6 C 11.81 g/m*3 20.6 C 11.3 km/h
1032 02-09-2014 13:55:00 20.6 C 11.99 g/m*3 20.6 C 6.4 km/h
1033 02-09-2014 14:00:00 20.4 C 12.38 g/m*3 20.4 C 3.2 km/h
1034 02-09-2014 14:05:00 20.2 C 12.76 g/m*3 20.2 C 3.2 km/h
1035 02-09-2014 14:10:00 20.2 C 11.54 g/m*3 20.2 C 4.8 km/h
1036 02-09-2014 14:15:00 20.1 C 10.43 g/m*3 20.1 C 4.8 km/h
1037 02-09-2014 14:20:00 20.1 C 10.95 g/m*3 20.1 C 8.1 km/h
1038 02-09-2014 14:25:00 20.4 C 11.5 g/m*3 20.4 C 6.4 km/h
1039 02-09-2014 14:30:00 20.8 C 11.41 g/m*3 20.8 C 3.2 km/h
1040 02-09-2014 14:35:00 21.1 C 11.79 g/m*3 21.1 C 6.4 km/h
1041 02-09-2014 14:40:00 21.4 C 11.25 g/m*3 21.4 C 9.7 km/h
1042 02-09-2014 14:45:00 21.7 C 11.06 g/m*3 21.7 C 8.1 km/h
1043 02-09-2014 14:50:00 21.8 C 11.32 g/m*3 21.8 C 9.7 km/h
1044 02-09-2014 14:55:00 21.9 C 11 g/m*3 21.9 C 12.9 km/h
1045 02-09-2014 15:00:00 21.9 C 10.81 g/m*3 21.9 C 9.7 km/h
1046 02-09-2014 15:05:00 21.9 C 11.19 g/m*3 21.9 C 8.1 km/h
1047 02-09-2014 15:10:00 22 C 10.87 g/m*3 22 C 6.4 km/h
1048 02-09-2014 15:15:00 22 C 11.45 g/m*3 22 C 8.1 km/h
1049 02-09-2014 15:20:00 22.2 C 11.39 g/m*3 22.2 C 4.8 km/h
1050 02-09-2014 15:25:00 22.2 C 11.39 g/m*3 22.2 C 9.7 km/h
Sensor: Nr:Datum:Temp:Abs-Feuchte:Windchill:Wind:
Aussen-T/F 1051 02-09-2014 15:30:00 22.1 C 11.71 g/m*3 22.1 C 9.7 km/h
1052 02-09-2014 15:35:00 21.8 C 12.09 g/m*3 21.8 C 6.4 km/h
1053 02-09-2014 15:40:00 21.5 C 12.45 g/m*3 21.5 C 4.8 km/h
1054 02-09-2014 15:45:00 21.3 C 12.12 g/m*3 21.3 C 6.4 km/h
1055 02-09-2014 15:50:00 21.2 C 12.97 g/m*3 21.2 C 1.6 km/h
1056 02-09-2014 15:55:00 20.6 C 13.24 g/m*3 20.6 C 0 km/h
1057 02-09-2014 16:00:00 20 C 12.1 g/m*3 20 C 4.8 km/h
1058 02-09-2014 16:05:00 19.8 C 12.47 g/m*3 19.8 C 4.8 km/h
1059 02-09-2014 16:10:00 19.7 C 13.08 g/m*3 19.7 C 3.2 km/h
1060 02-09-2014 16:15:00 19.3 C 13.1 g/m*3 19.3 C 1.6 km/h
1061 02-09-2014 16:20:00 18.9 C 13.12 g/m*3 18.9 C 1.6 km/h
1062 02-09-2014 16:25:00 18.7 C 13.13 g/m*3 18.7 C 0 km/h
1063 02-09-2014 16:30:00 18.4 C 13.21 g/m*3 18.4 C 0 km/h
1064 02-09-2014 16:35:00 18.2 C 13.21 g/m*3 18.2 C 0 km/h
1065 02-09-2014 16:40:00 18.2 C 13.37 g/m*3 18.2 C 0 km/h
1066 02-09-2014 16:45:00 18.2 C 13.37 g/m*3 18.2 C 1.6 km/h
1067 02-09-2014 16:50:00 18.1 C 13.29 g/m*3 18.1 C 0 km/h
1068 02-09-2014 16:55:00 18.1 C 13.29 g/m*3 18.1 C 0 km/h
1069 02-09-2014 17:00:00 17.9 C 13.28 g/m*3 17.9 C 0 km/h
1070 02-09-2014 17:05:00 17.8 C 13.36 g/m*3 17.8 C 0 km/h
1071 02-09-2014 17:10:00 17.7 C 13.28 g/m*3 17.7 C 1.6 km/h
1072 02-09-2014 17:15:00 17.7 C 13.28 g/m*3 17.7 C 0 km/h
1073 02-09-2014 17:20:00 17.6 C 13.2 g/m*3 17.6 C 0 km/h
1074 02-09-2014 17:25:00 17.5 C 13.27 g/m*3 17.5 C 3.2 km/h
1075 02-09-2014 17:30:00 17.6 C 13.2 g/m*3 17.6 C 1.6 km/h
Sensor: Nr:Datum:Temp:Abs-Feuchte:Windchill:Wind:
Aussen-T/F 1076 02-09-2014 17:35:00 17.7 C 12.98 g/m*3 17.7 C 3.2 km/h
1077 02-09-2014 17:40:00 17.8 C 13.2 g/m*3 17.8 C 1.6 km/h
1078 02-09-2014 17:45:00 17.7 C 13.13 g/m*3 17.7 C 0 km/h
1079 02-09-2014 17:50:00 17.7 C 13.28 g/m*3 17.7 C 0 km/h
1080 02-09-2014 17:55:00 17.6 C 13.2 g/m*3 17.6 C 0 km/h
1081 02-09-2014 18:00:00 17.6 C 13.05 g/m*3 17.6 C 1.6 km/h
1082 02-09-2014 18:05:00 17.6 C 13.2 g/m*3 17.6 C 1.6 km/h
1083 02-09-2014 18:10:00 17.5 C 13.12 g/m*3 17.5 C 0 km/h
1084 02-09-2014 18:15:00 17.3 C 13.11 g/m*3 17.3 C 0 km/h
1085 02-09-2014 18:20:00 17.2 C 13.03 g/m*3 17.2 C 0 km/h
1086 02-09-2014 18:25:00 17.1 C 13.1 g/m*3 17.1 C 0 km/h
1087 02-09-2014 18:30:00 17 C 13.02 g/m*3 17 C 0 km/h
1088 02-09-2014 18:35:00 16.9 C 12.94 g/m*3 16.9 C 1.6 km/h
1089 02-09-2014 18:40:00 16.8 C 13.01 g/m*3 16.8 C 0 km/h
1090 02-09-2014 18:45:00 16.7 C 12.93 g/m*3 16.7 C 0 km/h
1091 02-09-2014 18:50:00 16.7 C 12.93 g/m*3 16.7 C 0 km/h
1092 02-09-2014 18:55:00 16.7 C 12.93 g/m*3 16.7 C 0 km/h
1093 02-09-2014 19:00:00 16.6 C 12.86 g/m*3 16.6 C 0 km/h
1094 02-09-2014 19:05:00 16.6 C 13 g/m*3 16.6 C 0 km/h
1095 02-09-2014 19:10:00 16.7 C 13.07 g/m*3 16.7 C 0 km/h
1096 02-09-2014 19:15:00 16.6 C 12.86 g/m*3 16.6 C 0 km/h
1097 02-09-2014 19:20:00 16.4 C 12.84 g/m*3 16.4 C 0 km/h
1098 02-09-2014 19:25:00 16.3 C 12.76 g/m*3 16.3 C 0 km/h
1099 02-09-2014 19:30:00 16.3 C 12.76 g/m*3 16.3 C 0 km/h
1100 02-09-2014 19:35:00 16.3 C 12.76 g/m*3 16.3 C 0 km/h
Sensor: Nr:Datum:Temp:Abs-Feuchte:Windchill:Wind:
Aussen-T/F 1101 02-09-2014 19:40:00 16.4 C 12.98 g/m*3 16.4 C 0 km/h
1102 02-09-2014 19:45:00 16.4 C 12.98 g/m*3 16.4 C 0 km/h
1103 02-09-2014 19:50:00 16.4 C 12.84 g/m*3 16.4 C 0 km/h
1104 02-09-2014 19:55:00 16.4 C 12.84 g/m*3 16.4 C 0 km/h
1105 02-09-2014 20:00:00 16.4 C 12.84 g/m*3 16.4 C 0 km/h
1106 02-09-2014 20:05:00 16.3 C 12.9 g/m*3 16.3 C 0 km/h
1107 02-09-2014 20:10:00 16.3 C 12.9 g/m*3 16.3 C 0 km/h
1108 02-09-2014 20:15:00 16.3 C 12.9 g/m*3 16.3 C 0 km/h
1109 02-09-2014 20:20:00 16.3 C 12.9 g/m*3 16.3 C 0 km/h
1110 02-09-2014 20:25:00 16.3 C 12.9 g/m*3 16.3 C 0 km/h
1111 02-09-2014 20:30:00 16.3 C 12.9 g/m*3 16.3 C 0 km/h
1112 02-09-2014 20:35:00 16.2 C 12.82 g/m*3 16.2 C 0 km/h
1113 02-09-2014 20:40:00 16.2 C 12.82 g/m*3 16.2 C 0 km/h
1114 02-09-2014 20:45:00 16.2 C 12.82 g/m*3 16.2 C 0 km/h
1115 02-09-2014 20:50:00 16.1 C 12.75 g/m*3 16.1 C 0 km/h
1116 02-09-2014 20:55:00 16 C 12.67 g/m*3 16 C 0 km/h
1117 02-09-2014 21:00:00 15.9 C 12.59 g/m*3 15.9 C 0 km/h
1118 02-09-2014 21:05:00 15.8 C 12.52 g/m*3 15.8 C 0 km/h
1119 02-09-2014 21:10:00 15.7 C 12.44 g/m*3 15.7 C 0 km/h
1120 02-09-2014 21:15:00 15.7 C 12.44 g/m*3 15.7 C 0 km/h
1121 02-09-2014 21:20:00 15.6 C 12.37 g/m*3 15.6 C 0 km/h
1122 02-09-2014 21:25:00 15.6 C 12.37 g/m*3 15.6 C 0 km/h
1123 02-09-2014 21:30:00 15.6 C 12.37 g/m*3 15.6 C 0 km/h
1124 02-09-2014 21:35:00 15.6 C 12.5 g/m*3 15.6 C 0 km/h
1125 02-09-2014 21:40:00 15.6 C 12.5 g/m*3 15.6 C 0 km/h
Sensor: Nr:Datum:Temp:Abs-Feuchte:Windchill:Wind:
Aussen-T/F 1126 02-09-2014 21:45:00 15.5 C 12.43 g/m*3 15.5 C 0 km/h
1127 02-09-2014 21:50:00 15.4 C 12.35 g/m*3 15.4 C 0 km/h
1128 02-09-2014 21:55:00 15.4 C 12.35 g/m*3 15.4 C 0 km/h
1129 02-09-2014 22:00:00 15.3 C 12.28 g/m*3 15.3 C 0 km/h
1130 02-09-2014 22:05:00 15.3 C 12.41 g/m*3 15.3 C 0 km/h
1131 02-09-2014 22:10:00 15.3 C 12.41 g/m*3 15.3 C 0 km/h
1132 02-09-2014 22:15:00 15.3 C 12.41 g/m*3 15.3 C 0 km/h
1133 02-09-2014 22:20:00 15.4 C 12.48 g/m*3 15.4 C 0 km/h
1134 02-09-2014 22:25:00 15.4 C 12.48 g/m*3 15.4 C 0 km/h
1135 02-09-2014 22:30:00 15.5 C 12.56 g/m*3 15.5 C 0 km/h
1136 02-09-2014 22:35:00 15.6 C 12.63 g/m*3 15.6 C 0 km/h
1137 02-09-2014 22:40:00 15.6 C 12.63 g/m*3 15.6 C 0 km/h
1138 02-09-2014 22:45:00 15.5 C 12.56 g/m*3 15.5 C 0 km/h
1139 02-09-2014 22:50:00 15.4 C 12.48 g/m*3 15.4 C 0 km/h
1140 02-09-2014 22:55:00 15.3 C 12.41 g/m*3 15.3 C 0 km/h
1141 02-09-2014 23:00:00 15.2 C 12.2 g/m*3 15.2 C 0 km/h
1142 02-09-2014 23:05:00 15.1 C 12.13 g/m*3 15.1 C 0 km/h
1143 02-09-2014 23:10:00 15 C 12.18 g/m*3 15 C 0 km/h
1144 02-09-2014 23:15:00 14.9 C 12.11 g/m*3 14.9 C 0 km/h
1145 02-09-2014 23:20:00 14.9 C 12.11 g/m*3 14.9 C 0 km/h
1146 02-09-2014 23:25:00 14.8 C 12.03 g/m*3 14.8 C 0 km/h
1147 02-09-2014 23:30:00 14.7 C 11.96 g/m*3 14.7 C 0 km/h
1148 02-09-2014 23:35:00 14.7 C 11.96 g/m*3 14.7 C 0 km/h
1149 02-09-2014 23:40:00 14.6 C 11.89 g/m*3 14.6 C 0 km/h
1150 02-09-2014 23:45:00 14.5 C 11.82 g/m*3 14.5 C 0 km/h
Sensor: Nr:Datum:Temp:Abs-Feuchte:Windchill:Wind:
Aussen-T/F 1151 02-09-2014 23:50:00 14.4 C 11.74 g/m*3 14.4 C 0 km/h
1152 02-09-2014 23:55:00 14.3 C 11.67 g/m*3 14.3 C 0 km/h
1153 03-09-2014 00:00:00 14.4 C 11.87 g/m*3 14.4 C 0 km/h
1154 03-09-2014 00:05:00 14.4 C 11.87 g/m*3 14.4 C 0 km/h
1155 03-09-2014 00:10:00 14.6 C 12.01 g/m*3 14.6 C 0 km/h
1156 03-09-2014 00:15:00 14.6 C 12.01 g/m*3 14.6 C 0 km/h
1157 03-09-2014 00:20:00 14.7 C 12.09 g/m*3 14.7 C 0 km/h
1158 03-09-2014 00:25:00 14.8 C 12.16 g/m*3 14.8 C 0 km/h
1159 03-09-2014 00:30:00 14.8 C 12.29 g/m*3 14.8 C 0 km/h
1160 03-09-2014 00:35:00 14.8 C 12.29 g/m*3 14.8 C 0 km/h
1161 03-09-2014 00:40:00 14.9 C 12.36 g/m*3 14.9 C 0 km/h
1162 03-09-2014 00:45:00 14.9 C 12.36 g/m*3 14.9 C 0 km/h
1163 03-09-2014 00:50:00 14.9 C 12.24 g/m*3 14.9 C 0 km/h
1164 03-09-2014 00:55:00 14.9 C 12.24 g/m*3 14.9 C 0 km/h
1165 03-09-2014 01:00:00 14.9 C 12.24 g/m*3 14.9 C 0 km/h
1166 03-09-2014 01:05:00 14.9 C 12.24 g/m*3 14.9 C 0 km/h
1167 03-09-2014 01:10:00 14.9 C 12.24 g/m*3 14.9 C 0 km/h
1168 03-09-2014 01:15:00 14.9 C 12.36 g/m*3 14.9 C 0 km/h
1169 03-09-2014 01:20:00 14.9 C 12.36 g/m*3 14.9 C 0 km/h
1170 03-09-2014 01:25:00 14.9 C 12.36 g/m*3 14.9 C 0 km/h
1171 03-09-2014 01:30:00 15 C 12.44 g/m*3 15 C 0 km/h
1172 03-09-2014 01:35:00 15 C 12.44 g/m*3 15 C 0 km/h
1173 03-09-2014 01:40:00 15.1 C 12.51 g/m*3 15.1 C 0 km/h
1174 03-09-2014 01:45:00 15.1 C 12.51 g/m*3 15.1 C 0 km/h
1175 03-09-2014 01:50:00 15.1 C 12.51 g/m*3 15.1 C 0 km/h
Sensor: Nr:Datum:Temp:Abs-Feuchte:Windchill:Wind:
Aussen-T/F 1176 03-09-2014 01:55:00 15.1 C 12.51 g/m*3 15.1 C 0 km/h
1177 03-09-2014 02:00:00 15.1 C 12.51 g/m*3 15.1 C 0 km/h
1178 03-09-2014 02:05:00 15.1 C 12.51 g/m*3 15.1 C 0 km/h
1179 03-09-2014 02:10:00 15.1 C 12.51 g/m*3 15.1 C 0 km/h
1180 03-09-2014 02:15:00 15.1 C 12.51 g/m*3 15.1 C 0 km/h
1181 03-09-2014 02:20:00 15.1 C 12.51 g/m*3 15.1 C 0 km/h
1182 03-09-2014 02:25:00 15.1 C 12.39 g/m*3 15.1 C 0 km/h
1183 03-09-2014 02:30:00 15.1 C 12.39 g/m*3 15.1 C 0 km/h
1184 03-09-2014 02:35:00 15.1 C 12.39 g/m*3 15.1 C 0 km/h
1185 03-09-2014 02:40:00 14.9 C 12.24 g/m*3 14.9 C 0 km/h
1186 03-09-2014 02:45:00 14.8 C 12.16 g/m*3 14.8 C 0 km/h
1187 03-09-2014 02:50:00 14.8 C 12.16 g/m*3 14.8 C 0 km/h
1188 03-09-2014 02:55:00 14.7 C 12.09 g/m*3 14.7 C 0 km/h
1189 03-09-2014 03:00:00 14.6 C 12.01 g/m*3 14.6 C 0 km/h
1190 03-09-2014 03:05:00 14.6 C 12.01 g/m*3 14.6 C 0 km/h
1191 03-09-2014 03:10:00 14.5 C 11.94 g/m*3 14.5 C 0 km/h
1192 03-09-2014 03:15:00 14.4 C 11.87 g/m*3 14.4 C 0 km/h
1193 03-09-2014 03:20:00 14.4 C 11.87 g/m*3 14.4 C 0 km/h
1194 03-09-2014 03:25:00 14.3 C 11.79 g/m*3 14.3 C 0 km/h
1195 03-09-2014 03:30:00 14.2 C 11.72 g/m*3 14.2 C 0 km/h
1196 03-09-2014 03:35:00 14.1 C 11.65 g/m*3 14.1 C 0 km/h
1197 03-09-2014 03:40:00 14.1 C 11.65 g/m*3 14.1 C 0 km/h
1198 03-09-2014 03:45:00 14 C 11.58 g/m*3 14 C 0 km/h
1199 03-09-2014 03:50:00 13.9 C 11.51 g/m*3 13.9 C 0 km/h
1200 03-09-2014 03:55:00 13.8 C 11.44 g/m*3 13.8 C 0 km/h
Sensor: Nr:Datum:Temp:Abs-Feuchte:Windchill:Wind:
Aussen-T/F 1201 03-09-2014 04:00:00 13.8 C 11.44 g/m*3 13.8 C 0 km/h
1202 03-09-2014 04:05:00 13.7 C 11.37 g/m*3 13.7 C 0 km/h
1203 03-09-2014 04:10:00 13.6 C 11.18 g/m*3 13.6 C 0 km/h
1204 03-09-2014 04:15:00 13.5 C 11.11 g/m*3 13.5 C 0 km/h
1205 03-09-2014 04:20:00 13.4 C 11.16 g/m*3 13.4 C 0 km/h
1206 03-09-2014 04:25:00 13.3 C 11.09 g/m*3 13.3 C 0 km/h
1207 03-09-2014 04:30:00 13.2 C 10.91 g/m*3 13.2 C 0 km/h
1208 03-09-2014 04:35:00 13.2 C 10.91 g/m*3 13.2 C 0 km/h
1209 03-09-2014 04:40:00 13.1 C 10.95 g/m*3 13.1 C 0 km/h
1210 03-09-2014 04:45:00 12.9 C 10.82 g/m*3 12.9 C 0 km/h
1211 03-09-2014 04:50:00 12.9 C 10.82 g/m*3 12.9 C 0 km/h
1212 03-09-2014 04:55:00 12.9 C 10.82 g/m*3 12.9 C 0 km/h
1213 03-09-2014 05:00:00 12.8 C 10.75 g/m*3 12.8 C 0 km/h
1214 03-09-2014 05:05:00 12.7 C 10.69 g/m*3 12.7 C 0 km/h
1215 03-09-2014 05:10:00 12.7 C 10.69 g/m*3 12.7 C 0 km/h
1216 03-09-2014 05:15:00 12.6 C 10.62 g/m*3 12.6 C 0 km/h
1217 03-09-2014 05:20:00 12.6 C 10.62 g/m*3 12.6 C 0 km/h
1218 03-09-2014 05:25:00 12.5 C 10.55 g/m*3 12.5 C 0 km/h
1219 03-09-2014 05:30:00 12.4 C 10.49 g/m*3 12.4 C 0 km/h
1220 03-09-2014 05:35:00 12.3 C 10.42 g/m*3 12.3 C 0 km/h
1221 03-09-2014 05:40:00 12.3 C 10.42 g/m*3 12.3 C 0 km/h
1222 03-09-2014 05:45:00 12.3 C 10.42 g/m*3 12.3 C 0 km/h
1223 03-09-2014 05:50:00 12.3 C 10.42 g/m*3 12.3 C 0 km/h
1224 03-09-2014 05:55:00 12.2 C 10.36 g/m*3 12.2 C 0 km/h
1225 03-09-2014 06:00:00 12.2 C 10.36 g/m*3 12.2 C 0 km/h
Sensor: Nr:Datum:Temp:Abs-Feuchte:Windchill:Wind:
Aussen-T/F 1226 03-09-2014 06:05:00 12.2 C 10.36 g/m*3 12.2 C 0 km/h
1227 03-09-2014 06:10:00 12.2 C 10.36 g/m*3 12.2 C 0 km/h
1228 03-09-2014 06:15:00 12.1 C 10.29 g/m*3 12.1 C 0 km/h
1229 03-09-2014 06:20:00 12.1 C 10.29 g/m*3 12.1 C 0 km/h
1230 03-09-2014 06:25:00 12 C 10.23 g/m*3 12 C 0 km/h
1231 03-09-2014 06:30:00 11.9 C 10.17 g/m*3 11.9 C 0 km/h
1232 03-09-2014 06:35:00 11.9 C 10.17 g/m*3 11.9 C 0 km/h
1233 03-09-2014 06:40:00 11.9 C 10.17 g/m*3 11.9 C 0 km/h
1234 03-09-2014 06:45:00 11.9 C 10.17 g/m*3 11.9 C 0 km/h
1235 03-09-2014 06:50:00 11.9 C 10.17 g/m*3 11.9 C 0 km/h
1236 03-09-2014 06:55:00 11.8 C 10.1 g/m*3 11.8 C 0 km/h
1237 03-09-2014 07:00:00 11.8 C 10.1 g/m*3 11.8 C 0 km/h
1238 03-09-2014 07:05:00 11.8 C 10.1 g/m*3 11.8 C 0 km/h
1239 03-09-2014 07:10:00 11.7 C 10.04 g/m*3 11.7 C 0 km/h
1240 03-09-2014 07:15:00 11.7 C 10.04 g/m*3 11.7 C 0 km/h
1241 03-09-2014 07:20:00 11.7 C 10.04 g/m*3 11.7 C 0 km/h
1242 03-09-2014 07:25:00 11.7 C 10.04 g/m*3 11.7 C 0 km/h
1243 03-09-2014 07:30:00 11.7 C 10.04 g/m*3 11.7 C 0 km/h
1244 03-09-2014 07:35:00 11.7 C 10.04 g/m*3 11.7 C 0 km/h
1245 03-09-2014 07:40:00 11.7 C 10.04 g/m*3 11.7 C 0 km/h
1246 03-09-2014 07:45:00 11.7 C 10.15 g/m*3 11.7 C 0 km/h
1247 03-09-2014 07:50:00 11.7 C 10.15 g/m*3 11.7 C 0 km/h
1248 03-09-2014 07:55:00 11.8 C 10.21 g/m*3 11.8 C 0 km/h
1249 03-09-2014 08:00:00 11.9 C 10.27 g/m*3 11.9 C 0 km/h
1250 03-09-2014 08:05:00 12.1 C 10.4 g/m*3 12.1 C 0 km/h
Sensor: Nr:Datum:Temp:Abs-Feuchte:Windchill:Wind:
Aussen-T/F 1251 03-09-2014 08:10:00 12.2 C 10.47 g/m*3 12.2 C 0 km/h
1252 03-09-2014 08:15:00 12.2 C 10.47 g/m*3 12.2 C 0 km/h
1253 03-09-2014 08:20:00 12.3 C 10.53 g/m*3 12.3 C 0 km/h
1254 03-09-2014 08:25:00 12.4 C 10.6 g/m*3 12.4 C 0 km/h
1255 03-09-2014 08:30:00 12.6 C 10.73 g/m*3 12.6 C 0 km/h
1256 03-09-2014 08:35:00 12.7 C 10.8 g/m*3 12.7 C 0 km/h
1257 03-09-2014 08:40:00 12.9 C 10.93 g/m*3 12.9 C 1.6 km/h
1258 03-09-2014 08:45:00 13 C 10.89 g/m*3 13 C 1.6 km/h
1259 03-09-2014 08:50:00 13.2 C 11.02 g/m*3 13.2 C 0 km/h
1260 03-09-2014 08:55:00 13.3 C 10.98 g/m*3 13.3 C 0 km/h
1261 03-09-2014 09:00:00 13.4 C 10.93 g/m*3 13.4 C 1.6 km/h
1262 03-09-2014 09:05:00 13.4 C 10.69 g/m*3 13.4 C 0 km/h
1263 03-09-2014 09:10:00 13.6 C 10.71 g/m*3 13.6 C 1.6 km/h
1264 03-09-2014 09:15:00 13.7 C 10.66 g/m*3 13.7 C 1.6 km/h
1265 03-09-2014 09:20:00 13.9 C 11.03 g/m*3 13.9 C 0 km/h
1266 03-09-2014 09:25:00 13.9 C 10.91 g/m*3 13.9 C 0 km/h
1267 03-09-2014 09:30:00 14 C 10.98 g/m*3 14 C 0 km/h
1268 03-09-2014 09:35:00 14 C 10.74 g/m*3 14 C 1.6 km/h
1269 03-09-2014 09:40:00 14.1 C 10.68 g/m*3 14.1 C 1.6 km/h
1270 03-09-2014 09:45:00 14.1 C 10.44 g/m*3 14.1 C 4.8 km/h
1271 03-09-2014 09:50:00 14.2 C 10.62 g/m*3 14.2 C 4.8 km/h
1272 03-09-2014 09:55:00 14.2 C 10.62 g/m*3 14.2 C 4.8 km/h
1273 03-09-2014 10:00:00 14.4 C 10.88 g/m*3 14.4 C 0 km/h
1274 03-09-2014 10:05:00 14.6 C 10.76 g/m*3 14.6 C 1.6 km/h
1275 03-09-2014 10:10:00 14.7 C 10.58 g/m*3 14.7 C 9.7 km/h
Sensor: Nr:Datum:Temp:Abs-Feuchte:Windchill:Wind:
Aussen-T/F 1276 03-09-2014 10:15:00 14.7 C 10.7 g/m*3 14.7 C 1.6 km/h
1277 03-09-2014 10:20:00 14.8 C 10.64 g/m*3 14.8 C 0 km/h
1278 03-09-2014 10:25:00 14.9 C 10.71 g/m*3 14.9 C 4.8 km/h
1279 03-09-2014 10:30:00 15.1 C 10.71 g/m*3 15.1 C 0 km/h
1280 03-09-2014 10:35:00 15.2 C 10.77 g/m*3 15.2 C 0 km/h
1281 03-09-2014 10:40:00 15.4 C 10.9 g/m*3 15.4 C 6.4 km/h
1282 03-09-2014 10:45:00 15.6 C 10.91 g/m*3 15.6 C 9.7 km/h
1283 03-09-2014 10:50:00 15.7 C 10.84 g/m*3 15.7 C 6.4 km/h
1284 03-09-2014 10:55:00 15.7 C 10.97 g/m*3 15.7 C 1.6 km/h
1285 03-09-2014 11:00:00 15.8 C 10.9 g/m*3 15.8 C 1.6 km/h
1286 03-09-2014 11:05:00 15.9 C 10.83 g/m*3 15.9 C 4.8 km/h
1287 03-09-2014 11:10:00 15.9 C 10.7 g/m*3 15.9 C 3.2 km/h
1288 03-09-2014 11:15:00 16 C 10.9 g/m*3 16 C 6.4 km/h
1289 03-09-2014 11:20:00 16.1 C 10.83 g/m*3 16.1 C 9.7 km/h
1290 03-09-2014 11:25:00 16.2 C 10.89 g/m*3 16.2 C 9.7 km/h
1291 03-09-2014 11:30:00 16.2 C 10.76 g/m*3 16.2 C 12.9 km/h
1292 03-09-2014 11:35:00 16.1 C 10.69 g/m*3 16.1 C 12.9 km/h
1293 03-09-2014 11:40:00 16.1 C 10.83 g/m*3 16.1 C 6.4 km/h
1294 03-09-2014 11:45:00 16 C 10.76 g/m*3 16 C 3.2 km/h
1295 03-09-2014 11:50:00 15.9 C 10.7 g/m*3 15.9 C 8.1 km/h
1296 03-09-2014 11:55:00 15.9 C 10.56 g/m*3 15.9 C 4.8 km/h
1297 03-09-2014 12:00:00 16.1 C 10.83 g/m*3 16.1 C 3.2 km/h
1298 03-09-2014 12:05:00 16.1 C 10.83 g/m*3 16.1 C 4.8 km/h
1299 03-09-2014 12:10:00 16.2 C 10.89 g/m*3 16.2 C 3.2 km/h
1300 03-09-2014 12:15:00 16.4 C 11.03 g/m*3 16.4 C 8.1 km/h
Sensor: Nr:Datum:Temp:Abs-Feuchte:Windchill:Wind:
Aussen-T/F 1301 03-09-2014 12:20:00 16.6 C 10.88 g/m*3 16.6 C 9.7 km/h
1302 03-09-2014 12:25:00 16.7 C 10.94 g/m*3 16.7 C 8.1 km/h
1303 03-09-2014 12:30:00 16.8 C 11.01 g/m*3 16.8 C 4.8 km/h
1304 03-09-2014 12:35:00 16.9 C 11.36 g/m*3 16.9 C 8.1 km/h
1305 03-09-2014 12:40:00 17.2 C 11.28 g/m*3 17.2 C 9.7 km/h
1306 03-09-2014 12:45:00 17.2 C 11.13 g/m*3 17.2 C 11.3 km/h
1307 03-09-2014 12:50:00 17.3 C 11.34 g/m*3 17.3 C 9.7 km/h
1308 03-09-2014 12:55:00 17.3 C 11.2 g/m*3 17.3 C 6.4 km/h
1309 03-09-2014 13:00:00 17.2 C 11.13 g/m*3 17.2 C 8.1 km/h
1310 03-09-2014 13:05:00 17 C 11 g/m*3 17 C 8.1 km/h
1311 03-09-2014 13:10:00 16.8 C 11.01 g/m*3 16.8 C 9.7 km/h
1312 03-09-2014 13:15:00 16.8 C 11.15 g/m*3 16.8 C 9.7 km/h
1313 03-09-2014 13:20:00 16.8 C 11.15 g/m*3 16.8 C 3.2 km/h
1314 03-09-2014 13:25:00 16.8 C 11.15 g/m*3 16.8 C 9.7 km/h
1315 03-09-2014 13:30:00 16.8 C 11.29 g/m*3 16.8 C 4.8 km/h
1316 03-09-2014 13:35:00 16.8 C 11.29 g/m*3 16.8 C 9.7 km/h
1317 03-09-2014 13:40:00 16.8 C 11.15 g/m*3 16.8 C 11.3 km/h
1318 03-09-2014 13:45:00 16.8 C 11.15 g/m*3 16.8 C 8.1 km/h
1319 03-09-2014 13:50:00 16.8 C 11.15 g/m*3 16.8 C 6.4 km/h
1320 03-09-2014 13:55:00 16.8 C 11.29 g/m*3 16.8 C 4.8 km/h
1321 03-09-2014 14:00:00 16.8 C 11.29 g/m*3 16.8 C 9.7 km/h
1322 03-09-2014 14:05:00 16.8 C 11.29 g/m*3 16.8 C 4.8 km/h
1323 03-09-2014 14:10:00 16.8 C 11.29 g/m*3 16.8 C 9.7 km/h
1324 03-09-2014 14:15:00 16.8 C 11.29 g/m*3 16.8 C 4.8 km/h
1325 03-09-2014 14:20:00 16.8 C 11.29 g/m*3 16.8 C 6.4 km/h
Sensor: Nr:Datum:Temp:Abs-Feuchte:Windchill:Wind:
Aussen-T/F 1326 03-09-2014 14:25:00 16.8 C 11.44 g/m*3 16.8 C 6.4 km/h
1327 03-09-2014 14:30:00 16.8 C 11.44 g/m*3 16.8 C 6.4 km/h
1328 03-09-2014 14:35:00 16.8 C 11.29 g/m*3 16.8 C 6.4 km/h
1329 03-09-2014 14:40:00 16.9 C 11.51 g/m*3 16.9 C 4.8 km/h
1330 03-09-2014 14:45:00 16.9 C 11.36 g/m*3 16.9 C 8.1 km/h
1331 03-09-2014 14:50:00 16.8 C 11.29 g/m*3 16.8 C 8.1 km/h
1332 03-09-2014 14:55:00 16.7 C 11.37 g/m*3 16.7 C 11.3 km/h
1333 03-09-2014 15:00:00 16.7 C 11.37 g/m*3 16.7 C 14.5 km/h
1334 03-09-2014 15:05:00 16.6 C 11.3 g/m*3 16.6 C 6.4 km/h
1335 03-09-2014 15:10:00 16.6 C 11.44 g/m*3 16.6 C 8.1 km/h
1336 03-09-2014 15:15:00 16.7 C 11.51 g/m*3 16.7 C 8.1 km/h
1337 03-09-2014 15:20:00 16.8 C 11.58 g/m*3 16.8 C 8.1 km/h
1338 03-09-2014 15:25:00 16.9 C 11.65 g/m*3 16.9 C 4.8 km/h
1339 03-09-2014 15:30:00 16.9 C 11.65 g/m*3 16.9 C 1.6 km/h
1340 03-09-2014 15:35:00 16.9 C 11.65 g/m*3 16.9 C 8.1 km/h
1341 03-09-2014 15:40:00 16.9 C 11.65 g/m*3 16.9 C 6.4 km/h
1342 03-09-2014 15:45:00 17.1 C 11.94 g/m*3 17.1 C 1.6 km/h
1343 03-09-2014 15:50:00 17.1 C 11.94 g/m*3 17.1 C 0 km/h
1344 03-09-2014 15:55:00 17.1 C 11.65 g/m*3 17.1 C 3.2 km/h
1345 03-09-2014 16:00:00 17.1 C 11.65 g/m*3 17.1 C 6.4 km/h
1346 03-09-2014 16:05:00 17.2 C 11.86 g/m*3 17.2 C 4.8 km/h
1347 03-09-2014 16:10:00 17.2 C 11.86 g/m*3 17.2 C 6.4 km/h
1348 03-09-2014 16:15:00 17.2 C 12.01 g/m*3 17.2 C 0 km/h
1349 03-09-2014 16:20:00 17.2 C 12.01 g/m*3 17.2 C 0 km/h
1350 03-09-2014 16:25:00 17.3 C 12.08 g/m*3 17.3 C 0 km/h
Sensor: Nr:Datum:Temp:Abs-Feuchte:Windchill:Wind:
Aussen-T/F 1351 03-09-2014 16:30:00 17.3 C 12.08 g/m*3 17.3 C 4.8 km/h
1352 03-09-2014 16:35:00 17.3 C 11.93 g/m*3 17.3 C 6.4 km/h
1353 03-09-2014 16:40:00 17.4 C 11.86 g/m*3 17.4 C 3.2 km/h
1354 03-09-2014 16:45:00 17.4 C 11.86 g/m*3 17.4 C 0 km/h
1355 03-09-2014 16:50:00 17.4 C 12.15 g/m*3 17.4 C 0 km/h
1356 03-09-2014 16:55:00 17.4 C 12.15 g/m*3 17.4 C 0 km/h
1357 03-09-2014 17:00:00 17.3 C 11.93 g/m*3 17.3 C 0 km/h
1358 03-09-2014 17:05:00 17.4 C 12.3 g/m*3 17.4 C 0 km/h
1359 03-09-2014 17:10:00 17.3 C 12.52 g/m*3 17.3 C 0 km/h
1360 03-09-2014 17:15:00 17.1 C 12.52 g/m*3 17.1 C 0 km/h
1361 03-09-2014 17:20:00 16.8 C 12.44 g/m*3 16.8 C 0 km/h
1362 03-09-2014 17:25:00 16.7 C 12.51 g/m*3 16.7 C 0 km/h
1363 03-09-2014 17:30:00 16.6 C 12.57 g/m*3 16.6 C 0 km/h
1364 03-09-2014 17:35:00 16.4 C 12.56 g/m*3 16.4 C 0 km/h
1365 03-09-2014 17:40:00 16.4 C 12.56 g/m*3 16.4 C 0 km/h
1366 03-09-2014 17:45:00 16.3 C 12.62 g/m*3 16.3 C 0 km/h
1367 03-09-2014 17:50:00 16.3 C 12.62 g/m*3 16.3 C 0 km/h
1368 03-09-2014 17:55:00 16.3 C 12.76 g/m*3 16.3 C 0 km/h
1369 03-09-2014 18:00:00 16.3 C 12.62 g/m*3 16.3 C 0 km/h
1370 03-09-2014 18:05:00 16.3 C 12.62 g/m*3 16.3 C 0 km/h
1371 03-09-2014 18:10:00 16.3 C 12.76 g/m*3 16.3 C 0 km/h
1372 03-09-2014 18:15:00 16.3 C 12.76 g/m*3 16.3 C 0 km/h
1373 03-09-2014 18:20:00 16.3 C 12.76 g/m*3 16.3 C 0 km/h
1374 03-09-2014 18:25:00 16.3 C 12.76 g/m*3 16.3 C 0 km/h
1375 03-09-2014 18:30:00 16.3 C 12.76 g/m*3 16.3 C 0 km/h
Sensor: Nr:Datum:Temp:Abs-Feuchte:Windchill:Wind:
Aussen-T/F 1376 03-09-2014 18:35:00 16.3 C 12.76 g/m*3 16.3 C 0 km/h
1377 03-09-2014 18:40:00 16.3 C 12.76 g/m*3 16.3 C 0 km/h
1378 03-09-2014 18:45:00 16.3 C 12.76 g/m*3 16.3 C 0 km/h
1379 03-09-2014 18:50:00 16.3 C 12.76 g/m*3 16.3 C 0 km/h
1380 03-09-2014 18:55:00 16.3 C 12.9 g/m*3 16.3 C 0 km/h
1381 03-09-2014 19:00:00 16.2 C 12.69 g/m*3 16.2 C 0 km/h
1382 03-09-2014 19:05:00 16.2 C 12.69 g/m*3 16.2 C 0 km/h
1383 03-09-2014 19:10:00 16.2 C 12.69 g/m*3 16.2 C 0 km/h
1384 03-09-2014 19:15:00 16.2 C 12.82 g/m*3 16.2 C 0 km/h
1385 03-09-2014 19:20:00 16.2 C 12.82 g/m*3 16.2 C 0 km/h
1386 03-09-2014 19:25:00 16.2 C 12.82 g/m*3 16.2 C 0 km/h
1387 03-09-2014 19:30:00 16.1 C 12.75 g/m*3 16.1 C 0 km/h
1388 03-09-2014 19:35:00 16.1 C 12.61 g/m*3 16.1 C 0 km/h
1389 03-09-2014 19:40:00 16 C 12.53 g/m*3 16 C 0 km/h
1390 03-09-2014 19:45:00 15.9 C 12.46 g/m*3 15.9 C 0 km/h
1391 03-09-2014 19:50:00 15.9 C 12.46 g/m*3 15.9 C 0 km/h
1392 03-09-2014 19:55:00 15.8 C 12.38 g/m*3 15.8 C 0 km/h
1393 03-09-2014 20:00:00 15.8 C 12.38 g/m*3 15.8 C 0 km/h
1394 03-09-2014 20:05:00 15.8 C 12.38 g/m*3 15.8 C 0 km/h
1395 03-09-2014 20:10:00 15.7 C 12.31 g/m*3 15.7 C 0 km/h
1396 03-09-2014 20:15:00 15.7 C 12.31 g/m*3 15.7 C 0 km/h
1397 03-09-2014 20:20:00 15.6 C 12.23 g/m*3 15.6 C 0 km/h
1398 03-09-2014 20:25:00 15.6 C 12.23 g/m*3 15.6 C 0 km/h
1399 03-09-2014 20:30:00 15.5 C 12.16 g/m*3 15.5 C 0 km/h
1400 03-09-2014 20:35:00 15.5 C 12.16 g/m*3 15.5 C 0 km/h
Sensor: Nr:Datum:Temp:Abs-Feuchte:Windchill:Wind:
Aussen-T/F 1401 03-09-2014 20:40:00 15.5 C 12.16 g/m*3 15.5 C 0 km/h
1402 03-09-2014 20:45:00 15.4 C 12.09 g/m*3 15.4 C 0 km/h
1403 03-09-2014 20:50:00 15.4 C 12.22 g/m*3 15.4 C 0 km/h
1404 03-09-2014 20:55:00 15.4 C 12.09 g/m*3 15.4 C 0 km/h
1405 03-09-2014 21:00:00 15.3 C 12.01 g/m*3 15.3 C 0 km/h
1406 03-09-2014 21:05:00 15.3 C 12.14 g/m*3 15.3 C 0 km/h
1407 03-09-2014 21:10:00 15.3 C 12.14 g/m*3 15.3 C 0 km/h
1408 03-09-2014 21:15:00 15.3 C 12.01 g/m*3 15.3 C 0 km/h
1409 03-09-2014 21:20:00 15.3 C 12.14 g/m*3 15.3 C 0 km/h
1410 03-09-2014 21:25:00 15.3 C 12.14 g/m*3 15.3 C 0 km/h
1411 03-09-2014 21:30:00 15.2 C 12.07 g/m*3 15.2 C 0 km/h
1412 03-09-2014 21:35:00 15.2 C 12.07 g/m*3 15.2 C 0 km/h
1413 03-09-2014 21:40:00 15.2 C 12.07 g/m*3 15.2 C 0 km/h
1414 03-09-2014 21:45:00 15.2 C 12.07 g/m*3 15.2 C 0 km/h
1415 03-09-2014 21:50:00 15.2 C 12.07 g/m*3 15.2 C 0 km/h
1416 03-09-2014 21:55:00 15.2 C 12.07 g/m*3 15.2 C 0 km/h
1417 03-09-2014 22:00:00 15.2 C 12.07 g/m*3 15.2 C 0 km/h
1418 03-09-2014 22:05:00 15.2 C 12.07 g/m*3 15.2 C 0 km/h
1419 03-09-2014 22:10:00 15.2 C 12.07 g/m*3 15.2 C 0 km/h
1420 03-09-2014 22:15:00 15.1 C 12 g/m*3 15.1 C 0 km/h
1421 03-09-2014 22:20:00 15.1 C 12 g/m*3 15.1 C 0 km/h
1422 03-09-2014 22:25:00 15.2 C 12.07 g/m*3 15.2 C 0 km/h
1423 03-09-2014 22:30:00 15.1 C 12 g/m*3 15.1 C 0 km/h
1424 03-09-2014 22:35:00 15.2 C 12.07 g/m*3 15.2 C 0 km/h
1425 03-09-2014 22:40:00 15.1 C 12 g/m*3 15.1 C 0 km/h
Sensor: Nr:Datum:Temp:Abs-Feuchte:Windchill:Wind:
Aussen-T/F 1426 03-09-2014 22:45:00 15.2 C 12.07 g/m*3 15.2 C 0 km/h
1427 03-09-2014 22:50:00 15.2 C 12.07 g/m*3 15.2 C 0 km/h
1428 03-09-2014 22:55:00 15.2 C 12.07 g/m*3 15.2 C 0 km/h
1429 03-09-2014 23:00:00 15.2 C 12.07 g/m*3 15.2 C 0 km/h
1430 03-09-2014 23:05:00 15.2 C 12.07 g/m*3 15.2 C 0 km/h
1431 03-09-2014 23:10:00 15.2 C 12.07 g/m*3 15.2 C 0 km/h
1432 03-09-2014 23:15:00 15.2 C 12.07 g/m*3 15.2 C 0 km/h
1433 03-09-2014 23:20:00 15.2 C 12.07 g/m*3 15.2 C 0 km/h
1434 03-09-2014 23:25:00 15.2 C 12.07 g/m*3 15.2 C 0 km/h
1435 03-09-2014 23:30:00 15.2 C 12.07 g/m*3 15.2 C 0 km/h
1436 03-09-2014 23:35:00 15.2 C 12.07 g/m*3 15.2 C 0 km/h
1437 03-09-2014 23:40:00 15.1 C 12.13 g/m*3 15.1 C 0 km/h
1438 03-09-2014 23:45:00 15.2 C 12.2 g/m*3 15.2 C 0 km/h
1439 03-09-2014 23:50:00 15.1 C 12.13 g/m*3 15.1 C 0 km/h
1440 03-09-2014 23:55:00 15.1 C 12 g/m*3 15.1 C 0 km/h
1441 04-09-2014 00:00:00 15.1 C 12 g/m*3 15.1 C 0 km/h
1442 04-09-2014 00:05:00 15.1 C 12.13 g/m*3 15.1 C 0 km/h
1443 04-09-2014 00:10:00 15.1 C 12.13 g/m*3 15.1 C 0 km/h
1444 04-09-2014 00:15:00 15.1 C 12.13 g/m*3 15.1 C 0 km/h
1445 04-09-2014 00:20:00 15.1 C 12.13 g/m*3 15.1 C 0 km/h
1446 04-09-2014 00:25:00 15 C 11.93 g/m*3 15 C 0 km/h
1447 04-09-2014 00:30:00 15 C 11.93 g/m*3 15 C 0 km/h
1448 04-09-2014 00:35:00 15 C 11.93 g/m*3 15 C 0 km/h
1449 04-09-2014 00:40:00 14.9 C 11.85 g/m*3 14.9 C 0 km/h
1450 04-09-2014 00:45:00 14.9 C 11.85 g/m*3 14.9 C 0 km/h
Sensor: Nr:Datum:Temp:Abs-Feuchte:Windchill:Wind:
Aussen-T/F 1451 04-09-2014 00:50:00 14.8 C 11.65 g/m*3 14.8 C 0 km/h
1452 04-09-2014 00:55:00 14.7 C 11.58 g/m*3 14.7 C 0 km/h
1453 04-09-2014 01:00:00 14.7 C 11.58 g/m*3 14.7 C 0 km/h
1454 04-09-2014 01:05:00 14.7 C 11.71 g/m*3 14.7 C 0 km/h
1455 04-09-2014 01:10:00 14.6 C 11.64 g/m*3 14.6 C 0 km/h
1456 04-09-2014 01:15:00 14.6 C 11.51 g/m*3 14.6 C 0 km/h
1457 04-09-2014 01:20:00 14.6 C 11.64 g/m*3 14.6 C 0 km/h
1458 04-09-2014 01:25:00 14.5 C 11.57 g/m*3 14.5 C 0 km/h
1459 04-09-2014 01:30:00 14.5 C 11.57 g/m*3 14.5 C 0 km/h
1460 04-09-2014 01:35:00 14.5 C 11.57 g/m*3 14.5 C 0 km/h
1461 04-09-2014 01:40:00 14.6 C 11.64 g/m*3 14.6 C 0 km/h
1462 04-09-2014 01:45:00 14.5 C 11.57 g/m*3 14.5 C 0 km/h
1463 04-09-2014 01:50:00 14.5 C 11.57 g/m*3 14.5 C 0 km/h
1464 04-09-2014 01:55:00 14.5 C 11.69 g/m*3 14.5 C 0 km/h
1465 04-09-2014 02:00:00 14.5 C 11.69 g/m*3 14.5 C 0 km/h
1466 04-09-2014 02:05:00 14.4 C 11.62 g/m*3 14.4 C 0 km/h
1467 04-09-2014 02:10:00 14.4 C 11.62 g/m*3 14.4 C 0 km/h
1468 04-09-2014 02:15:00 14.4 C 11.62 g/m*3 14.4 C 0 km/h
1469 04-09-2014 02:20:00 14.4 C 11.62 g/m*3 14.4 C 0 km/h
1470 04-09-2014 02:25:00 14.4 C 11.62 g/m*3 14.4 C 0 km/h
1471 04-09-2014 02:30:00 14.3 C 11.55 g/m*3 14.3 C 0 km/h
1472 04-09-2014 02:35:00 14.3 C 11.55 g/m*3 14.3 C 0 km/h
1473 04-09-2014 02:40:00 14.2 C 11.48 g/m*3 14.2 C 0 km/h
1474 04-09-2014 02:45:00 14.1 C 11.41 g/m*3 14.1 C 0 km/h
1475 04-09-2014 02:50:00 13.9 C 11.15 g/m*3 13.9 C 0 km/h
Sensor: Nr:Datum:Temp:Abs-Feuchte:Windchill:Wind:
Aussen-T/F 1476 04-09-2014 02:55:00 13.8 C 11.2 g/m*3 13.8 C 0 km/h
1477 04-09-2014 03:00:00 13.7 C 11.13 g/m*3 13.7 C 0 km/h
1478 04-09-2014 03:05:00 13.7 C 11.13 g/m*3 13.7 C 0 km/h
1479 04-09-2014 03:10:00 13.6 C 11.06 g/m*3 13.6 C 0 km/h
1480 04-09-2014 03:15:00 13.6 C 11.06 g/m*3 13.6 C 0 km/h
1481 04-09-2014 03:20:00 13.4 C 10.93 g/m*3 13.4 C 0 km/h
1482 04-09-2014 03:25:00 13.4 C 10.93 g/m*3 13.4 C 0 km/h
1483 04-09-2014 03:30:00 13.4 C 11.04 g/m*3 13.4 C 0 km/h
1484 04-09-2014 03:35:00 13.4 C 11.04 g/m*3 13.4 C 0 km/h
1485 04-09-2014 03:40:00 13.3 C 10.98 g/m*3 13.3 C 0 km/h
1486 04-09-2014 03:45:00 13.3 C 10.98 g/m*3 13.3 C 0 km/h
1487 04-09-2014 03:50:00 13.3 C 10.98 g/m*3 13.3 C 0 km/h
1488 04-09-2014 03:55:00 13.3 C 10.98 g/m*3 13.3 C 0 km/h
1489 04-09-2014 04:00:00 13.3 C 11.09 g/m*3 13.3 C 0 km/h
1490 04-09-2014 04:05:00 13.3 C 11.09 g/m*3 13.3 C 0 km/h
1491 04-09-2014 04:10:00 13.3 C 11.09 g/m*3 13.3 C 0 km/h
1492 04-09-2014 04:15:00 13.3 C 11.09 g/m*3 13.3 C 0 km/h
1493 04-09-2014 04:20:00 13.3 C 11.09 g/m*3 13.3 C 0 km/h
1494 04-09-2014 04:25:00 13.4 C 11.16 g/m*3 13.4 C 0 km/h
1495 04-09-2014 04:30:00 13.3 C 11.09 g/m*3 13.3 C 0 km/h
1496 04-09-2014 04:35:00 13.3 C 11.09 g/m*3 13.3 C 0 km/h
1497 04-09-2014 04:40:00 13.4 C 11.16 g/m*3 13.4 C 0 km/h
1498 04-09-2014 04:45:00 13.4 C 11.16 g/m*3 13.4 C 0 km/h
1499 04-09-2014 04:50:00 13.4 C 11.16 g/m*3 13.4 C 0 km/h
1500 04-09-2014 04:55:00 13.4 C 11.16 g/m*3 13.4 C 0 km/h
Sensor: Nr:Datum:Temp:Abs-Feuchte:Windchill:Wind:
Aussen-T/F 1501 04-09-2014 05:00:00 13.5 C 11.23 g/m*3 13.5 C 0 km/h
1502 04-09-2014 05:05:00 13.6 C 11.3 g/m*3 13.6 C 0 km/h
1503 04-09-2014 05:10:00 13.6 C 11.3 g/m*3 13.6 C 0 km/h
1504 04-09-2014 05:15:00 13.6 C 11.3 g/m*3 13.6 C 0 km/h
1505 04-09-2014 05:20:00 13.6 C 11.3 g/m*3 13.6 C 0 km/h
1506 04-09-2014 05:25:00 13.6 C 11.3 g/m*3 13.6 C 0 km/h
1507 04-09-2014 05:30:00 13.6 C 11.3 g/m*3 13.6 C 0 km/h
1508 04-09-2014 05:35:00 13.6 C 11.3 g/m*3 13.6 C 0 km/h
1509 04-09-2014 05:40:00 13.7 C 11.37 g/m*3 13.7 C 0 km/h
1510 04-09-2014 05:45:00 13.7 C 11.37 g/m*3 13.7 C 0 km/h
1511 04-09-2014 05:50:00 13.8 C 11.56 g/m*3 13.8 C 0 km/h
1512 04-09-2014 05:55:00 13.8 C 11.56 g/m*3 13.8 C 0 km/h
1513 04-09-2014 06:00:00 13.8 C 11.44 g/m*3 13.8 C 0 km/h
1514 04-09-2014 06:05:00 13.8 C 11.44 g/m*3 13.8 C 0 km/h
1515 04-09-2014 06:10:00 13.8 C 11.44 g/m*3 13.8 C 0 km/h
1516 04-09-2014 06:15:00 13.7 C 11.37 g/m*3 13.7 C 0 km/h
1517 04-09-2014 06:20:00 13.8 C 11.44 g/m*3 13.8 C 0 km/h
1518 04-09-2014 06:25:00 13.8 C 11.44 g/m*3 13.8 C 0 km/h
1519 04-09-2014 06:30:00 13.9 C 11.51 g/m*3 13.9 C 0 km/h
1520 04-09-2014 06:35:00 13.9 C 11.51 g/m*3 13.9 C 0 km/h
1521 04-09-2014 06:40:00 13.9 C 11.51 g/m*3 13.9 C 0 km/h
1522 04-09-2014 06:45:00 14 C 11.58 g/m*3 14 C 0 km/h
1523 04-09-2014 06:50:00 14.1 C 11.65 g/m*3 14.1 C 0 km/h
1524 04-09-2014 06:55:00 14.1 C 11.65 g/m*3 14.1 C 0 km/h
1525 04-09-2014 07:00:00 14.1 C 11.65 g/m*3 14.1 C 0 km/h
Sensor: Nr:Datum:Temp:Abs-Feuchte:Windchill:Wind:
Aussen-T/F 1526 04-09-2014 07:05:00 14.1 C 11.65 g/m*3 14.1 C 0 km/h
1527 04-09-2014 07:10:00 14.1 C 11.77 g/m*3 14.1 C 0 km/h
1528 04-09-2014 07:15:00 14.2 C 11.84 g/m*3 14.2 C 0 km/h
1529 04-09-2014 07:20:00 14.3 C 11.92 g/m*3 14.3 C 0 km/h
1530 04-09-2014 07:25:00 14.3 C 11.92 g/m*3 14.3 C 0 km/h
1531 04-09-2014 07:30:00 14.3 C 11.79 g/m*3 14.3 C 0 km/h
1532 04-09-2014 07:35:00 14.3 C 11.79 g/m*3 14.3 C 0 km/h
1533 04-09-2014 07:40:00 14.4 C 11.99 g/m*3 14.4 C 0 km/h
1534 04-09-2014 07:45:00 14.5 C 12.06 g/m*3 14.5 C 0 km/h
1535 04-09-2014 07:50:00 14.6 C 12.14 g/m*3 14.6 C 0 km/h
1536 04-09-2014 07:55:00 14.6 C 12.14 g/m*3 14.6 C 0 km/h
1537 04-09-2014 08:00:00 14.7 C 12.21 g/m*3 14.7 C 0 km/h
1538 04-09-2014 08:05:00 14.8 C 12.29 g/m*3 14.8 C 0 km/h
1539 04-09-2014 08:10:00 14.8 C 12.16 g/m*3 14.8 C 0 km/h
1540 04-09-2014 08:15:00 14.8 C 12.16 g/m*3 14.8 C 0 km/h
1541 04-09-2014 08:20:00 14.9 C 12.24 g/m*3 14.9 C 0 km/h
1542 04-09-2014 08:25:00 14.9 C 12.24 g/m*3 14.9 C 0 km/h
1543 04-09-2014 08:30:00 15 C 12.31 g/m*3 15 C 0 km/h
1544 04-09-2014 08:35:00 15.1 C 12.39 g/m*3 15.1 C 0 km/h
1545 04-09-2014 08:40:00 15.2 C 12.46 g/m*3 15.2 C 0 km/h
1546 04-09-2014 08:45:00 15.3 C 12.54 g/m*3 15.3 C 0 km/h
1547 04-09-2014 08:50:00 15.3 C 12.54 g/m*3 15.3 C 0 km/h
1548 04-09-2014 08:55:00 15.4 C 12.48 g/m*3 15.4 C 0 km/h
1549 04-09-2014 09:00:00 15.4 C 12.61 g/m*3 15.4 C 0 km/h
1550 04-09-2014 09:05:00 15.6 C 12.63 g/m*3 15.6 C 0 km/h
Sensor: Nr:Datum:Temp:Abs-Feuchte:Windchill:Wind:
Aussen-T/F 1551 04-09-2014 09:10:00 15.7 C 12.71 g/m*3 15.7 C 0 km/h
1552 04-09-2014 09:15:00 15.7 C 12.71 g/m*3 15.7 C 0 km/h
1553 04-09-2014 09:20:00 15.8 C 12.79 g/m*3 15.8 C 0 km/h
1554 04-09-2014 09:25:00 15.9 C 12.73 g/m*3 15.9 C 0 km/h
1555 04-09-2014 09:30:00 16.1 C 12.88 g/m*3 16.1 C 0 km/h
1556 04-09-2014 09:35:00 16.2 C 12.82 g/m*3 16.2 C 0 km/h
1557 04-09-2014 09:40:00 16.3 C 12.9 g/m*3 16.3 C 0 km/h
1558 04-09-2014 09:45:00 16.4 C 12.84 g/m*3 16.4 C 0 km/h
1559 04-09-2014 09:50:00 16.7 C 12.93 g/m*3 16.7 C 0 km/h
1560 04-09-2014 09:55:00 16.9 C 13.09 g/m*3 16.9 C 0 km/h
1561 04-09-2014 10:00:00 17.1 C 13.1 g/m*3 17.1 C 0 km/h
1562 04-09-2014 10:05:00 17.3 C 13.11 g/m*3 17.3 C 0 km/h
1563 04-09-2014 10:10:00 17.4 C 13.04 g/m*3 17.4 C 0 km/h
1564 04-09-2014 10:15:00 17.7 C 13.13 g/m*3 17.7 C 0 km/h
1565 04-09-2014 10:20:00 17.9 C 13.13 g/m*3 17.9 C 0 km/h
1566 04-09-2014 10:25:00 18.1 C 13.29 g/m*3 18.1 C 0 km/h
1567 04-09-2014 10:30:00 18.2 C 13.21 g/m*3 18.2 C 0 km/h
1568 04-09-2014 10:35:00 18.4 C 13.05 g/m*3 18.4 C 0 km/h
1569 04-09-2014 10:40:00 18.5 C 13.45 g/m*3 18.5 C 0 km/h
1570 04-09-2014 10:45:00 18.6 C 13.21 g/m*3 18.6 C 0 km/h
1571 04-09-2014 10:50:00 18.7 C 13.13 g/m*3 18.7 C 0 km/h
1572 04-09-2014 10:55:00 18.9 C 13.45 g/m*3 18.9 C 0 km/h
1573 04-09-2014 11:00:00 19.1 C 13.44 g/m*3 19.1 C 0 km/h
1574 04-09-2014 11:05:00 19.2 C 13.36 g/m*3 19.2 C 0 km/h
1575 04-09-2014 11:10:00 19.3 C 13.27 g/m*3 19.3 C 8.1 km/h
Sensor: Nr:Datum:Temp:Abs-Feuchte:Windchill:Wind:
Aussen-T/F 1576 04-09-2014 11:15:00 19.3 C 13.1 g/m*3 19.3 C 9.7 km/h
1577 04-09-2014 11:20:00 19.3 C 12.94 g/m*3 19.3 C 3.2 km/h
1578 04-09-2014 11:25:00 19.3 C 13.1 g/m*3 19.3 C 0 km/h
1579 04-09-2014 11:30:00 19.3 C 13.1 g/m*3 19.3 C 9.7 km/h
1580 04-09-2014 11:35:00 19.3 C 12.94 g/m*3 19.3 C 6.4 km/h
1581 04-09-2014 11:40:00 19.4 C 13.18 g/m*3 19.4 C 6.4 km/h
1582 04-09-2014 11:45:00 19.7 C 13.25 g/m*3 19.7 C 8.1 km/h
1583 04-09-2014 11:50:00 19.7 C 13.08 g/m*3 19.7 C 9.7 km/h
1584 04-09-2014 11:55:00 19.7 C 13.08 g/m*3 19.7 C 11.3 km/h
1585 04-09-2014 12:00:00 19.8 C 13.15 g/m*3 19.8 C 8.1 km/h
1586 04-09-2014 12:05:00 19.7 C 13.25 g/m*3 19.7 C 8.1 km/h
1587 04-09-2014 12:10:00 19.7 C 13.25 g/m*3 19.7 C 6.4 km/h
1588 04-09-2014 12:15:00 19.8 C 13.32 g/m*3 19.8 C 6.4 km/h
1589 04-09-2014 12:20:00 19.8 C 13.32 g/m*3 19.8 C 6.4 km/h
1590 04-09-2014 12:25:00 19.9 C 13.4 g/m*3 19.9 C 8.1 km/h
1591 04-09-2014 12:30:00 19.9 C 13.57 g/m*3 19.9 C 8.1 km/h
1592 04-09-2014 12:35:00 19.9 C 13.06 g/m*3 19.9 C 8.1 km/h
1593 04-09-2014 12:40:00 19.9 C 13.23 g/m*3 19.9 C 9.7 km/h
1594 04-09-2014 12:45:00 19.8 C 13.32 g/m*3 19.8 C 6.4 km/h
1595 04-09-2014 12:50:00 19.8 C 13.15 g/m*3 19.8 C 12.9 km/h
1596 04-09-2014 12:55:00 19.8 C 13.15 g/m*3 19.8 C 12.9 km/h
1597 04-09-2014 13:00:00 19.9 C 13.23 g/m*3 19.9 C 9.7 km/h
1598 04-09-2014 13:05:00 19.8 C 12.98 g/m*3 19.8 C 12.9 km/h
1599 04-09-2014 13:10:00 19.7 C 13.08 g/m*3 19.7 C 9.7 km/h
1600 04-09-2014 13:15:00 19.6 C 13 g/m*3 19.6 C 6.4 km/h
Sensor: Nr:Datum:Temp:Abs-Feuchte:Windchill:Wind:
Aussen-T/F 1601 04-09-2014 13:20:00 19.6 C 13.17 g/m*3 19.6 C 6.4 km/h
1602 04-09-2014 13:25:00 19.6 C 13 g/m*3 19.6 C 6.4 km/h
1603 04-09-2014 13:30:00 19.7 C 13.25 g/m*3 19.7 C 9.7 km/h
1604 04-09-2014 13:35:00 19.7 C 13.25 g/m*3 19.7 C 8.1 km/h
1605 04-09-2014 13:40:00 19.6 C 13.34 g/m*3 19.6 C 3.2 km/h
1606 04-09-2014 13:45:00 19.6 C 13.34 g/m*3 19.6 C 4.8 km/h
1607 04-09-2014 13:50:00 19.5 C 13.09 g/m*3 19.5 C 4.8 km/h
1608 04-09-2014 13:55:00 19.5 C 13.43 g/m*3 19.5 C 0 km/h
1609 04-09-2014 14:00:00 19.5 C 13.26 g/m*3 19.5 C 8.1 km/h
1610 04-09-2014 14:05:00 19.6 C 13.34 g/m*3 19.6 C 8.1 km/h
1611 04-09-2014 14:10:00 19.8 C 13.32 g/m*3 19.8 C 9.7 km/h
1612 04-09-2014 14:15:00 19.8 C 13.32 g/m*3 19.8 C 9.7 km/h
1613 04-09-2014 14:20:00 19.9 C 13.4 g/m*3 19.9 C 8.1 km/h
1614 04-09-2014 14:25:00 20.1 C 13.56 g/m*3 20.1 C 11.3 km/h
1615 04-09-2014 14:30:00 20.2 C 13.64 g/m*3 20.2 C 8.1 km/h
1616 04-09-2014 14:35:00 20.2 C 13.46 g/m*3 20.2 C 6.4 km/h
1617 04-09-2014 14:40:00 20.2 C 13.64 g/m*3 20.2 C 8.1 km/h
1618 04-09-2014 14:45:00 20.3 C 13.72 g/m*3 20.3 C 8.1 km/h
1619 04-09-2014 14:50:00 20.4 C 13.62 g/m*3 20.4 C 6.4 km/h
1620 04-09-2014 14:55:00 20.3 C 13.54 g/m*3 20.3 C 6.4 km/h
1621 04-09-2014 15:00:00 20.2 C 13.64 g/m*3 20.2 C 6.4 km/h
1622 04-09-2014 15:05:00 20.2 C 13.64 g/m*3 20.2 C 6.4 km/h
1623 04-09-2014 15:10:00 20.2 C 13.46 g/m*3 20.2 C 6.4 km/h
1624 04-09-2014 15:15:00 20.2 C 13.64 g/m*3 20.2 C 0 km/h
1625 04-09-2014 15:20:00 20.1 C 13.39 g/m*3 20.1 C 11.3 km/h
Sensor: Nr:Datum:Temp:Abs-Feuchte:Windchill:Wind:
Aussen-T/F 1626 04-09-2014 15:25:00 20.1 C 13.56 g/m*3 20.1 C 0 km/h
1627 04-09-2014 15:30:00 20.1 C 13.39 g/m*3 20.1 C 0 km/h
1628 04-09-2014 15:35:00 20.1 C 13.73 g/m*3 20.1 C 4.8 km/h
1629 04-09-2014 15:40:00 20.2 C 13.64 g/m*3 20.2 C 0 km/h
1630 04-09-2014 15:45:00 20.1 C 13.39 g/m*3 20.1 C 4.8 km/h
1631 04-09-2014 15:50:00 20.1 C 13.39 g/m*3 20.1 C 8.1 km/h
1632 04-09-2014 15:55:00 20.1 C 13.21 g/m*3 20.1 C 9.7 km/h
1633 04-09-2014 16:00:00 20.1 C 13.56 g/m*3 20.1 C 0 km/h
1634 04-09-2014 16:05:00 19.9 C 13.57 g/m*3 19.9 C 6.4 km/h
1635 04-09-2014 16:10:00 19.9 C 13.23 g/m*3 19.9 C 8.1 km/h
1636 04-09-2014 16:15:00 19.9 C 13.4 g/m*3 19.9 C 0 km/h
1637 04-09-2014 16:20:00 19.9 C 13.57 g/m*3 19.9 C 0 km/h
1638 04-09-2014 16:25:00 19.8 C 13.32 g/m*3 19.8 C 0 km/h
1639 04-09-2014 16:30:00 19.7 C 13.75 g/m*3 19.7 C 0 km/h
1640 04-09-2014 16:35:00 19.4 C 13.51 g/m*3 19.4 C 0 km/h
1641 04-09-2014 16:40:00 19.3 C 13.6 g/m*3 19.3 C 0 km/h
1642 04-09-2014 16:45:00 19.3 C 13.27 g/m*3 19.3 C 8.1 km/h
1643 04-09-2014 16:50:00 19.4 C 13.35 g/m*3 19.4 C 0 km/h
1644 04-09-2014 16:55:00 19.6 C 13.67 g/m*3 19.6 C 4.8 km/h
1645 04-09-2014 17:00:00 19.7 C 14.09 g/m*3 19.7 C 0 km/h
1646 04-09-2014 17:05:00 19.4 C 14.18 g/m*3 19.4 C 0 km/h
1647 04-09-2014 17:10:00 19.2 C 14.18 g/m*3 19.2 C 0 km/h
1648 04-09-2014 17:15:00 19 C 14.18 g/m*3 19 C 0 km/h
1649 04-09-2014 17:20:00 18.9 C 13.45 g/m*3 18.9 C 0 km/h
1650 04-09-2014 17:25:00 19.2 C 13.85 g/m*3 19.2 C 0 km/h
Sensor: Nr:Datum:Temp:Abs-Feuchte:Windchill:Wind:
Aussen-T/F 1651 04-09-2014 17:30:00 19.3 C 14.1 g/m*3 19.3 C 0 km/h
1652 04-09-2014 17:35:00 19.2 C 14.18 g/m*3 19.2 C 0 km/h
1653 04-09-2014 17:40:00 18.9 C 14.09 g/m*3 18.9 C 0 km/h
1654 04-09-2014 17:45:00 18.7 C 14.09 g/m*3 18.7 C 0 km/h
1655 04-09-2014 17:50:00 18.6 C 14.17 g/m*3 18.6 C 0 km/h
1656 04-09-2014 17:55:00 18.5 C 14.08 g/m*3 18.5 C 0 km/h
1657 04-09-2014 18:00:00 18.4 C 14.16 g/m*3 18.4 C 0 km/h
1658 04-09-2014 18:05:00 18.3 C 14.07 g/m*3 18.3 C 0 km/h
1659 04-09-2014 18:10:00 18.2 C 13.99 g/m*3 18.2 C 0 km/h
1660 04-09-2014 18:15:00 18 C 13.98 g/m*3 18 C 0 km/h
1661 04-09-2014 18:20:00 18 C 13.98 g/m*3 18 C 0 km/h
1662 04-09-2014 18:25:00 17.9 C 13.89 g/m*3 17.9 C 0 km/h
1663 04-09-2014 18:30:00 17.8 C 13.96 g/m*3 17.8 C 0 km/h
1664 04-09-2014 18:35:00 17.8 C 13.96 g/m*3 17.8 C 0 km/h
1665 04-09-2014 18:40:00 17.7 C 13.88 g/m*3 17.7 C 0 km/h
1666 04-09-2014 18:45:00 17.7 C 13.88 g/m*3 17.7 C 0 km/h
1667 04-09-2014 18:50:00 17.6 C 13.8 g/m*3 17.6 C 0 km/h
1668 04-09-2014 18:55:00 17.5 C 13.72 g/m*3 17.5 C 0 km/h
1669 04-09-2014 19:00:00 17.5 C 13.87 g/m*3 17.5 C 0 km/h
1670 04-09-2014 19:05:00 17.4 C 13.78 g/m*3 17.4 C 0 km/h
1671 04-09-2014 19:10:00 17.4 C 13.78 g/m*3 17.4 C 0 km/h
1672 04-09-2014 19:15:00 17.4 C 13.78 g/m*3 17.4 C 0 km/h
1673 04-09-2014 19:20:00 17.3 C 13.7 g/m*3 17.3 C 0 km/h
1674 04-09-2014 19:25:00 17.3 C 13.7 g/m*3 17.3 C 0 km/h
1675 04-09-2014 19:30:00 17.3 C 13.7 g/m*3 17.3 C 0 km/h
Sensor: Nr:Datum:Temp:Abs-Feuchte:Windchill:Wind:
Aussen-T/F 1676 04-09-2014 19:35:00 17.3 C 13.7 g/m*3 17.3 C 0 km/h
1677 04-09-2014 19:40:00 17.2 C 13.62 g/m*3 17.2 C 0 km/h
1678 04-09-2014 19:45:00 17.2 C 13.62 g/m*3 17.2 C 0 km/h
1679 04-09-2014 19:50:00 17.2 C 13.62 g/m*3 17.2 C 0 km/h
1680 04-09-2014 19:55:00 17.2 C 13.62 g/m*3 17.2 C 0 km/h
1681 04-09-2014 20:00:00 17.2 C 13.62 g/m*3 17.2 C 0 km/h
1682 04-09-2014 20:05:00 17.2 C 13.62 g/m*3 17.2 C 0 km/h
1683 04-09-2014 20:10:00 17.1 C 13.54 g/m*3 17.1 C 0 km/h
1684 04-09-2014 20:15:00 17.1 C 13.68 g/m*3 17.1 C 0 km/h
1685 04-09-2014 20:20:00 17.1 C 13.68 g/m*3 17.1 C 0 km/h
1686 04-09-2014 20:25:00 17.1 C 13.68 g/m*3 17.1 C 0 km/h
1687 04-09-2014 20:30:00 17 C 13.6 g/m*3 17 C 0 km/h
1688 04-09-2014 20:35:00 17 C 13.6 g/m*3 17 C 0 km/h
1689 04-09-2014 20:40:00 17 C 13.6 g/m*3 17 C 0 km/h
1690 04-09-2014 20:45:00 16.9 C 13.52 g/m*3 16.9 C 0 km/h
1691 04-09-2014 20:50:00 16.9 C 13.52 g/m*3 16.9 C 0 km/h
1692 04-09-2014 20:55:00 16.9 C 13.52 g/m*3 16.9 C 0 km/h
1693 04-09-2014 21:00:00 16.9 C 13.52 g/m*3 16.9 C 0 km/h
1694 04-09-2014 21:05:00 16.9 C 13.52 g/m*3 16.9 C 0 km/h
1695 04-09-2014 21:10:00 16.9 C 13.52 g/m*3 16.9 C 0 km/h
1696 04-09-2014 21:15:00 16.9 C 13.52 g/m*3 16.9 C 0 km/h
1697 04-09-2014 21:20:00 16.9 C 13.66 g/m*3 16.9 C 0 km/h
1698 04-09-2014 21:25:00 16.9 C 13.66 g/m*3 16.9 C 0 km/h
1699 04-09-2014 21:30:00 16.8 C 13.58 g/m*3 16.8 C 0 km/h
1700 04-09-2014 21:35:00 16.8 C 13.58 g/m*3 16.8 C 0 km/h
Sensor: Nr:Datum:Temp:Abs-Feuchte:Windchill:Wind:
Aussen-T/F 1701 04-09-2014 21:40:00 16.8 C 13.58 g/m*3 16.8 C 0 km/h
1702 04-09-2014 21:45:00 16.8 C 13.58 g/m*3 16.8 C 0 km/h
1703 04-09-2014 21:50:00 16.8 C 13.58 g/m*3 16.8 C 0 km/h
1704 04-09-2014 21:55:00 16.8 C 13.58 g/m*3 16.8 C 0 km/h
1705 04-09-2014 22:00:00 16.8 C 13.58 g/m*3 16.8 C 0 km/h
1706 04-09-2014 22:05:00 16.8 C 13.58 g/m*3 16.8 C 0 km/h
1707 04-09-2014 22:10:00 16.8 C 13.58 g/m*3 16.8 C 0 km/h
1708 04-09-2014 22:15:00 16.8 C 13.58 g/m*3 16.8 C 0 km/h
1709 04-09-2014 22:20:00 16.8 C 13.58 g/m*3 16.8 C 0 km/h
1710 04-09-2014 22:25:00 16.8 C 13.58 g/m*3 16.8 C 0 km/h
1711 04-09-2014 22:30:00 16.8 C 13.58 g/m*3 16.8 C 0 km/h
1712 04-09-2014 22:35:00 16.8 C 13.58 g/m*3 16.8 C 0 km/h
1713 04-09-2014 22:40:00 16.8 C 13.58 g/m*3 16.8 C 0 km/h
1714 04-09-2014 22:45:00 16.8 C 13.58 g/m*3 16.8 C 0 km/h
1715 04-09-2014 22:50:00 16.8 C 13.58 g/m*3 16.8 C 0 km/h
1716 04-09-2014 22:55:00 16.8 C 13.58 g/m*3 16.8 C 0 km/h
1717 04-09-2014 23:00:00 16.8 C 13.58 g/m*3 16.8 C 0 km/h
1718 04-09-2014 23:05:00 16.8 C 13.58 g/m*3 16.8 C 0 km/h
1719 04-09-2014 23:10:00 16.7 C 13.5 g/m*3 16.7 C 0 km/h
1720 04-09-2014 23:15:00 16.7 C 13.5 g/m*3 16.7 C 0 km/h
1721 04-09-2014 23:20:00 16.7 C 13.5 g/m*3 16.7 C 0 km/h
1722 04-09-2014 23:25:00 16.6 C 13.42 g/m*3 16.6 C 0 km/h
1723 04-09-2014 23:30:00 16.4 C 13.26 g/m*3 16.4 C 0 km/h
1724 04-09-2014 23:35:00 16.4 C 13.26 g/m*3 16.4 C 0 km/h
1725 04-09-2014 23:40:00 16.3 C 13.18 g/m*3 16.3 C 0 km/h
Sensor: Nr:Datum:Temp:Abs-Feuchte:Windchill:Wind:
Aussen-T/F 1726 04-09-2014 23:45:00 16.3 C 13.18 g/m*3 16.3 C 0 km/h
1727 04-09-2014 23:50:00 16.3 C 13.18 g/m*3 16.3 C 0 km/h
1728 04-09-2014 23:55:00 16.3 C 13.18 g/m*3 16.3 C 0 km/h
1729 05-09-2014 00:00:00 16.2 C 13.24 g/m*3 16.2 C 0 km/h
1730 05-09-2014 00:05:00 16.2 C 13.24 g/m*3 16.2 C 0 km/h
1731 05-09-2014 00:10:00 16.1 C 13.02 g/m*3 16.1 C 0 km/h
1732 05-09-2014 00:15:00 16.1 C 13.16 g/m*3 16.1 C 0 km/h
1733 05-09-2014 00:20:00 16.1 C 13.16 g/m*3 16.1 C 0 km/h
1734 05-09-2014 00:25:00 16.1 C 13.16 g/m*3 16.1 C 0 km/h
1735 05-09-2014 00:30:00 16.1 C 13.16 g/m*3 16.1 C 0 km/h
1736 05-09-2014 00:35:00 16.1 C 13.16 g/m*3 16.1 C 0 km/h
1737 05-09-2014 00:40:00 15.9 C 13 g/m*3 15.9 C 0 km/h
1738 05-09-2014 00:45:00 15.8 C 12.92 g/m*3 15.8 C 0 km/h
1739 05-09-2014 00:50:00 15.8 C 12.92 g/m*3 15.8 C 0 km/h
1740 05-09-2014 00:55:00 15.7 C 12.84 g/m*3 15.7 C 0 km/h
1741 05-09-2014 01:00:00 15.7 C 12.84 g/m*3 15.7 C 0 km/h
1742 05-09-2014 01:05:00 15.6 C 12.77 g/m*3 15.6 C 0 km/h
1743 05-09-2014 01:10:00 15.6 C 12.77 g/m*3 15.6 C 0 km/h
1744 05-09-2014 01:15:00 15.6 C 12.77 g/m*3 15.6 C 0 km/h
1745 05-09-2014 01:20:00 15.6 C 12.77 g/m*3 15.6 C 0 km/h
1746 05-09-2014 01:25:00 15.7 C 12.98 g/m*3 15.7 C 0 km/h
1747 05-09-2014 01:30:00 15.7 C 12.98 g/m*3 15.7 C 0 km/h
1748 05-09-2014 01:35:00 15.7 C 12.98 g/m*3 15.7 C 0 km/h
1749 05-09-2014 01:40:00 15.8 C 13.06 g/m*3 15.8 C 0 km/h
1750 05-09-2014 01:45:00 15.8 C 13.06 g/m*3 15.8 C 0 km/h
Sensor: Nr:Datum:Temp:Abs-Feuchte:Windchill:Wind:
Aussen-T/F 1751 05-09-2014 01:50:00 15.8 C 13.06 g/m*3 15.8 C 0 km/h
1752 05-09-2014 01:55:00 15.8 C 13.06 g/m*3 15.8 C 0 km/h
1753 05-09-2014 02:00:00 15.8 C 13.06 g/m*3 15.8 C 0 km/h
1754 05-09-2014 02:05:00 15.8 C 13.06 g/m*3 15.8 C 0 km/h
1755 05-09-2014 02:10:00 15.9 C 13.14 g/m*3 15.9 C 0 km/h
1756 05-09-2014 02:15:00 15.9 C 13.14 g/m*3 15.9 C 0 km/h
1757 05-09-2014 02:20:00 15.9 C 13.14 g/m*3 15.9 C 0 km/h
1758 05-09-2014 02:25:00 15.9 C 13.14 g/m*3 15.9 C 0 km/h
1759 05-09-2014 02:30:00 15.9 C 13.14 g/m*3 15.9 C 0 km/h
1760 05-09-2014 02:35:00 15.9 C 13.14 g/m*3 15.9 C 0 km/h
1761 05-09-2014 02:40:00 15.9 C 13.14 g/m*3 15.9 C 0 km/h
1762 05-09-2014 02:45:00 15.9 C 13.14 g/m*3 15.9 C 0 km/h
1763 05-09-2014 02:50:00 15.9 C 13.14 g/m*3 15.9 C 0 km/h
1764 05-09-2014 02:55:00 15.9 C 13.14 g/m*3 15.9 C 0 km/h
1765 05-09-2014 03:00:00 15.9 C 13.14 g/m*3 15.9 C 0 km/h
1766 05-09-2014 03:05:00 15.9 C 13.14 g/m*3 15.9 C 0 km/h
1767 05-09-2014 03:10:00 15.9 C 13.14 g/m*3 15.9 C 0 km/h
1768 05-09-2014 03:15:00 15.9 C 13.14 g/m*3 15.9 C 0 km/h
1769 05-09-2014 03:20:00 16 C 13.22 g/m*3 16 C 0 km/h
1770 05-09-2014 03:25:00 16 C 13.22 g/m*3 16 C 0 km/h
1771 05-09-2014 03:30:00 16 C 13.22 g/m*3 16 C 0 km/h
1772 05-09-2014 03:35:00 16.1 C 13.3 g/m*3 16.1 C 0 km/h
1773 05-09-2014 03:40:00 16.1 C 13.3 g/m*3 16.1 C 0 km/h
1774 05-09-2014 03:45:00 16.1 C 13.3 g/m*3 16.1 C 0 km/h
1775 05-09-2014 03:50:00 16.1 C 13.3 g/m*3 16.1 C 0 km/h
Sensor: Nr:Datum:Temp:Abs-Feuchte:Windchill:Wind:
Aussen-T/F 1776 05-09-2014 03:55:00 16 C 13.22 g/m*3 16 C 0 km/h
1777 05-09-2014 04:00:00 16 C 13.22 g/m*3 16 C 0 km/h
1778 05-09-2014 04:05:00 16 C 13.22 g/m*3 16 C 0 km/h
1779 05-09-2014 04:10:00 15.9 C 13.14 g/m*3 15.9 C 0 km/h
1780 05-09-2014 04:15:00 15.9 C 13.14 g/m*3 15.9 C 0 km/h
1781 05-09-2014 04:20:00 16 C 13.22 g/m*3 16 C 0 km/h
1782 05-09-2014 04:25:00 16 C 13.22 g/m*3 16 C 0 km/h
1783 05-09-2014 04:30:00 15.9 C 13.14 g/m*3 15.9 C 0 km/h
1784 05-09-2014 04:35:00 15.9 C 13.14 g/m*3 15.9 C 0 km/h
1785 05-09-2014 04:40:00 15.9 C 13.14 g/m*3 15.9 C 0 km/h
1786 05-09-2014 04:45:00 15.9 C 13.14 g/m*3 15.9 C 0 km/h
1787 05-09-2014 04:50:00 15.9 C 13.14 g/m*3 15.9 C 0 km/h
1788 05-09-2014 04:55:00 15.9 C 13.14 g/m*3 15.9 C 0 km/h
1789 05-09-2014 05:00:00 15.9 C 13.14 g/m*3 15.9 C 0 km/h
1790 05-09-2014 05:05:00 15.9 C 13.14 g/m*3 15.9 C 0 km/h
1791 05-09-2014 05:10:00 15.9 C 13.14 g/m*3 15.9 C 0 km/h
1792 05-09-2014 05:15:00 15.9 C 13.14 g/m*3 15.9 C 0 km/h
1793 05-09-2014 05:20:00 15.9 C 13.14 g/m*3 15.9 C 0 km/h
1794 05-09-2014 05:25:00 15.9 C 13.14 g/m*3 15.9 C 0 km/h
1795 05-09-2014 05:30:00 15.9 C 13.14 g/m*3 15.9 C 0 km/h
1796 05-09-2014 05:35:00 15.9 C 13.14 g/m*3 15.9 C 0 km/h
1797 05-09-2014 05:40:00 15.9 C 13.14 g/m*3 15.9 C 0 km/h
1798 05-09-2014 05:45:00 15.9 C 13.14 g/m*3 15.9 C 0 km/h
1799 05-09-2014 05:50:00 15.8 C 13.06 g/m*3 15.8 C 0 km/h
1800 05-09-2014 05:55:00 15.8 C 13.06 g/m*3 15.8 C 0 km/h
Sensor: Nr:Datum:Temp:Abs-Feuchte:Windchill:Wind:
Aussen-T/F 1801 05-09-2014 06:00:00 15.8 C 13.06 g/m*3 15.8 C 0 km/h
1802 05-09-2014 06:05:00 15.7 C 12.98 g/m*3 15.7 C 0 km/h
1803 05-09-2014 06:10:00 15.7 C 12.98 g/m*3 15.7 C 0 km/h
1804 05-09-2014 06:15:00 15.7 C 12.98 g/m*3 15.7 C 0 km/h
1805 05-09-2014 06:20:00 15.7 C 12.98 g/m*3 15.7 C 0 km/h
1806 05-09-2014 06:25:00 15.7 C 12.98 g/m*3 15.7 C 0 km/h
1807 05-09-2014 06:30:00 15.7 C 12.98 g/m*3 15.7 C 0 km/h
1808 05-09-2014 06:35:00 15.7 C 12.98 g/m*3 15.7 C 0 km/h
1809 05-09-2014 06:40:00 15.7 C 12.98 g/m*3 15.7 C 0 km/h
1810 05-09-2014 06:45:00 15.7 C 12.98 g/m*3 15.7 C 0 km/h
1811 05-09-2014 06:50:00 15.7 C 12.98 g/m*3 15.7 C 0 km/h
1812 05-09-2014 06:55:00 15.7 C 12.98 g/m*3 15.7 C 0 km/h
1813 05-09-2014 07:00:00 15.7 C 12.98 g/m*3 15.7 C 0 km/h
1814 05-09-2014 07:05:00 15.6 C 12.9 g/m*3 15.6 C 0 km/h
1815 05-09-2014 07:10:00 15.6 C 12.9 g/m*3 15.6 C 0 km/h
1816 05-09-2014 07:15:00 15.6 C 12.9 g/m*3 15.6 C 0 km/h
1817 05-09-2014 07:20:00 15.7 C 12.98 g/m*3 15.7 C 0 km/h
1818 05-09-2014 07:25:00 15.7 C 12.98 g/m*3 15.7 C 0 km/h
1819 05-09-2014 07:30:00 15.7 C 12.98 g/m*3 15.7 C 0 km/h
1820 05-09-2014 07:35:00 15.7 C 12.98 g/m*3 15.7 C 0 km/h
1821 05-09-2014 07:40:00 15.8 C 13.06 g/m*3 15.8 C 0 km/h
1822 05-09-2014 07:45:00 15.8 C 13.06 g/m*3 15.8 C 0 km/h
1823 05-09-2014 07:50:00 15.8 C 13.06 g/m*3 15.8 C 0 km/h
1824 05-09-2014 07:55:00 15.8 C 13.06 g/m*3 15.8 C 0 km/h
1825 05-09-2014 08:00:00 15.9 C 13.14 g/m*3 15.9 C 0 km/h
Sensor: Nr:Datum:Temp:Abs-Feuchte:Windchill:Wind:
Aussen-T/F 1826 05-09-2014 08:05:00 15.9 C 13.27 g/m*3 15.9 C 0 km/h
1827 05-09-2014 08:10:00 16 C 13.35 g/m*3 16 C 0 km/h
1828 05-09-2014 08:15:00 16 C 13.35 g/m*3 16 C 0 km/h
1829 05-09-2014 08:20:00 16.1 C 13.43 g/m*3 16.1 C 0 km/h
1830 05-09-2014 08:25:00 16.1 C 13.43 g/m*3 16.1 C 0 km/h
1831 05-09-2014 08:30:00 16.1 C 13.43 g/m*3 16.1 C 0 km/h
1832 05-09-2014 08:35:00 16.2 C 13.38 g/m*3 16.2 C 0 km/h
1833 05-09-2014 08:40:00 16.2 C 13.38 g/m*3 16.2 C 0 km/h
1834 05-09-2014 08:45:00 16.3 C 13.46 g/m*3 16.3 C 0 km/h
1835 05-09-2014 08:50:00 16.3 C 13.46 g/m*3 16.3 C 0 km/h
1836 05-09-2014 08:55:00 16.3 C 13.46 g/m*3 16.3 C 0 km/h
1837 05-09-2014 09:00:00 16.3 C 13.46 g/m*3 16.3 C 0 km/h
1838 05-09-2014 09:05:00 16.4 C 13.54 g/m*3 16.4 C 0 km/h
1839 05-09-2014 09:10:00 16.4 C 13.54 g/m*3 16.4 C 0 km/h
1840 05-09-2014 09:15:00 16.5 C 13.62 g/m*3 16.5 C 0 km/h
1841 05-09-2014 09:20:00 16.6 C 13.7 g/m*3 16.6 C 0 km/h
1842 05-09-2014 09:25:00 16.7 C 13.79 g/m*3 16.7 C 0 km/h
1843 05-09-2014 09:30:00 16.8 C 13.87 g/m*3 16.8 C 0 km/h
1844 05-09-2014 09:35:00 16.8 C 13.73 g/m*3 16.8 C 0 km/h
1845 05-09-2014 09:40:00 16.8 C 13.73 g/m*3 16.8 C 0 km/h
1846 05-09-2014 09:45:00 16.9 C 13.81 g/m*3 16.9 C 0 km/h
1847 05-09-2014 09:50:00 17 C 13.75 g/m*3 17 C 0 km/h
1848 05-09-2014 09:55:00 17.2 C 14.06 g/m*3 17.2 C 0 km/h
1849 05-09-2014 10:00:00 17.4 C 14.08 g/m*3 17.4 C 0 km/h
1850 05-09-2014 10:05:00 17.5 C 14.01 g/m*3 17.5 C 0 km/h
Sensor: Nr:Datum:Temp:Abs-Feuchte:Windchill:Wind:
Aussen-T/F 1851 05-09-2014 10:10:00 17.6 C 13.95 g/m*3 17.6 C 0 km/h
1852 05-09-2014 10:15:00 17.7 C 14.03 g/m*3 17.7 C 0 km/h
1853 05-09-2014 10:20:00 17.8 C 13.96 g/m*3 17.8 C 0 km/h
1854 05-09-2014 10:25:00 17.9 C 14.05 g/m*3 17.9 C 0 km/h
1855 05-09-2014 10:30:00 18.1 C 14.06 g/m*3 18.1 C 0 km/h
1856 05-09-2014 10:35:00 18.2 C 14.14 g/m*3 18.2 C 0 km/h
1857 05-09-2014 10:40:00 18.3 C 14.23 g/m*3 18.3 C 0 km/h
1858 05-09-2014 10:45:00 18.4 C 14.31 g/m*3 18.4 C 0 km/h
1859 05-09-2014 10:50:00 18.6 C 14.32 g/m*3 18.6 C 0 km/h
1860 05-09-2014 10:55:00 18.8 C 14.33 g/m*3 18.8 C 0 km/h
1861 05-09-2014 11:00:00 18.9 C 14.26 g/m*3 18.9 C 0 km/h
1862 05-09-2014 11:05:00 19 C 14.5 g/m*3 19 C 0 km/h
1863 05-09-2014 11:10:00 19.2 C 14.51 g/m*3 19.2 C 0 km/h
1864 05-09-2014 11:15:00 19.4 C 14.85 g/m*3 19.4 C 0 km/h
1865 05-09-2014 11:20:00 19.5 C 14.6 g/m*3 19.5 C 0 km/h
1866 05-09-2014 11:25:00 19.6 C 14.86 g/m*3 19.6 C 0 km/h
1867 05-09-2014 11:30:00 19.6 C 14.86 g/m*3 19.6 C 0 km/h
1868 05-09-2014 11:35:00 19.6 C 14.69 g/m*3 19.6 C 0 km/h
1869 05-09-2014 11:40:00 19.7 C 14.77 g/m*3 19.7 C 0 km/h
1870 05-09-2014 11:45:00 19.7 C 14.94 g/m*3 19.7 C 0 km/h
1871 05-09-2014 11:50:00 19.8 C 14.86 g/m*3 19.8 C 0 km/h
1872 05-09-2014 11:55:00 19.8 C 14.52 g/m*3 19.8 C 0 km/h
1873 05-09-2014 12:00:00 19.9 C 14.6 g/m*3 19.9 C 0 km/h
1874 05-09-2014 12:05:00 20 C 15.04 g/m*3 20 C 0 km/h
1875 05-09-2014 12:10:00 20.1 C 14.95 g/m*3 20.1 C 0 km/h
Sensor: Nr:Datum:Temp:Abs-Feuchte:Windchill:Wind:
Aussen-T/F 1876 05-09-2014 12:15:00 20.1 C 14.6 g/m*3 20.1 C 0 km/h
1877 05-09-2014 12:20:00 20.2 C 14.69 g/m*3 20.2 C 0 km/h
1878 05-09-2014 12:25:00 20.2 C 14.86 g/m*3 20.2 C 0 km/h
1879 05-09-2014 12:30:00 20.3 C 15.13 g/m*3 20.3 C 0 km/h
1880 05-09-2014 12:35:00 20.4 C 15.04 g/m*3 20.4 C 0 km/h
1881 05-09-2014 12:40:00 20.4 C 15.21 g/m*3 20.4 C 0 km/h
1882 05-09-2014 12:45:00 20.3 C 15.3 g/m*3 20.3 C 0 km/h
1883 05-09-2014 12:50:00 20.3 C 15.3 g/m*3 20.3 C 0 km/h
1884 05-09-2014 12:55:00 20.6 C 15.57 g/m*3 20.6 C 0 km/h
1885 05-09-2014 13:00:00 20.9 C 15.66 g/m*3 20.9 C 0 km/h
1886 05-09-2014 13:05:00 21.3 C 16.03 g/m*3 21.3 C 0 km/h
1887 05-09-2014 13:10:00 21.8 C 15.54 g/m*3 21.8 C 0 km/h
1888 05-09-2014 13:15:00 22.2 C 16.1 g/m*3 22.2 C 0 km/h
1889 05-09-2014 13:20:00 22.6 C 15.67 g/m*3 22.6 C 0 km/h
1890 05-09-2014 13:25:00 22.8 C 16.46 g/m*3 22.8 C 0 km/h
1891 05-09-2014 13:30:00 22.8 C 16.05 g/m*3 22.8 C 0 km/h
1892 05-09-2014 13:35:00 22.9 C 16.14 g/m*3 22.9 C 0 km/h
1893 05-09-2014 13:40:00 23 C 15.21 g/m*3 23 C 0 km/h
1894 05-09-2014 13:45:00 23.2 C 16.84 g/m*3 23.2 C 0 km/h
1895 05-09-2014 13:50:00 23.1 C 16.54 g/m*3 23.1 C 0 km/h
1896 05-09-2014 13:55:00 22.9 C 16.35 g/m*3 22.9 C 0 km/h
1897 05-09-2014 14:00:00 22.9 C 16.76 g/m*3 22.9 C 0 km/h
1898 05-09-2014 14:05:00 22.9 C 16.76 g/m*3 22.9 C 0 km/h
1899 05-09-2014 14:10:00 23 C 16.85 g/m*3 23 C 0 km/h
1900 05-09-2014 14:15:00 22.9 C 16.55 g/m*3 22.9 C 0 km/h
Sensor: Nr:Datum:Temp:Abs-Feuchte:Windchill:Wind:
Aussen-T/F 1901 05-09-2014 14:20:00 22.7 C 16.37 g/m*3 22.7 C 0 km/h
1902 05-09-2014 14:25:00 22.5 C 16.58 g/m*3 22.5 C 0 km/h
1903 05-09-2014 14:30:00 22.4 C 16.28 g/m*3 22.4 C 0 km/h
1904 05-09-2014 14:35:00 22.5 C 15.98 g/m*3 22.5 C 0 km/h
1905 05-09-2014 14:40:00 22.4 C 16.48 g/m*3 22.4 C 0 km/h
1906 05-09-2014 14:45:00 22.4 C 16.48 g/m*3 22.4 C 0 km/h
1907 05-09-2014 14:50:00 22.4 C 16.28 g/m*3 22.4 C 0 km/h
1908 05-09-2014 14:55:00 22.4 C 16.09 g/m*3 22.4 C 0 km/h
1909 05-09-2014 15:00:00 22.3 C 16.19 g/m*3 22.3 C 0 km/h
1910 05-09-2014 15:05:00 22.2 C 16.1 g/m*3 22.2 C 0 km/h
1911 05-09-2014 15:10:00 22.1 C 15.81 g/m*3 22.1 C 0 km/h
1912 05-09-2014 15:15:00 22.2 C 15.9 g/m*3 22.2 C 0 km/h
1913 05-09-2014 15:20:00 22.2 C 15.9 g/m*3 22.2 C 0 km/h
1914 05-09-2014 15:25:00 22.3 C 15.8 g/m*3 22.3 C 0 km/h
1915 05-09-2014 15:30:00 22.4 C 15.89 g/m*3 22.4 C 0 km/h
1916 05-09-2014 15:35:00 22.3 C 15.99 g/m*3 22.3 C 0 km/h
1917 05-09-2014 15:40:00 22.3 C 15.99 g/m*3 22.3 C 0 km/h
1918 05-09-2014 15:45:00 22.3 C 15.6 g/m*3 22.3 C 0 km/h
1919 05-09-2014 15:50:00 22.3 C 15.8 g/m*3 22.3 C 0 km/h
1920 05-09-2014 15:55:00 22.2 C 15.9 g/m*3 22.2 C 0 km/h
1921 05-09-2014 16:00:00 22.2 C 15.9 g/m*3 22.2 C 0 km/h
1922 05-09-2014 16:05:00 22.2 C 15.9 g/m*3 22.2 C 0 km/h
1923 05-09-2014 16:10:00 22.1 C 15.81 g/m*3 22.1 C 0 km/h
1924 05-09-2014 16:15:00 22 C 15.72 g/m*3 22 C 0 km/h
1925 05-09-2014 16:20:00 22.1 C 16.01 g/m*3 22.1 C 0 km/h
Sensor: Nr:Datum:Temp:Abs-Feuchte:Windchill:Wind:
Aussen-T/F 1926 05-09-2014 16:25:00 22.1 C 16.01 g/m*3 22.1 C 0 km/h
1927 05-09-2014 16:30:00 22.1 C 16.2 g/m*3 22.1 C 0 km/h
1928 05-09-2014 16:35:00 22.1 C 16.2 g/m*3 22.1 C 0 km/h
1929 05-09-2014 16:40:00 22.2 C 16.1 g/m*3 22.2 C 0 km/h
1930 05-09-2014 16:45:00 22.3 C 16.39 g/m*3 22.3 C 0 km/h
1931 05-09-2014 16:50:00 22.3 C 16.39 g/m*3 22.3 C 0 km/h
1932 05-09-2014 16:55:00 22.1 C 16.2 g/m*3 22.1 C 0 km/h
1933 05-09-2014 17:00:00 21.9 C 16.21 g/m*3 21.9 C 0 km/h
1934 05-09-2014 17:05:00 21.7 C 16.02 g/m*3 21.7 C 0 km/h
1935 05-09-2014 17:10:00 21.6 C 16.12 g/m*3 21.6 C 0 km/h
1936 05-09-2014 17:15:00 21.7 C 16.21 g/m*3 21.7 C 0 km/h
1937 05-09-2014 17:20:00 21.8 C 16.31 g/m*3 21.8 C 0 km/h
1938 05-09-2014 17:25:00 21.8 C 16.12 g/m*3 21.8 C 0 km/h
1939 05-09-2014 17:30:00 21.9 C 16.21 g/m*3 21.9 C 0 km/h
1940 05-09-2014 17:35:00 21.9 C 16.21 g/m*3 21.9 C 0 km/h
1941 05-09-2014 17:40:00 21.7 C 16.02 g/m*3 21.7 C 0 km/h
1942 05-09-2014 17:45:00 21.5 C 16.03 g/m*3 21.5 C 0 km/h
1943 05-09-2014 17:50:00 21.3 C 15.84 g/m*3 21.3 C 0 km/h
1944 05-09-2014 17:55:00 21.1 C 15.85 g/m*3 21.1 C 0 km/h
1945 05-09-2014 18:00:00 20.8 C 15.57 g/m*3 20.8 C 0 km/h
1946 05-09-2014 18:05:00 20.7 C 15.66 g/m*3 20.7 C 0 km/h
1947 05-09-2014 18:10:00 20.6 C 15.57 g/m*3 20.6 C 0 km/h
1948 05-09-2014 18:15:00 20.4 C 15.39 g/m*3 20.4 C 0 km/h
1949 05-09-2014 18:20:00 20.4 C 15.57 g/m*3 20.4 C 0 km/h
1950 05-09-2014 18:25:00 20.5 C 15.66 g/m*3 20.5 C 0 km/h
Sensor: Nr:Datum:Temp:Abs-Feuchte:Windchill:Wind:
Aussen-T/F 1951 05-09-2014 18:30:00 20.5 C 15.66 g/m*3 20.5 C 0 km/h
1952 05-09-2014 18:35:00 20.4 C 15.39 g/m*3 20.4 C 0 km/h
1953 05-09-2014 18:40:00 20.2 C 15.21 g/m*3 20.2 C 0 km/h
1954 05-09-2014 18:45:00 20.1 C 15.3 g/m*3 20.1 C 0 km/h
1955 05-09-2014 18:50:00 19.8 C 15.2 g/m*3 19.8 C 0 km/h
1956 05-09-2014 18:55:00 19.6 C 15.02 g/m*3 19.6 C 0 km/h
1957 05-09-2014 19:00:00 19.4 C 14.85 g/m*3 19.4 C 0 km/h
1958 05-09-2014 19:05:00 19.3 C 14.93 g/m*3 19.3 C 0 km/h
1959 05-09-2014 19:10:00 19.2 C 14.84 g/m*3 19.2 C 0 km/h
1960 05-09-2014 19:15:00 19.1 C 14.75 g/m*3 19.1 C 0 km/h
1961 05-09-2014 19:20:00 19.1 C 14.75 g/m*3 19.1 C 0 km/h
1962 05-09-2014 19:25:00 19 C 14.67 g/m*3 19 C 0 km/h
1963 05-09-2014 19:30:00 18.9 C 14.58 g/m*3 18.9 C 0 km/h
1964 05-09-2014 19:35:00 18.8 C 14.66 g/m*3 18.8 C 0 km/h
1965 05-09-2014 19:40:00 18.8 C 14.66 g/m*3 18.8 C 0 km/h
1966 05-09-2014 19:45:00 18.8 C 14.49 g/m*3 18.8 C 0 km/h
1967 05-09-2014 19:50:00 18.8 C 14.49 g/m*3 18.8 C 0 km/h
1968 05-09-2014 19:55:00 18.7 C 14.41 g/m*3 18.7 C 0 km/h
1969 05-09-2014 20:00:00 18.6 C 14.32 g/m*3 18.6 C 0 km/h
1970 05-09-2014 20:05:00 18.4 C 14.16 g/m*3 18.4 C 0 km/h
1971 05-09-2014 20:10:00 18.4 C 14.31 g/m*3 18.4 C 0 km/h
1972 05-09-2014 20:15:00 18.3 C 14.23 g/m*3 18.3 C 0 km/h
1973 05-09-2014 20:20:00 18.2 C 14.14 g/m*3 18.2 C 0 km/h
1974 05-09-2014 20:25:00 18.2 C 14.14 g/m*3 18.2 C 0 km/h
1975 05-09-2014 20:30:00 18.1 C 14.21 g/m*3 18.1 C 0 km/h
Sensor: Nr:Datum:Temp:Abs-Feuchte:Windchill:Wind:
Aussen-T/F 1976 05-09-2014 20:35:00 18 C 14.13 g/m*3 18 C 0 km/h
1977 05-09-2014 20:40:00 17.9 C 14.05 g/m*3 17.9 C 0 km/h
1978 05-09-2014 20:45:00 17.8 C 13.96 g/m*3 17.8 C 0 km/h
1979 05-09-2014 20:50:00 17.8 C 13.96 g/m*3 17.8 C 0 km/h
1980 05-09-2014 20:55:00 17.8 C 13.96 g/m*3 17.8 C 0 km/h
1981 05-09-2014 21:00:00 17.7 C 13.88 g/m*3 17.7 C 0 km/h
1982 05-09-2014 21:05:00 17.6 C 13.8 g/m*3 17.6 C 0 km/h
1983 05-09-2014 21:10:00 17.6 C 13.8 g/m*3 17.6 C 0 km/h
1984 05-09-2014 21:15:00 17.5 C 13.72 g/m*3 17.5 C 0 km/h
1985 05-09-2014 21:20:00 17.4 C 13.63 g/m*3 17.4 C 0 km/h
1986 05-09-2014 21:25:00 17.3 C 13.55 g/m*3 17.3 C 0 km/h
1987 05-09-2014 21:30:00 17.3 C 13.7 g/m*3 17.3 C 0 km/h
1988 05-09-2014 21:35:00 17.2 C 13.62 g/m*3 17.2 C 0 km/h
1989 05-09-2014 21:40:00 17.1 C 13.39 g/m*3 17.1 C 0 km/h
1990 05-09-2014 21:45:00 17 C 13.46 g/m*3 17 C 0 km/h
1991 05-09-2014 21:50:00 16.9 C 13.38 g/m*3 16.9 C 0 km/h
1992 05-09-2014 21:55:00 16.9 C 13.38 g/m*3 16.9 C 0 km/h
1993 05-09-2014 22:00:00 16.8 C 13.3 g/m*3 16.8 C 0 km/h
1994 05-09-2014 22:05:00 16.8 C 13.3 g/m*3 16.8 C 0 km/h
1995 05-09-2014 22:10:00 16.7 C 13.22 g/m*3 16.7 C 0 km/h
1996 05-09-2014 22:15:00 16.7 C 13.22 g/m*3 16.7 C 0 km/h
1997 05-09-2014 22:20:00 16.6 C 13.14 g/m*3 16.6 C 0 km/h
1998 05-09-2014 22:25:00 16.6 C 13.28 g/m*3 16.6 C 0 km/h
1999 05-09-2014 22:30:00 16.6 C 13.28 g/m*3 16.6 C 0 km/h
2000 05-09-2014 22:35:00 16.5 C 13.2 g/m*3 16.5 C 0 km/h
Sensor: Nr:Datum:Temp:Abs-Feuchte:Windchill:Wind:
Aussen-T/F 2001 05-09-2014 22:40:00 16.4 C 13.12 g/m*3 16.4 C 0 km/h
2002 05-09-2014 22:45:00 16.4 C 13.12 g/m*3 16.4 C 0 km/h
2003 05-09-2014 22:50:00 16.4 C 13.12 g/m*3 16.4 C 0 km/h
2004 05-09-2014 22:55:00 16.3 C 13.04 g/m*3 16.3 C 0 km/h
2005 05-09-2014 23:00:00 16.2 C 12.96 g/m*3 16.2 C 0 km/h
2006 05-09-2014 23:05:00 16.2 C 12.96 g/m*3 16.2 C 0 km/h
2007 05-09-2014 23:10:00 16.2 C 12.96 g/m*3 16.2 C 0 km/h
2008 05-09-2014 23:15:00 16.1 C 12.88 g/m*3 16.1 C 0 km/h
2009 05-09-2014 23:20:00 16.1 C 13.02 g/m*3 16.1 C 0 km/h
2010 05-09-2014 23:25:00 16 C 12.94 g/m*3 16 C 0 km/h
2011 05-09-2014 23:30:00 15.9 C 12.87 g/m*3 15.9 C 0 km/h
2012 05-09-2014 23:35:00 15.9 C 12.87 g/m*3 15.9 C 0 km/h
2013 05-09-2014 23:40:00 15.8 C 12.79 g/m*3 15.8 C 0 km/h
2014 05-09-2014 23:45:00 15.8 C 12.79 g/m*3 15.8 C 0 km/h
2015 05-09-2014 23:50:00 15.8 C 12.79 g/m*3 15.8 C 0 km/h
2016 05-09-2014 23:55:00 15.7 C 12.71 g/m*3 15.7 C 0 km/h

Legende:
   Min
   Max


Maximal/Minimal-Werte vom 30.08.2014 - 05.09.2014

Sensor Min Max Avg
Temp
(Aussen-T/F)
10.7 °C
02-09-2014  07:25:00
23.2 °C
05-09-2014  13:45:00
15.73 °C
Abs-Feuchte
(Aussen-T/F)
9.53 g/m*3
02-09-2014  07:25:00
16.85 g/m*3
05-09-2014  14:10:00
12.19 g/m*3
Windchill
(Aussen-T/F)
10.7 C
02-09-2014  07:25:00
23.2 C
05-09-2014  13:45:00
15.72 C

Die Daten stammen von einer Davis Vantage Pro 2 Wetter-Station und werden unter Linux mit der Software wview2wettercgi und aufbereitet. Alle Angaben erfolgen ohne Gewähr für ihre Vollständigkeit oder Richtigkeit.
Kontakt: Rainer Krienke krienke@uni-koblenz.de . Meine Webseiten an der Uni Koblenz oder privat.
Version: $Revision: 0.78 $